Provisional Data: Lititz Run near Lititz, PA


Please select a monitoring station.
Please select start date.
Please select start date.

Toggle Unit: C/F Toggle Unit: C/F
Sample Time Temperature (C) Temperature (F) Specific Conductivity (mS/cm) pH   Turbidity (NTU+) DO (mg/L)
12/11/2021 12:00:00 AM 11.29 52.322 0.99 7.83 5.05 9.34
12/11/2021 12:15:00 AM 11.28 52.304 0.992 7.82 4.45 9.32
12/11/2021 12:30:00 AM 11.28 52.304 0.995 7.82 4.69 9.31
12/11/2021 12:45:00 AM 11.28 52.304 0.996 7.82 4.38 9.3
12/11/2021 1:00:00 AM 11.27 52.286 0.997 7.82 4.76 9.29
12/11/2021 1:15:00 AM 11.27 52.286 0.997 7.82 4.69 9.29
12/11/2021 1:30:00 AM 11.26 52.268 0.997 7.82 4.72 9.28
12/11/2021 1:45:00 AM 11.26 52.268 0.996 7.82 4.43 9.28
12/11/2021 2:00:00 AM 11.25 52.25 0.996 7.82 4.24 9.29
12/11/2021 2:15:00 AM 11.25 52.25 0.995 7.81 4.58 9.28
12/11/2021 2:30:00 AM 11.24 52.232 0.995 7.81 5.8 9.29
12/11/2021 2:45:00 AM 11.23 52.214 0.995 7.82 5.83 9.28
12/11/2021 3:00:00 AM 11.23 52.214 0.995 7.82 4.87 9.28
12/11/2021 3:15:00 AM 11.23 52.214 0.994 7.82 5.14 9.28
12/11/2021 3:30:00 AM 11.22 52.196 0.993 7.82 5.08 9.28
12/11/2021 3:45:00 AM 11.22 52.196 0.992 7.82 5.21 9.27
12/11/2021 4:00:00 AM 11.21 52.178 0.99 7.82 5.46 9.28
12/11/2021 4:15:00 AM 11.2 52.16 0.987 7.82 5.53 9.28
12/11/2021 4:30:00 AM 11.19 52.142 0.985 7.82 6.01 9.28
12/11/2021 4:45:00 AM 11.19 52.142 0.982 7.82 6.06 9.28
12/11/2021 5:00:00 AM 11.18 52.124 0.979 7.82 5.8 9.28
12/11/2021 5:15:00 AM 11.18 52.124 0.976 7.82 6.02 9.28
12/11/2021 5:30:00 AM 11.18 52.124 0.973 7.82 5.95 9.29
12/11/2021 5:45:00 AM 11.17 52.106 0.969 7.82 5.84 9.29
12/11/2021 6:00:00 AM 11.17 52.106 0.964 7.83 6.19 9.3
12/11/2021 6:15:00 AM 11.17 52.106 0.959 7.83 6.33 9.31
12/11/2021 6:30:00 AM 11.17 52.106 0.953 7.83 6.93 9.31
12/11/2021 6:45:00 AM 11.16 52.088 0.945 7.83 6.69 9.31
12/11/2021 7:00:00 AM 11.15 52.07 0.937 7.83 5.88 9.33
12/11/2021 7:15:00 AM 11.15 52.07 0.93 7.83 5.96 9.33
12/11/2021 7:30:00 AM 11.14 52.052 0.924 7.84 5.12 9.34
12/11/2021 7:45:00 AM 11.14 52.052 0.919 7.84 5.28 9.35
12/11/2021 8:00:00 AM 11.14 52.052 0.914 7.84 5.18 9.38
12/11/2021 8:15:00 AM 11.14 52.052 0.91 7.84 5.04 9.39
12/11/2021 8:30:00 AM 11.15 52.07 0.907 7.84 4.57 9.4
12/11/2021 8:45:00 AM 11.16 52.088 0.905 7.85 4.89 9.43
12/11/2021 9:00:00 AM 11.18 52.124 0.905 7.85 5.09 9.48
12/11/2021 9:15:00 AM 11.2 52.16 0.905 7.85 4.65 9.52
12/11/2021 9:30:00 AM 11.22 52.196 0.906 7.86 4.59 9.54
12/11/2021 9:45:00 AM 11.25 52.25 0.907 7.86 4.74 9.56
12/11/2021 10:00:00 AM 11.29 52.322 0.908 7.86 4.87 9.6
12/11/2021 10:15:00 AM 11.33 52.394 0.908 7.86 4.81 9.62
12/11/2021 10:30:00 AM 11.38 52.484 0.906 7.87 4.58 9.66
12/11/2021 10:45:00 AM 11.42 52.556 0.903 7.87 4.69 9.7
12/11/2021 11:00:00 AM 11.47 52.646 0.898 7.88 4.85 9.74
12/11/2021 11:15:00 AM 11.51 52.718 0.894 7.88 4.4 9.76
12/11/2021 11:30:00 AM 11.56 52.808 0.89 7.88 4.58 9.79
12/11/2021 11:45:00 AM 11.61 52.898 0.889 7.89 4.99 9.85
12/11/2021 12:00:00 PM 11.67 53.006 0.891 7.89 4.19 9.91
12/11/2021 12:15:00 PM 11.74 53.132 0.895 7.9 4.4 9.99
12/11/2021 12:30:00 PM 11.82 53.276 0.901 7.9 4.81 10.07
12/11/2021 12:45:00 PM 11.91 53.438 0.909 7.91 5.03 10.17
12/11/2021 1:00:00 PM 11.99 53.582 0.917 7.92 4.51 10.19
12/11/2021 1:15:00 PM 12.08 53.744 0.925 7.92 4.33 10.25
12/11/2021 1:30:00 PM 12.18 53.924 0.933 7.93 4.5 10.31
12/11/2021 1:45:00 PM 12.27 54.086 0.942 7.93 5.18 10.29
12/11/2021 2:00:00 PM 12.36 54.248 0.952 7.93 4.97 10.23
12/11/2021 2:15:00 PM 12.45 54.41 0.96 7.93 4.55 10.2
12/11/2021 2:30:00 PM 12.54 54.572 0.969 7.93 4.56 10.16
12/11/2021 2:45:00 PM 12.62 54.716 0.978 7.92 4.43 10.09
12/11/2021 3:00:00 PM 12.7 54.86 0.988 7.92 4.65 10
12/11/2021 3:15:00 PM 12.78 55.004 0.996 7.91 4.11 9.96
12/11/2021 3:30:00 PM 12.85 55.13 1.005 7.91 4.02 9.94
12/11/2021 3:45:00 PM 12.93 55.274 1.012 7.91 4.12 9.89
12/11/2021 4:00:00 PM 13 55.4 1.019 7.91 3.91 9.83
12/11/2021 4:15:00 PM 13.05 55.49 1.024 7.9 3.84 9.76
12/11/2021 4:30:00 PM 13.1 55.58 1.028 7.9 4.62 9.69
12/11/2021 4:45:00 PM 13.15 55.67 1.03 7.89 4.7 9.61
12/11/2021 5:00:00 PM 13.19 55.742 1.031 7.89 4.55 9.55
12/11/2021 5:15:00 PM 13.24 55.832 1.032 7.88 4.67 9.49
12/11/2021 5:30:00 PM 13.28 55.904 1.034 7.88 4.88 9.44
12/11/2021 5:45:00 PM 13.32 55.976 1.036 7.87 5.46 9.38
12/11/2021 6:00:00 PM 13.36 56.048 1.037 7.87 5.36 9.33
12/11/2021 6:15:00 PM 13.4 56.12 1.037 7.86 4.85 9.28
12/11/2021 6:30:00 PM 13.43 56.174 1.036 7.86 4.65 9.22
12/11/2021 6:45:00 PM 13.46 56.228 1.035 7.86 5.68 9.17
12/11/2021 7:00:00 PM 13.48 56.264 1.033 7.85 5.24 9.11
12/11/2021 7:15:00 PM 13.5 56.3 1.031 7.86 5.46 9.06
12/11/2021 7:30:00 PM 13.51 56.318 1.027 7.85 5.81 9.01
12/11/2021 7:45:00 PM 13.52 56.336 1.022 7.85 5.32 8.98
12/11/2021 8:00:00 PM 13.53 56.354 1.018 7.84 5.12 8.93
12/11/2021 8:15:00 PM 13.54 56.372 1.014 7.84 4.66 8.9
12/11/2021 8:30:00 PM 13.54 56.372 1.01 7.84 4.45 8.87
12/11/2021 8:45:00 PM 13.51 56.318 1.008 7.84 4.74 8.83
12/11/2021 9:00:00 PM 13.46 56.228 1.006 7.83 4.71 8.82
12/11/2021 9:15:00 PM 13.4 56.12 1.005 7.83 6.02 8.79
12/11/2021 9:30:00 PM 13.36 56.048 1.004 7.83 4.75 8.78
12/11/2021 9:45:00 PM 13.3 55.94 1.005 7.83 4.91 8.76
12/11/2021 10:00:00 PM 13.23 55.814 1.005 7.83 4.79 8.75
12/11/2021 10:15:00 PM 13.14 55.652 1.004 7.82 5.25 8.75
12/11/2021 10:30:00 PM 13.04 55.472 1.003 7.82 4.57 8.76
12/11/2021 10:45:00 PM 12.95 55.31 1.002 7.83 4.46 8.77
12/11/2021 11:00:00 PM 12.88 55.184 1.001 7.82 4.91 8.78
12/11/2021 11:15:00 PM 12.82 55.076 1 7.82 4.62 8.78
12/11/2021 11:30:00 PM 12.76 54.968 1 7.82 4.37 8.79
12/11/2021 11:45:00 PM 12.67 54.806 1.002 7.82 4.91 8.81
12/12/2021 12:00:00 AM 12.59 54.662 1.003 7.82 4.17 8.82
12/12/2021 12:15:00 AM 12.49 54.482 1.004 7.82 4.58 8.83
12/12/2021 12:30:00 AM 12.4 54.32 1.005 7.82 4.44 8.85
12/12/2021 12:45:00 AM 12.33 54.194 1.005 7.83 4.8 8.87
12/12/2021 1:00:00 AM 12.24 54.032 1.005 7.83 4.62 8.9
12/12/2021 1:15:00 AM 12.14 53.852 1.005 7.83 4.21 8.93
12/12/2021 1:30:00 AM 12.03 53.654 1.005 7.83 5.54 8.95
12/12/2021 1:45:00 AM 11.93 53.474 1.005 7.83 5.83 8.98
12/12/2021 2:00:00 AM 11.83 53.294 1.005 7.83 5.19 9.01
12/12/2021 2:15:00 AM 11.73 53.114 1.005 7.83 5.73 9.04
12/12/2021 2:30:00 AM 11.61 52.898 1.003 7.83 4.85 9.08
12/12/2021 2:45:00 AM 11.52 52.736 1 7.84 4.35 9.11
12/12/2021 3:00:00 AM 11.43 52.574 0.997 7.84 4.69 9.15
12/12/2021 3:15:00 AM 11.33 52.394 0.993 7.84 4.59 9.19
12/12/2021 3:30:00 AM 11.23 52.214 0.989 7.84 4.63 9.22
12/12/2021 3:45:00 AM 11.12 52.016 0.985 7.85 4.03 9.25
12/12/2021 4:00:00 AM 11.02 51.836 0.981 7.85 4.62 9.29
12/12/2021 4:15:00 AM 10.93 51.674 0.978 7.85 4.98 9.33
12/12/2021 4:30:00 AM 10.85 51.53 0.976 7.85 5.63 9.35
12/12/2021 4:45:00 AM 10.76 51.368 0.974 7.85 5.01 9.38
12/12/2021 5:00:00 AM 10.68 51.224 0.972 7.85 5.34 9.39
12/12/2021 5:15:00 AM 10.6 51.08 0.971 7.84 5.74 9.42
12/12/2021 5:30:00 AM 10.53 50.954 0.969 7.84 5.92 9.43
12/12/2021 5:45:00 AM 10.46 50.828 0.966 7.84 5.46 9.44
12/12/2021 6:00:00 AM 10.39 50.702 0.963 7.84 5.91 9.45
12/12/2021 6:15:00 AM 10.34 50.612 0.959 7.83 5.94 9.46
12/12/2021 6:30:00 AM 10.27 50.486 0.954 7.83 6.35 9.47
12/12/2021 6:45:00 AM 10.2 50.36 0.949 7.82 6.53 9.48
12/12/2021 7:00:00 AM 10.12 50.216 0.942 7.82 7.03 9.49
12/12/2021 7:15:00 AM 10.04 50.072 0.936 7.82 6.9 9.52
12/12/2021 7:30:00 AM 9.96 49.928 0.93 7.82 6.43 9.56
12/12/2021 7:45:00 AM 9.88 49.784 0.924 7.82 6.35 9.63
12/12/2021 8:00:00 AM 9.81 49.658 0.919 7.83 6.15 9.72
12/12/2021 8:15:00 AM 9.74 49.532 0.915 7.83 6.07 9.83
12/12/2021 8:30:00 AM 9.69 49.442 0.913 7.84 6.56 9.93
12/12/2021 8:45:00 AM 9.65 49.37 0.912 7.85 6.11 10.08
12/12/2021 9:00:00 AM 9.61 49.298 0.912 7.86 5.81 10.19
12/12/2021 9:15:00 AM 9.59 49.262 0.912 7.87 6.17 10.3
12/12/2021 9:30:00 AM 9.57 49.226 0.913 7.88 6.04 10.42
12/12/2021 9:45:00 AM 9.58 49.244 0.912 7.9 5.82 10.57
12/12/2021 10:00:00 AM 9.6 49.28 0.912 7.91 5.69 10.7
12/12/2021 10:15:00 AM 9.63 49.334 0.91 7.92 5.53 10.82
12/12/2021 10:30:00 AM 9.67 49.406 0.908 7.93 5.4 10.91
12/12/2021 10:45:00 AM 9.73 49.514 0.904 7.94 5.36 11.01
12/12/2021 11:00:00 AM 9.79 49.622 0.899 7.95 5.13 11.11
12/12/2021 11:15:00 AM 9.84 49.712 0.895 7.96 5.87 11.19
12/12/2021 11:30:00 AM 9.9 49.82 0.89 7.97 5.81 11.26
12/12/2021 11:45:00 AM 9.95 49.91 0.886 7.98 5.39 11.34
12/12/2021 12:00:00 PM 9.99 49.982 0.884 7.98 5.53 11.41
12/12/2021 12:15:00 PM 10.05 50.09 0.884 7.99 4.83 11.49
12/12/2021 12:30:00 PM 10.11 50.198 0.887 8 4.89 11.54
12/12/2021 12:45:00 PM 10.16 50.288 0.894 8 5.09 11.58
12/12/2021 1:00:00 PM 10.22 50.396 0.908 8.01 4.87 11.62
12/12/2021 1:15:00 PM 10.29 50.522 0.924 8.01 4.93 11.63
12/12/2021 1:30:00 PM 10.35 50.63 0.941 8.01 4.93 11.64
12/12/2021 1:45:00 PM 10.4 50.72 0.959 8.01 5.06 11.64
12/12/2021 2:00:00 PM 10.46 50.828 0.974 8.02 5.09 11.64
12/12/2021 2:15:00 PM 10.5 50.9 0.989 8.02 4.91 11.62
12/12/2021 2:30:00 PM 10.53 50.954 1.002 8.01 4.74 11.59
12/12/2021 2:45:00 PM 10.55 50.99 1.013 8.01 4.89 11.54
12/12/2021 3:00:00 PM 10.56 51.008 1.024 8.01 5.12 11.47
12/12/2021 3:15:00 PM 10.56 51.008 1.033 8 5.2 11.37
12/12/2021 3:30:00 PM 10.56 51.008 1.041 8 4.83 11.26
12/12/2021 3:45:00 PM 10.56 51.008 1.047 7.99 5.5 11.16
12/12/2021 4:00:00 PM 10.56 51.008 1.052 7.98 5.71 11.06
12/12/2021 4:15:00 PM 10.56 51.008 1.056 7.98 5.59 10.98
12/12/2021 4:30:00 PM 10.57 51.026 1.058 7.97 5.85 10.9
12/12/2021 4:45:00 PM 10.57 51.026 1.057 7.96 5.25 10.82
12/12/2021 5:00:00 PM 10.55 50.99 1.054 7.96 5.31 10.74
12/12/2021 5:15:00 PM 10.54 50.972 1.049 7.95 4.94 10.66
12/12/2021 5:30:00 PM 10.5 50.9 1.044 7.95 5.34 10.6
12/12/2021 5:45:00 PM 10.48 50.864 1.04 7.95 5.58 10.56
12/12/2021 6:00:00 PM 10.44 50.792 1.036 7.94 5.66 10.51
12/12/2021 6:15:00 PM 10.41 50.738 1.033 7.94 5.58 10.47
12/12/2021 6:30:00 PM 10.38 50.684 1.031 7.94 5.46 10.43
12/12/2021 6:45:00 PM 10.34 50.612 1.028 7.93 5.04 10.39
12/12/2021 7:00:00 PM 10.3 50.54 1.025 7.93 4.64 10.35
12/12/2021 7:15:00 PM 10.26 50.468 1.023 7.92 6.31 10.3
12/12/2021 7:30:00 PM 10.21 50.378 1.022 7.92 5.16 10.25
12/12/2021 7:45:00 PM 10.16 50.288 1.021 7.91 4.86 10.2
12/12/2021 8:00:00 PM 10.12 50.216 1.019 7.91 5.18 10.15
12/12/2021 8:15:00 PM 10.06 50.108 1.017 7.9 4.94 10.11
12/12/2021 8:30:00 PM 10 50 1.015 7.89 5.15 10.08
12/12/2021 8:45:00 PM 9.95 49.91 1.013 7.89 4.63 10.04
12/12/2021 9:00:00 PM 9.9 49.82 1.011 7.88 4.95 10.02
12/12/2021 9:15:00 PM 9.84 49.712 1.009 7.88 5 9.98
12/12/2021 9:30:00 PM 9.78 49.604 1.006 7.87 4.77 9.95
12/12/2021 9:45:00 PM 9.73 49.514 1.005 7.87 4.45 9.93
12/12/2021 10:00:00 PM 9.68 49.424 1.004 7.86 4.84 9.91
12/12/2021 10:15:00 PM 9.62 49.316 1.004 7.86 5.16 9.89
12/12/2021 10:30:00 PM 9.58 49.244 1.004 7.85 4.79 9.87
12/12/2021 10:45:00 PM 9.54 49.172 1.004 7.85 5.13 9.86
12/12/2021 11:00:00 PM 9.49 49.082 1.005 7.84 4.71 9.85
12/12/2021 11:15:00 PM 9.45 49.01 1.005 7.84 6.28 9.85
12/12/2021 11:30:00 PM 9.41 48.938 1.006 7.83 4.64 9.84
12/12/2021 11:45:00 PM 9.36 48.848 1.007 7.83 4.33 9.84
12/13/2021 12:00:00 AM 9.32 48.776 1.006 7.83 4.18 9.85
12/13/2021 12:15:00 AM 9.27 48.686 1.005 7.83 4.09 9.86
12/13/2021 12:30:00 AM 9.22 48.596 1.003 7.82 4.11 9.86
12/13/2021 12:45:00 AM 9.17 48.506 1.001 7.82 4.07 9.88
12/13/2021 1:00:00 AM 9.12 48.416 1 7.82 4.48 9.89
12/13/2021 1:15:00 AM 9.07 48.326 1 7.82 4.33 9.9
12/13/2021 1:30:00 AM 9.02 48.236 1 7.82 4.29 9.91
12/13/2021 1:45:00 AM 8.98 48.164 0.999 7.82 4.38 9.93
12/13/2021 2:00:00 AM 8.94 48.092 0.999 7.82 4.35 9.94
12/13/2021 2:15:00 AM 8.89 48.002 0.998 7.82 4.59 9.95
12/13/2021 2:30:00 AM 8.84 47.912 0.998 7.81 4.26 9.97
12/13/2021 2:45:00 AM 8.8 47.84 0.997 7.82 4.82 9.98
12/13/2021 3:00:00 AM 8.75 47.75 0.995 7.82 4.82 10
12/13/2021 3:15:00 AM 8.71 47.678 0.993 7.82 5.55 10.01
12/13/2021 3:30:00 AM 8.66 47.588 0.991 7.82 5.16 10.02
12/13/2021 3:45:00 AM 8.61 47.498 0.988 7.83 5.56 10.05
12/13/2021 4:00:00 AM 8.57 47.426 0.985 7.83 7.01 10.06
12/13/2021 4:15:00 AM 8.53 47.354 0.981 7.83 7.76 10.08
12/13/2021 4:30:00 AM 8.49 47.282 0.977 7.83 8.46 10.09
12/13/2021 4:45:00 AM 8.46 47.228 0.973 7.84 7.42 10.11
12/13/2021 5:00:00 AM 8.42 47.156 0.967 7.83 6.87 10.13
12/13/2021 5:15:00 AM 8.38 47.084 0.962 7.84 7.06 10.15
12/13/2021 5:30:00 AM 8.33 46.994 0.956 7.84 5.64 10.17
12/13/2021 5:45:00 AM 8.29 46.922 0.951 7.84 5.53 10.19
12/13/2021 6:00:00 AM 8.24 46.832 0.946 7.84 5.63 10.22
12/13/2021 6:15:00 AM 8.21 46.778 0.941 7.84 5.81 10.23
12/13/2021 6:30:00 AM 8.16 46.688 0.935 7.85 5.96 10.25
12/13/2021 6:45:00 AM 8.12 46.616 0.928 7.85 6.11 10.27
12/13/2021 7:00:00 AM 8.09 46.562 0.923 7.85 6.13 10.28
12/13/2021 7:15:00 AM 8.05 46.49 0.916 7.85 5.55 10.31
12/13/2021 7:30:00 AM 8.01 46.418 0.91 7.86 5.68 10.34
12/13/2021 7:45:00 AM 7.97 46.346 0.903 7.86 5.44 10.39
12/13/2021 8:00:00 AM 7.93 46.274 0.898 7.86 6.05 10.44
12/13/2021 8:15:00 AM 7.91 46.238 0.893 7.87 6.39 10.5
12/13/2021 8:30:00 AM 7.89 46.202 0.888 7.88 6.77 10.59
12/13/2021 8:45:00 AM 7.89 46.202 0.886 7.88 6.33 10.69
12/13/2021 9:00:00 AM 7.9 46.22 0.884 7.89 6.86 10.81
12/13/2021 9:15:00 AM 7.94 46.292 0.884 7.9 6.56 10.91
12/13/2021 9:30:00 AM 7.98 46.364 0.885 7.91 6.69 10.99
12/13/2021 9:45:00 AM 8.04 46.472 0.886 7.92 6.8 11.07
12/13/2021 10:00:00 AM 8.13 46.634 0.887 7.93 8.55 11.17
12/13/2021 10:15:00 AM 8.22 46.796 0.888 7.94 7.44 11.26
12/13/2021 10:30:00 AM 8.33 46.994 0.889 7.94 6.78 11.34
12/13/2021 10:45:00 AM 8.45 47.21 0.889 7.95 6.34 11.4
12/13/2021 11:00:00 AM 8.57 47.426 0.889 7.96 5.89 11.47
12/13/2021 11:15:00 AM 8.7 47.66 0.889 7.97 5.27 11.54
12/13/2021 11:30:00 AM 8.82 47.876 0.888 7.98 5.98 11.62
12/13/2021 11:45:00 AM 8.96 48.128 0.889 7.99 5.69 11.67
12/13/2021 12:00:00 PM 9.09 48.362 0.892 7.99 5.92 11.71
12/13/2021 12:15:00 PM 9.22 48.596 0.897 8 5.81 11.74
12/13/2021 12:30:00 PM 9.34 48.812 0.907 8.01 5.89 11.75
12/13/2021 12:45:00 PM 9.48 49.064 0.919 8.01 5.8 11.79
12/13/2021 1:00:00 PM 9.61 49.298 0.933 8.01 5.51 11.79
12/13/2021 1:15:00 PM 9.74 49.532 0.948 8.01 5.69 11.79
12/13/2021 1:30:00 PM 9.85 49.73 0.963 8.02 5.83 11.78
12/13/2021 1:45:00 PM 9.96 49.928 0.976 8.02 5.67 11.77
12/13/2021 2:00:00 PM 10.05 50.09 0.986 8.02 5.23 11.76
12/13/2021 2:15:00 PM 10.12 50.216 0.992 8.02 5.72 11.74
12/13/2021 2:30:00 PM 10.18 50.324 0.996 8.02 5.48 11.71
12/13/2021 2:45:00 PM 10.22 50.396 0.997 8.02 5.65 11.66
12/13/2021 3:00:00 PM 10.25 50.45 0.996 8.02 5.64 11.59
12/13/2021 3:15:00 PM 10.28 50.504 0.995 8.02 6.38 11.49
12/13/2021 3:30:00 PM 10.3 50.54 0.994 8.01 5.75 11.38
12/13/2021 3:45:00 PM 10.31 50.558 0.994 8.01 5.55 11.28
12/13/2021 4:00:00 PM 10.32 50.576 0.992 8 5.62 11.19
12/13/2021 4:15:00 PM 10.33 50.594 0.992 8 5.66 11.1
12/13/2021 4:30:00 PM 10.33 50.594 0.991 7.99 5.8 11.01
12/13/2021 4:45:00 PM 10.33 50.594 0.991 7.99 6.28 10.93
12/13/2021 5:00:00 PM 10.33 50.594 0.992 7.98 6.01 10.85
12/13/2021 5:15:00 PM 10.34 50.612 0.993 7.98 5.93 10.77
12/13/2021 5:30:00 PM 10.34 50.612 0.993 7.97 7.7 10.7
12/13/2021 5:45:00 PM 10.34 50.612 0.991 7.97 6.75 10.64
12/13/2021 6:00:00 PM 10.33 50.594 0.989 7.96 7.03 10.58
12/13/2021 6:15:00 PM 10.32 50.576 0.986 7.96 6.04 10.53
12/13/2021 6:30:00 PM 10.31 50.558 0.984 7.96 5.44 10.49
12/13/2021 6:45:00 PM 10.29 50.522 0.983 7.95 8.05 10.44
12/13/2021 7:00:00 PM 10.26 50.468 0.982 7.95 6.17 10.39
12/13/2021 7:15:00 PM 10.24 50.432 0.981 7.94 6.12 10.33
12/13/2021 7:30:00 PM 10.21 50.378 0.98 7.93 5.65 10.28
12/13/2021 7:45:00 PM 10.17 50.306 0.979 7.93 5.45 10.23
12/13/2021 8:00:00 PM 10.14 50.252 0.98 7.92 5.53 10.17
12/13/2021 8:15:00 PM 10.1 50.18 0.983 7.92 5.28 10.12
12/13/2021 8:30:00 PM 10.06 50.108 0.985 7.91 5.33 10.07
12/13/2021 8:45:00 PM 10.02 50.036 0.986 7.9 4.76 10.03
12/13/2021 9:00:00 PM 9.98 49.964 0.986 7.9 4.89 10
12/13/2021 9:15:00 PM 9.94 49.892 0.984 7.89 5.15 9.96
12/13/2021 9:30:00 PM 9.89 49.802 0.983 7.88 4.52 9.93
12/13/2021 9:45:00 PM 9.84 49.712 0.981 7.88 4.91 9.9
12/13/2021 10:00:00 PM 9.8 49.64 0.978 7.87 5.04 9.88
12/13/2021 10:15:00 PM 9.75 49.55 0.977 7.87 4.83 9.86
12/13/2021 10:30:00 PM 9.71 49.478 0.976 7.86 5.39 9.85
12/13/2021 10:45:00 PM 9.67 49.406 0.977 7.86 5.07 9.84
12/13/2021 11:00:00 PM 9.63 49.334 0.979 7.85 5.41 9.83
12/13/2021 11:15:00 PM 9.59 49.262 0.981 7.85 5.1 9.83
12/13/2021 11:30:00 PM 9.55 49.19 0.984 7.85 5.06 9.83
12/13/2021 11:45:00 PM 9.51 49.118 0.987 7.84 4.95 9.83
12/14/2021 12:00:00 AM 9.47 49.046 0.989 7.84 4.78 9.83
12/14/2021 12:15:00 AM 9.44 48.992 0.992 7.84 4.83 9.84
12/14/2021 12:30:00 AM 9.4 48.92 0.995 7.84 4.66 9.85
12/14/2021 12:45:00 AM 9.36 48.848 0.999 7.84 4.69 9.85
12/14/2021 1:00:00 AM 9.32 48.776 1.004 7.84 4.7 9.86
12/14/2021 1:15:00 AM 9.28 48.704 1.008 7.84 4.83 9.86
12/14/2021 1:30:00 AM 9.25 48.65 1.011 7.83 4.59 9.87
12/14/2021 1:45:00 AM 9.22 48.596 1.013 7.83 4.68 9.88
12/14/2021 2:00:00 AM 9.18 48.524 1.014 7.83 4.34 9.89
12/14/2021 2:15:00 AM 9.14 48.452 1.015 7.83 4.39 9.91
12/14/2021 2:30:00 AM 9.1 48.38 1.016 7.83 4.34 9.91
12/14/2021 2:45:00 AM 9.05 48.29 1.016 7.83 5.27 9.93
12/14/2021 3:00:00 AM 9.01 48.218 1.015 7.83 5 9.94
12/14/2021 3:15:00 AM 8.97 48.146 1.013 7.83 5.42 9.96
12/14/2021 3:30:00 AM 8.91 48.038 1.01 7.84 6.28 9.97
12/14/2021 3:45:00 AM 8.87 47.966 1.007 7.83 5.79 9.98
12/14/2021 4:00:00 AM 8.82 47.876 1.004 7.84 5.9 10.01
12/14/2021 4:15:00 AM 8.78 47.804 1.001 7.83 5.51 10.02
12/14/2021 4:30:00 AM 8.73 47.714 0.998 7.84 5.76 10.05
12/14/2021 4:45:00 AM 8.68 47.624 0.994 7.84 6.51 10.06
12/14/2021 5:00:00 AM 8.64 47.552 0.991 7.83 6.9 10.08
12/14/2021 5:15:00 AM 8.6 47.48 0.987 7.84 6.88 10.1
12/14/2021 5:30:00 AM 8.56 47.408 0.982 7.84 6.45 10.12
12/14/2021 5:45:00 AM 8.52 47.336 0.977 7.84 5.91 10.14
12/14/2021 6:00:00 AM 8.47 47.246 0.972 7.84 6.26 10.16
12/14/2021 6:15:00 AM 8.43 47.174 0.966 7.85 6.37 10.18
12/14/2021 6:30:00 AM 8.38 47.084 0.959 7.85 5.99 10.21
12/14/2021 6:45:00 AM 8.34 47.012 0.952 7.85 6.75 10.23
12/14/2021 7:00:00 AM 8.3 46.94 0.945 7.85 6.34 10.25
12/14/2021 7:15:00 AM 8.25 46.85 0.938 7.85 5.98 10.28
12/14/2021 7:30:00 AM 8.2 46.76 0.932 7.86 6.21 10.32
12/14/2021 7:45:00 AM 8.16 46.688 0.926 7.86 5.87 10.37
12/14/2021 8:00:00 AM 8.12 46.616 0.921 7.87 6.19 10.44
12/14/2021 8:15:00 AM 8.1 46.58 0.917 7.87 7.57 10.52
12/14/2021 8:30:00 AM 8.09 46.562 0.914 7.87 6.53 10.61
12/14/2021 8:45:00 AM 8.09 46.562 0.911 7.88 7.06 10.71
12/14/2021 9:00:00 AM 8.11 46.598 0.909 7.89 6.33 10.82
12/14/2021 9:15:00 AM 8.13 46.634 0.907 7.9 6.25 10.9
12/14/2021 9:30:00 AM 8.18 46.724 0.907 7.91 6.25 11
12/14/2021 9:45:00 AM 8.26 46.868 0.908 7.92 6.71 11.1
12/14/2021 10:00:00 AM 8.35 47.03 0.91 7.93 7.07 11.19
12/14/2021 10:15:00 AM 8.46 47.228 0.911 7.94 6.54 11.28
12/14/2021 10:30:00 AM 8.57 47.426 0.911 7.95 6.23 11.35
12/14/2021 10:45:00 AM 8.69 47.642 0.91 7.96 6.34 11.43
12/14/2021 11:00:00 AM 8.81 47.858 0.908 7.97 6.31 11.51
12/14/2021 11:15:00 AM 8.93 48.074 0.906 7.98 6.06 11.59
12/14/2021 11:30:00 AM 9.07 48.326 0.904 7.99 5.56 11.65
12/14/2021 11:45:00 AM 9.2 48.56 0.903 8 5.76 11.69
12/14/2021 12:00:00 PM 9.32 48.776 0.904 8 5.84 11.73
12/14/2021 12:15:00 PM 9.45 49.01 0.91 8.01 5.68 11.79
12/14/2021 12:30:00 PM 9.57 49.226 0.922 8.01 5.31 11.81
12/14/2021 12:45:00 PM 9.71 49.478 0.937 8.02 4.87 11.84
12/14/2021 1:00:00 PM 9.85 49.73 0.955 8.02 4.86 11.84
12/14/2021 1:15:00 PM 9.98 49.964 0.972 8.02 4.79 11.84
12/14/2021 1:30:00 PM 10.1 50.18 0.99 8.02 5.02 11.83
12/14/2021 1:45:00 PM 10.2 50.36 1.004 8.03 5.33 11.82
12/14/2021 2:00:00 PM 10.3 50.54 1.016 8.03 5.42 11.81
12/14/2021 2:15:00 PM 10.37 50.666 1.024 8.03 5.17 11.78
12/14/2021 2:30:00 PM 10.45 50.81 1.03 8.03 5.24 11.75
12/14/2021 2:45:00 PM 10.5 50.9 1.034 8.03 4.86 11.69
12/14/2021 3:00:00 PM 10.55 50.99 1.04 8.03 6.26 11.61
12/14/2021 3:15:00 PM 10.59 51.062 1.047 8.02 5.56 11.51
12/14/2021 3:30:00 PM 10.63 51.134 1.053 8.01 4.91 11.39
12/14/2021 3:45:00 PM 10.66 51.188 1.055 8.01 5.19 11.28
12/14/2021 4:00:00 PM 10.68 51.224 1.053 8 4.72 11.19
12/14/2021 4:15:00 PM 10.7 51.26 1.05 8 5.19 11.1
12/14/2021 4:30:00 PM 10.71 51.278 1.045 8 4.84 11.01
12/14/2021 4:45:00 PM 10.72 51.296 1.041 7.99 5.46 10.92
12/14/2021 5:00:00 PM 10.73 51.314 1.038 7.98 5.06 10.84
12/14/2021 5:15:00 PM 10.73 51.314 1.037 7.98 5.52 10.77
12/14/2021 5:30:00 PM 10.73 51.314 1.039 7.97 5.52 10.69
12/14/2021 5:45:00 PM 10.74 51.332 1.043 7.97 5.26 10.61
12/14/2021 6:00:00 PM 10.74 51.332 1.049 7.96 5.08 10.54
12/14/2021 6:15:00 PM 10.73 51.314 1.056 7.96 5.1 10.48
12/14/2021 6:30:00 PM 10.72 51.296 1.063 7.95 5.35 10.41
12/14/2021 6:45:00 PM 10.7 51.26 1.069 7.94 5.97 10.36
12/14/2021 7:00:00 PM 10.68 51.224 1.074 7.94 4.97 10.3
12/14/2021 7:15:00 PM 10.65 51.17 1.077 7.93 4.89 10.26
12/14/2021 7:30:00 PM 10.62 51.116 1.078 7.92 5.29 10.2
12/14/2021 7:45:00 PM 10.57 51.026 1.079 7.92 5.56 10.15
12/14/2021 8:00:00 PM 10.53 50.954 1.08 7.91 6.43 10.09
12/14/2021 8:15:00 PM 10.48 50.864 1.082 7.91 5.59 10.05
12/14/2021 8:30:00 PM 10.43 50.774 1.083 7.9 4.95 10
12/14/2021 8:45:00 PM 10.38 50.684 1.081 7.89 5.36 9.96
12/14/2021 9:00:00 PM 10.32 50.576 1.077 7.89 5.74 9.94
12/14/2021 9:15:00 PM 10.26 50.468 1.071 7.88 5.32 9.91
12/14/2021 9:30:00 PM 10.2 50.36 1.062 7.88 4.82 9.89
12/14/2021 9:45:00 PM 10.13 50.234 1.053 7.87 5.03 9.88
12/14/2021 10:00:00 PM 10.05 50.09 1.042 7.87 5.18 9.88
12/14/2021 10:15:00 PM 9.98 49.964 1.032 7.87 5.05 9.87
12/14/2021 10:30:00 PM 9.92 49.856 1.025 7.86 4.95 9.87
12/14/2021 10:45:00 PM 9.85 49.73 1.019 7.86 4.24 9.87
12/14/2021 11:00:00 PM 9.78 49.604 1.017 7.86 4.41 9.87
12/14/2021 11:15:00 PM 9.72 49.496 1.017 7.86 4.52 9.88
12/14/2021 11:30:00 PM 9.67 49.406 1.019 7.86 4.66 9.88
12/14/2021 11:45:00 PM 9.61 49.298 1.024 7.85 4.44 9.88
12/15/2021 12:00:00 AM 9.56 49.208 1.029 7.85 5 9.88
12/15/2021 12:15:00 AM 9.5 49.1 1.034 7.85 4.82 9.88
12/15/2021 12:30:00 AM 9.45 49.01 1.038 7.85 4.55 9.9
12/15/2021 12:45:00 AM 9.4 48.92 1.042 7.84 5.14 9.9
12/15/2021 1:00:00 AM 9.35 48.83 1.047 7.84 5.07 9.91
12/15/2021 1:15:00 AM 9.3 48.74 1.051 7.84 4.38 9.91
12/15/2021 1:30:00 AM 9.25 48.65 1.055 7.84 4.73 9.92
12/15/2021 1:45:00 AM 9.2 48.56 1.059 7.83 4.73 9.93
12/15/2021 2:00:00 AM 9.14 48.452 1.062 7.83 4.3 9.93
12/15/2021 2:15:00 AM 9.08 48.344 1.064 7.83 4.66 9.95
12/15/2021 2:30:00 AM 9.03 48.254 1.065 7.83 4.68 9.95
12/15/2021 2:45:00 AM 8.98 48.164 1.065 7.83 5.06 9.96
12/15/2021 3:00:00 AM 8.92 48.056 1.064 7.83 4.38 9.97
12/15/2021 3:15:00 AM 8.86 47.948 1.061 7.83 4.29 9.98
12/15/2021 3:30:00 AM 8.8 47.84 1.059 7.82 4.65 10
12/15/2021 3:45:00 AM 8.75 47.75 1.056 7.82 5 10.01
12/15/2021 4:00:00 AM 8.69 47.642 1.053 7.82 5.46 10.03
12/15/2021 4:15:00 AM 8.64 47.552 1.049 7.82 5.75 10.04
12/15/2021 4:30:00 AM 8.58 47.444 1.044 7.83 5.7 10.05
12/15/2021 4:45:00 AM 8.53 47.354 1.039 7.83 5.91 10.06
12/15/2021 5:00:00 AM 8.48 47.264 1.034 7.82 5.95 10.08
12/15/2021 5:15:00 AM 8.43 47.174 1.028 7.82 6 10.09
12/15/2021 5:30:00 AM 8.38 47.084 1.023 7.83 5.6 10.11
12/15/2021 5:45:00 AM 8.33 46.994 1.017 7.83 5.6 10.12
12/15/2021 6:00:00 AM 8.29 46.922 1.01 7.83 6.08 10.14
12/15/2021 6:15:00 AM 8.25 46.85 1.002 7.83 6.15 10.16
12/15/2021 6:30:00 AM 8.22 46.796 0.993 7.83 6.3 10.17
12/15/2021 6:45:00 AM 8.2 46.76 0.985 7.83 6.31 10.19
12/15/2021 7:00:00 AM 8.19 46.742 0.978 7.83 5.46 10.2
12/15/2021 7:15:00 AM 8.18 46.724 0.973 7.83 4.91 10.21
12/15/2021 7:30:00 AM 8.17 46.706 0.968 7.83 5 10.23
12/15/2021 7:45:00 AM 8.17 46.706 0.962 7.83 5.14 10.26
12/15/2021 8:00:00 AM 8.17 46.706 0.957 7.84 5.49 10.31
12/15/2021 8:15:00 AM 8.18 46.724 0.951 7.84 6.07 10.39
12/15/2021 8:30:00 AM 8.19 46.742 0.945 7.85 6.46 10.52
12/15/2021 8:45:00 AM 8.22 46.796 0.94 7.86 6.31 10.66
12/15/2021 9:00:00 AM 8.28 46.904 0.936 7.87 6.81 10.78
12/15/2021 9:15:00 AM 8.35 47.03 0.934 7.88 7.87 10.91
12/15/2021 9:30:00 AM 8.42 47.156 0.932 7.89 7.45 11.03
12/15/2021 9:45:00 AM 8.49 47.282 0.932 7.9 7.12 11.09
12/15/2021 10:00:00 AM 8.58 47.444 0.932 7.9 6.93 11.15
12/15/2021 10:15:00 AM 8.67 47.606 0.933 7.91 6.78 11.21
12/15/2021 10:30:00 AM 8.78 47.804 0.933 7.91 6.39 11.28
12/15/2021 10:45:00 AM 8.89 48.002 0.933 7.92 6.01 11.35
12/15/2021 11:00:00 AM 9.01 48.218 0.932 7.93 5.67 11.42
12/15/2021 11:15:00 AM 9.16 48.488 0.929 7.94 5.62 11.54
12/15/2021 11:30:00 AM 9.32 48.776 0.927 7.95 5.86 11.64
12/15/2021 11:45:00 AM 9.48 49.064 0.925 7.96 6.08 11.74
12/15/2021 12:00:00 PM 9.64 49.352 0.925 7.97 5.1 11.85
12/15/2021 12:15:00 PM 9.79 49.622 0.928 7.98 5.1 11.91
12/15/2021 12:30:00 PM 9.92 49.856 0.937 7.98 5.14 11.93
12/15/2021 12:45:00 PM 10.07 50.126 0.95 7.99 5.34 11.96
12/15/2021 1:00:00 PM 10.24 50.432 0.965 7.99 5.31 12.01
12/15/2021 1:15:00 PM 10.39 50.702 0.984 8 5.52 12.03
12/15/2021 1:30:00 PM 10.54 50.972 1.003 8 5.58 12.06
12/15/2021 1:45:00 PM 10.7 51.26 1.02 8.01 6.09 12.11
12/15/2021 2:00:00 PM 10.86 51.548 1.034 8.01 6.3 12.16
12/15/2021 2:15:00 PM 10.96 51.728 1.043 8.01 5.92 12.11
12/15/2021 2:30:00 PM 11.03 51.854 1.047 8.01 5.87 11.98
12/15/2021 2:45:00 PM 11.11 51.998 1.048 8 5.4 11.85
12/15/2021 3:00:00 PM 11.2 52.16 1.048 8 5.71 11.83
12/15/2021 3:15:00 PM 11.28 52.304 1.047 8.01 4.87 11.84
12/15/2021 3:30:00 PM 11.35 52.43 1.046 8 5.16 11.78
12/15/2021 3:45:00 PM 11.43 52.574 1.044 8 5.19 11.68
12/15/2021 4:00:00 PM 11.5 52.7 1.043 7.99 5.69 11.57
12/15/2021 4:15:00 PM 11.58 52.844 1.042 7.99 5.79 11.45
12/15/2021 4:30:00 PM 11.64 52.952 1.042 7.98 6 11.32
12/15/2021 4:45:00 PM 11.7 53.06 1.043 7.97 5.79 11.19
12/15/2021 5:00:00 PM 11.75 53.15 1.046 7.97 6.51 11.07
12/15/2021 5:15:00 PM 11.8 53.24 1.052 7.96 6.45 10.95
12/15/2021 5:30:00 PM 11.85 53.33 1.061 7.95 6.18 10.83
12/15/2021 5:45:00 PM 11.9 53.42 1.07 7.94 7 10.7
12/15/2021 6:00:00 PM 11.95 53.51 1.08 7.93 6.44 10.59
12/15/2021 6:15:00 PM 12 53.6 1.088 7.92 5.81 10.48
12/15/2021 6:30:00 PM 12.05 53.69 1.093 7.9 6.25 10.37
12/15/2021 6:45:00 PM 12.09 53.762 1.097 7.9 6.39 10.27
12/15/2021 7:00:00 PM 12.12 53.816 1.099 7.89 6.15 10.15
12/15/2021 7:15:00 PM 12.15 53.87 1.1 7.88 5.72 10.04
12/15/2021 7:30:00 PM 12.16 53.888 1.1 7.87 5.85 9.91
12/15/2021 7:45:00 PM 12.17 53.906 1.1 7.86 5.75 9.8
12/15/2021 8:00:00 PM 12.18 53.924 1.098 7.85 6.28 9.69
12/15/2021 8:15:00 PM 12.18 53.924 1.094 7.84 5.51 9.56
12/15/2021 8:30:00 PM 12.18 53.924 1.087 7.82 6.04 9.45
12/15/2021 8:45:00 PM 12.17 53.906 1.077 7.82 5.57 9.35
12/15/2021 9:00:00 PM 12.16 53.888 1.065 7.81 4.93 9.27
12/15/2021 9:15:00 PM 12.15 53.87 1.054 7.8 6.88 9.18
12/15/2021 9:30:00 PM 12.13 53.834 1.046 7.79 5.81 9.1
12/15/2021 9:45:00 PM 12.12 53.816 1.039 7.78 6.13 9.02
12/15/2021 10:00:00 PM 12.11 53.798 1.034 7.78 6.4 8.95
12/15/2021 10:15:00 PM 12.1 53.78 1.031 7.77 5.89 8.9
12/15/2021 10:30:00 PM 12.09 53.762 1.029 7.76 5.74 8.87
12/15/2021 10:45:00 PM 12.09 53.762 1.03 7.76 5.24 8.82
12/15/2021 11:00:00 PM 12.08 53.744 1.033 7.75 5.13 8.79
12/15/2021 11:15:00 PM 12.07 53.726 1.036 7.75 5.64 8.74
12/15/2021 11:30:00 PM 12.05 53.69 1.039 7.74 5.39 8.73
12/15/2021 11:45:00 PM 12.04 53.672 1.043 7.74 5.69 8.71
12/16/2021 12:00:00 AM 12.03 53.654 1.047 7.74 6.41 8.68
12/16/2021 12:15:00 AM 12.03 53.654 1.05 7.73 4.97 8.67
12/16/2021 12:30:00 AM 12.02 53.636 1.052 7.73 4.93 8.65
12/16/2021 12:45:00 AM 12.01 53.618 1.053 7.73 4.93 8.64
12/16/2021 1:00:00 AM 12 53.6 1.054 7.73 4.98 8.63
12/16/2021 1:15:00 AM 11.99 53.582 1.054 7.72 6.27 8.63
12/16/2021 1:30:00 AM 11.96 53.528 1.054 7.72 5.66 8.62
12/16/2021 1:45:00 AM 11.93 53.474 1.054 7.72 6.37 8.63
12/16/2021 2:00:00 AM 11.9 53.42 1.055 7.72 5.44 8.61
12/16/2021 2:15:00 AM 11.88 53.384 1.055 7.72 5.9 8.62
12/16/2021 2:30:00 AM 11.86 53.348 1.055 7.72 5.63 8.62
12/16/2021 2:45:00 AM 11.83 53.294 1.055 7.72 5.91 8.62
12/16/2021 3:00:00 AM 11.81 53.258 1.054 7.72 5.27 8.62
12/16/2021 3:15:00 AM 11.79 53.222 1.052 7.72 5.54 8.62
12/16/2021 3:30:00 AM 11.77 53.186 1.05 7.71 5.5 8.62
12/16/2021 3:45:00 AM 11.74 53.132 1.048 7.72 5.77 8.62
12/16/2021 4:00:00 AM 11.7 53.06 1.045 7.72 6.17 8.62
12/16/2021 4:15:00 AM 11.67 53.006 1.042 7.71 5.57 8.64
12/16/2021 4:30:00 AM 11.63 52.934 1.039 7.72 5.77 8.64
12/16/2021 4:45:00 AM 11.59 52.862 1.035 7.72 6.19 8.67
12/16/2021 5:00:00 AM 11.56 52.808 1.03 7.72 5.94 8.68
12/16/2021 5:15:00 AM 11.52 52.736 1.025 7.72 5.93 8.69
12/16/2021 5:30:00 AM 11.48 52.664 1.018 7.72 6.63 8.7
12/16/2021 5:45:00 AM 11.44 52.592 1.011 7.72 6.96 8.73
12/16/2021 6:00:00 AM 11.38 52.484 1.003 7.73 6.15 8.75
12/16/2021 6:15:00 AM 11.32 52.376 0.994 7.73 6.65 8.77
12/16/2021 6:30:00 AM 11.27 52.286 0.986 7.73 6.48 8.78
12/16/2021 6:45:00 AM 11.21 52.178 0.977 7.73 6.02 8.81
12/16/2021 7:00:00 AM 11.14 52.052 0.968 7.74 5.63 8.84
12/16/2021 7:15:00 AM 11.09 51.962 0.96 7.74 5.8 8.87
12/16/2021 7:30:00 AM 11.04 51.872 0.951 7.74 5.46 8.91
12/16/2021 7:45:00 AM 11 51.8 0.943 7.75 5.81 8.98
12/16/2021 8:00:00 AM 10.96 51.728 0.935 7.76 5.56 9.09
12/16/2021 8:15:00 AM 10.93 51.674 0.929 7.76 5.66 9.22
12/16/2021 8:30:00 AM 10.92 51.656 0.924 7.77 5.83 9.33
12/16/2021 8:45:00 AM 10.91 51.638 0.922 7.78 6.95 9.45
12/16/2021 9:00:00 AM 10.92 51.656 0.921 7.79 6.13 9.56
12/16/2021 9:15:00 AM 10.95 51.71 0.922 7.8 5.8 9.74
12/16/2021 9:30:00 AM 10.97 51.746 0.924 7.82 5.04 9.86
12/16/2021 9:45:00 AM 11 51.8 0.928 7.82 5.03 9.92
12/16/2021 10:00:00 AM 11.05 51.89 0.93 7.83 4.46 10.07
12/16/2021 10:15:00 AM 11.11 51.998 0.931 7.83 4.82 10.19
12/16/2021 10:30:00 AM 11.16 52.088 0.93 7.85 4.75 10.3
12/16/2021 10:45:00 AM 11.24 52.232 0.929 7.86 4.13 10.48
12/16/2021 11:00:00 AM 11.33 52.394 0.927 7.87 4.82 10.62
12/16/2021 11:15:00 AM 11.41 52.538 0.925 7.88 4.69 10.69
12/16/2021 11:30:00 AM 11.49 52.682 0.922 7.89 4.46 10.76
12/16/2021 11:45:00 AM 11.58 52.844 0.921 7.9 4.53 10.86
12/16/2021 12:00:00 PM 11.66 52.988 0.923 7.91 4.48 10.95
12/16/2021 12:15:00 PM 11.75 53.15 0.929 7.92 4.23 11.02
12/16/2021 12:30:00 PM 11.84 53.312 0.941 7.93 4.09 11.09
12/16/2021 12:45:00 PM 11.94 53.492 0.957 7.93 4.53 11.18
12/16/2021 1:00:00 PM 12.04 53.672 0.976 7.94 4.12 11.26
12/16/2021 1:15:00 PM 12.15 53.87 0.996 7.95 4.47 11.3
12/16/2021 1:30:00 PM 12.25 54.05 1.015 7.95 4.03 11.33
12/16/2021 1:45:00 PM 12.33 54.194 1.032 7.95 4.27 11.34
12/16/2021 2:00:00 PM 12.4 54.32 1.047 7.96 4.26 11.33
12/16/2021 2:15:00 PM 12.46 54.428 1.057 7.96 5.19 11.33
12/16/2021 2:30:00 PM 12.5 54.5 1.065 7.96 6.19 11.31
12/16/2021 2:45:00 PM 12.53 54.554 1.073 7.96 4.2 11.28
12/16/2021 3:00:00 PM 12.56 54.608 1.081 7.96 3.96 11.22
12/16/2021 3:15:00 PM 12.58 54.644 1.09 7.96 4.29 11.15
12/16/2021 3:30:00 PM 12.59 54.662 1.095 7.95 4.28 11.03
12/16/2021 3:45:00 PM 12.6 54.68 1.096 7.95 4.29 10.92
12/16/2021 4:00:00 PM 12.6 54.68 1.092 7.94 3.86 10.83
12/16/2021 4:15:00 PM 12.61 54.698 1.087 7.93 5.81 10.75
12/16/2021 4:30:00 PM 12.61 54.698 1.083 7.93 4.13 10.63
12/16/2021 4:45:00 PM 12.61 54.698 1.082 7.92 4.45 10.49
12/16/2021 5:00:00 PM 12.6 54.68 1.085 7.92 4.25 10.37
12/16/2021 5:15:00 PM 12.6 54.68 1.09 7.91 5.45 10.26
12/16/2021 5:30:00 PM 12.6 54.68 1.095 7.9 5.62 10.17
12/16/2021 5:45:00 PM 12.6 54.68 1.098 7.89 5.57 10.08
12/16/2021 6:00:00 PM 12.6 54.68 1.101 7.89 5.51 10
12/16/2021 6:15:00 PM 12.6 54.68 1.103 7.88 4.99 9.91
12/16/2021 6:30:00 PM 12.59 54.662 1.105 7.88 4.67 9.84
12/16/2021 6:45:00 PM 12.58 54.644 1.107 7.87 5.81 9.77
12/16/2021 7:00:00 PM 12.57 54.626 1.108 7.86 4.97 9.68
12/16/2021 7:15:00 PM 12.56 54.608 1.109 7.86 5 9.61
12/16/2021 7:30:00 PM 12.53 54.554 1.109 7.85 5.16 9.53
12/16/2021 7:45:00 PM 12.51 54.518 1.108 7.84 5.38 9.45
12/16/2021 8:00:00 PM 12.48 54.464 1.104 7.84 4.77 9.37
12/16/2021 8:15:00 PM 12.45 54.41 1.097 7.83 4.79 9.3
12/16/2021 8:30:00 PM 12.41 54.338 1.088 7.82 5.22 9.22
12/16/2021 8:45:00 PM 12.37 54.266 1.078 7.82 5.44 9.16
12/16/2021 9:00:00 PM 12.33 54.194 1.068 7.81 5.28 9.09
12/16/2021 9:15:00 PM 12.29 54.122 1.06 7.8 5.26 9.02
12/16/2021 9:30:00 PM 12.25 54.05 1.052 7.8 4.9 8.95
12/16/2021 9:45:00 PM 12.22 53.996 1.045 7.79 4.39 8.89
12/16/2021 10:00:00 PM 12.19 53.942 1.04 7.78 4.81 8.84
12/16/2021 10:15:00 PM 12.16 53.888 1.036 7.78 5.1 8.8
12/16/2021 10:30:00 PM 12.15 53.87 1.034 7.78 6.23 8.77
12/16/2021 10:45:00 PM 12.13 53.834 1.033 7.77 4.96 8.74
12/16/2021 11:00:00 PM 12.12 53.816 1.033 7.77 5 8.72
12/16/2021 11:15:00 PM 12.11 53.798 1.033 7.76 4.21 8.7
12/16/2021 11:30:00 PM 12.09 53.762 1.034 7.76 4.21 8.68
12/16/2021 11:45:00 PM 12.07 53.726 1.035 7.75 4.06 8.66
12/17/2021 12:00:00 AM 12.05 53.69 1.038 7.75 4.29 8.66
12/17/2021 12:15:00 AM 12.03 53.654 1.041 7.75 4.32 8.65
12/17/2021 12:30:00 AM 12.01 53.618 1.043 7.75 4.21 8.64
12/17/2021 12:45:00 AM 11.99 53.582 1.045 7.75 4.92 8.64
12/17/2021 1:00:00 AM 11.98 53.564 1.047 7.74 4.61 8.64
12/17/2021 1:15:00 AM 11.96 53.528 1.049 7.74 4.45 8.63
12/17/2021 1:30:00 AM 11.94 53.492 1.051 7.74 5.24 8.63
12/17/2021 1:45:00 AM 11.93 53.474 1.053 7.74 4.81 8.64
12/17/2021 2:00:00 AM 11.91 53.438 1.055 7.74 4.57 8.63
12/17/2021 2:15:00 AM 11.89 53.402 1.057 7.74 4.86 8.64
12/17/2021 2:30:00 AM 11.86 53.348 1.058 7.74 4.42 8.64
12/17/2021 2:45:00 AM 11.83 53.294 1.059 7.74 4.24 8.64
12/17/2021 3:00:00 AM 11.8 53.24 1.06 7.74 4.55 8.64
12/17/2021 3:15:00 AM 11.76 53.168 1.06 7.74 4.51 8.66
12/17/2021 3:30:00 AM 11.72 53.096 1.059 7.74 4.73 8.67
12/17/2021 3:45:00 AM 11.7 53.06 1.057 7.74 4.34 8.67
12/17/2021 4:00:00 AM 11.68 53.024 1.054 7.74 5.02 8.68
12/17/2021 4:15:00 AM 11.64 52.952 1.05 7.74 4.83 8.69
12/17/2021 4:30:00 AM 11.61 52.898 1.046 7.75 4.93 8.71
12/17/2021 4:45:00 AM 11.57 52.826 1.042 7.75 5.01 8.72
12/17/2021 5:00:00 AM 11.53 52.754 1.037 7.75 5.35 8.74
12/17/2021 5:15:00 AM 11.48 52.664 1.033 7.75 4.54 8.76
12/17/2021 5:30:00 AM 11.43 52.574 1.028 7.75 5.16 8.77
12/17/2021 5:45:00 AM 11.38 52.484 1.024 7.75 4.55 8.8
12/17/2021 6:00:00 AM 11.33 52.394 1.017 7.76 5.36 8.81
12/17/2021 6:15:00 AM 11.29 52.322 1.01 7.76 5.94 8.84
12/17/2021 6:30:00 AM 11.24 52.232 1.002 7.76 5.38 8.87
12/17/2021 6:45:00 AM 11.2 52.16 0.993 7.76 6.81 8.89
12/17/2021 7:00:00 AM 11.15 52.07 0.985 7.77 5.9 8.92
12/17/2021 7:15:00 AM 11.1 51.98 0.976 7.77 5.55 8.96
12/17/2021 7:30:00 AM 11.05 51.89 0.967 7.77 5.83 8.99
12/17/2021 7:45:00 AM 11.01 51.818 0.96 7.78 5.47 9.07
12/17/2021 8:00:00 AM 10.97 51.746 0.952 7.79 5.49 9.16
12/17/2021 8:15:00 AM 10.94 51.692 0.946 7.79 4.94 9.28
12/17/2021 8:30:00 AM 10.92 51.656 0.94 7.8 5.08 9.42
12/17/2021 8:45:00 AM 10.9 51.62 0.935 7.82 4.45 9.6
12/17/2021 9:00:00 AM 10.9 51.62 0.932 7.83 4.76 9.75
12/17/2021 9:15:00 AM 10.9 51.62 0.93 7.84 4.62 9.93
12/17/2021 9:30:00 AM 10.93 51.674 0.93 7.85 4.71 10.12
12/17/2021 9:45:00 AM 10.96 51.728 0.931 7.87 4.82 10.27
12/17/2021 10:00:00 AM 11 51.8 0.932 7.88 4.7 10.41
12/17/2021 10:15:00 AM 11.05 51.89 0.934 7.89 4.72 10.53
12/17/2021 10:30:00 AM 11.1 51.98 0.935 7.9 4.88 10.64
12/17/2021 10:45:00 AM 11.15 52.07 0.935 7.91 4.31 10.71
12/17/2021 11:00:00 AM 11.2 52.16 0.935 7.92 4.27 10.78
12/17/2021 11:15:00 AM 11.27 52.286 0.932 7.93 4.33 10.92
12/17/2021 11:30:00 AM 11.37 52.466 0.928 7.95 4.21 11.09
12/17/2021 11:45:00 AM 11.45 52.61 0.924 7.96 4.34 11.23
12/17/2021 12:00:00 PM 11.5 52.7 0.922 7.97 4.27 11.27
12/17/2021 12:15:00 PM 11.61 52.898 0.924 7.98 4.21 11.39
12/17/2021 12:30:00 PM 11.73 53.114 0.932 8 4.67 11.54
12/17/2021 12:45:00 PM 11.83 53.294 0.946 8.01 4.6 11.61
12/17/2021 1:00:00 PM 11.93 53.474 0.962 8.01 4.37 11.69
12/17/2021 1:15:00 PM 12 53.6 0.981 8.02 4.12 11.7
12/17/2021 1:30:00 PM 12.07 53.726 0.999 8.02 4.29 11.71
12/17/2021 1:45:00 PM 12.14 53.852 1.015 8.03 4.36 11.75
12/17/2021 2:00:00 PM 12.2 53.96 1.027 8.03 4.17 11.77
12/17/2021 2:15:00 PM 12.25 54.05 1.037 8.04 4.23 11.79
12/17/2021 2:30:00 PM 12.27 54.086 1.044 8.05 4.32 11.83
12/17/2021 2:45:00 PM 12.27 54.086 1.05 8.05 4.09 11.8
12/17/2021 3:00:00 PM 12.27 54.086 1.057 8.05 4.21 11.73
12/17/2021 3:15:00 PM 12.27 54.086 1.065 8.05 4.62 11.62
12/17/2021 3:30:00 PM 12.28 54.104 1.074 8.04 4.09 11.53
12/17/2021 3:45:00 PM 12.3 54.14 1.084 8.04 4.44 11.44
12/17/2021 4:00:00 PM 12.3 54.14 1.093 8.03 4.06 11.34
12/17/2021 4:15:00 PM 12.29 54.122 1.097 8.02 4.29 11.21
12/17/2021 4:30:00 PM 12.29 54.122 1.097 8.02 4.68 11.1
12/17/2021 4:45:00 PM 12.27 54.086 1.095 8.01 4.36 10.97
12/17/2021 5:00:00 PM 12.25 54.05 1.09 8 5.39 10.85
12/17/2021 5:15:00 PM 12.22 53.996 1.085 8 5.56 10.75
12/17/2021 5:30:00 PM 12.18 53.924 1.079 7.99 5.31 10.66
12/17/2021 5:45:00 PM 12.14 53.852 1.072 7.99 5.59 10.57
12/17/2021 6:00:00 PM 12.1 53.78 1.065 7.98 7.65 10.48
12/17/2021 6:15:00 PM 12.05 53.69 1.059 7.97 5.12 10.41
12/17/2021 6:30:00 PM 12.01 53.618 1.055 7.97 4.8 10.33
12/17/2021 6:45:00 PM 11.96 53.528 1.052 7.96 4.53 10.26
12/17/2021 7:00:00 PM 11.92 53.456 1.051 7.95 4.95 10.17
12/17/2021 7:15:00 PM 11.87 53.366 1.051 7.94 4.66 10.08
12/17/2021 7:30:00 PM 11.82 53.276 1.052 7.93 4.99 9.99
12/17/2021 7:45:00 PM 11.77 53.186 1.052 7.92 4.56 9.91
12/17/2021 8:00:00 PM 11.71 53.078 1.053 7.91 5.17 9.83
12/17/2021 8:15:00 PM 11.66 52.988 1.053 7.9 4.88 9.75
12/17/2021 8:30:00 PM 11.6 52.88 1.051 7.89 4.61 9.66
12/17/2021 8:45:00 PM 11.55 52.79 1.048 7.88 4.91 9.58
12/17/2021 9:00:00 PM 11.5 52.7 1.045 7.87 4.8 9.51
12/17/2021 9:15:00 PM 11.45 52.61 1.042 7.86 5.13 9.46
12/17/2021 9:30:00 PM 11.4 52.52 1.039 7.85 4.97 9.4
12/17/2021 9:45:00 PM 11.36 52.448 1.036 7.85 4.44 9.34
12/17/2021 10:00:00 PM 11.33 52.394 1.033 7.84 4.46 9.3
12/17/2021 10:15:00 PM 11.29 52.322 1.032 7.84 4.7 9.25
12/17/2021 10:30:00 PM 11.26 52.268 1.031 7.83 4.56 9.21
12/17/2021 10:45:00 PM 11.24 52.232 1.031 7.82 4.74 9.18
12/17/2021 11:00:00 PM 11.22 52.196 1.032 7.82 4.36 9.16
12/17/2021 11:15:00 PM 11.21 52.178 1.034 7.81 4.97 9.14
12/17/2021 11:30:00 PM 11.2 52.16 1.037 7.81 4.55 9.13
12/17/2021 11:45:00 PM 11.19 52.142 1.04 7.8 4.76 9.12
12/18/2021 12:00:00 AM 11.18 52.124 1.043 7.8 4.59 9.1
12/18/2021 12:15:00 AM 11.17 52.106 1.046 7.8 4.41 9.1
12/18/2021 12:30:00 AM 11.17 52.106 1.05 7.8 5.51 9.1
12/18/2021 12:45:00 AM 11.16 52.088 1.053 7.8 4.21 9.09
12/18/2021 1:00:00 AM 11.15 52.07 1.057 7.79 4.91 9.09
12/18/2021 1:15:00 AM 11.15 52.07 1.06 7.79 4.19 9.09
12/18/2021 1:30:00 AM 11.14 52.052 1.062 7.79 4.37 9.09
12/18/2021 1:45:00 AM 11.13 52.034 1.063 7.79 5.82 9.1
12/18/2021 2:00:00 AM 11.12 52.016 1.062 7.79 4.65 9.11
12/18/2021 2:15:00 AM 11.1 51.98 1.061 7.79 4.32 9.12
12/18/2021 2:30:00 AM 11.09 51.962 1.06 7.79 4.44 9.13
12/18/2021 2:45:00 AM 11.08 51.944 1.058 7.79 4.5 9.13
12/18/2021 3:00:00 AM 11.06 51.908 1.054 7.79 4.33 9.15
12/18/2021 3:15:00 AM 11.04 51.872 1.049 7.79 5.05 9.15
12/18/2021 3:30:00 AM 11.02 51.836 1.046 7.79 4.71 9.16
12/18/2021 3:45:00 AM 11.01 51.818 1.043 7.79 4.27 9.16
12/18/2021 4:00:00 AM 10.99 51.782 1.041 7.8 4.97 9.17
12/18/2021 4:15:00 AM 10.98 51.764 1.039 7.79 4.77 9.17
12/18/2021 4:30:00 AM 10.97 51.746 1.036 7.79 4.41 9.17
12/18/2021 4:45:00 AM 10.96 51.728 1.034 7.8 4.61 9.18
12/18/2021 5:00:00 AM 10.95 51.71 1.032 7.8 4.9 9.18
12/18/2021 5:15:00 AM 10.93 51.674 1.028 7.8 5.2 9.19
12/18/2021 5:30:00 AM 10.92 51.656 1.025 7.8 4.81 9.19
12/18/2021 5:45:00 AM 10.91 51.638 1.02 7.8 5.83 9.2
12/18/2021 6:00:00 AM 10.89 51.602 1.014 7.8 5.48 9.2
12/18/2021 6:15:00 AM 10.87 51.566 1.008 7.8 5.23 9.22
12/18/2021 6:30:00 AM 10.86 51.548 1.003 7.8 5.55 9.22
12/18/2021 6:45:00 AM 10.84 51.512 0.997 7.8 5.66 9.23
12/18/2021 7:00:00 AM 10.82 51.476 0.992 7.8 5.42 9.24
12/18/2021 7:15:00 AM 10.8 51.44 0.986 7.8 5.16 9.25
12/18/2021 7:30:00 AM 10.78 51.404 0.98 7.8 4.87 9.26
12/18/2021 7:45:00 AM 10.77 51.386 0.974 7.81 4.75 9.28
12/18/2021 8:00:00 AM 10.75 51.35 0.968 7.81 5.1 9.3
12/18/2021 8:15:00 AM 10.73 51.314 0.962 7.81 4.67 9.36
12/18/2021 8:30:00 AM 10.72 51.296 0.956 7.82 4.78 9.43
12/18/2021 8:45:00 AM 10.71 51.278 0.952 7.82 4.8 9.51
12/18/2021 9:00:00 AM 10.71 51.278 0.949 7.83 4.25 9.6
12/18/2021 9:15:00 AM 10.71 51.278 0.946 7.83 4.59 9.66
12/18/2021 9:30:00 AM 10.71 51.278 0.944 7.84 5.2 9.68
12/18/2021 9:45:00 AM 10.72 51.296 0.942 7.84 5.31 9.76
12/18/2021 10:00:00 AM 10.72 51.296 0.939 7.85 4.87 9.8
12/18/2021 10:15:00 AM 10.73 51.314 0.936 7.85 5.02 9.85
12/18/2021 10:30:00 AM 10.74 51.332 0.931 7.86 4.7 9.91
12/18/2021 10:45:00 AM 10.75 51.35 0.926 7.86 4.53 10
12/18/2021 11:00:00 AM 10.76 51.368 0.921 7.87 4.56 10.1
12/18/2021 11:15:00 AM 10.77 51.386 0.915 7.87 4.96 10.18
12/18/2021 11:30:00 AM 10.78 51.404 0.909 7.87 4.9 10.21
12/18/2021 11:45:00 AM 10.78 51.404 0.905 7.87 4.55 10.24
12/18/2021 12:00:00 PM 10.8 51.44 0.902 7.87 4.46 10.28
12/18/2021 12:15:00 PM 10.82 51.476 0.899 7.87 4.58 10.4
12/18/2021 12:30:00 PM 10.85 51.53 0.9 7.87 4.66 10.46
12/18/2021 12:45:00 PM 10.87 51.566 0.906 7.87 4.4 10.45
12/18/2021 1:00:00 PM 10.91 51.638 0.918 7.86 4.55 10.47
12/18/2021 1:15:00 PM 10.96 51.728 0.935 7.86 4.22 10.51
12/18/2021 1:30:00 PM 11.01 51.818 0.955 7.85 4.3 10.49
12/18/2021 1:45:00 PM 11.05 51.89 0.973 7.85 4.33 10.45
12/18/2021 2:00:00 PM 11.1 51.98 0.989 7.85 4.58 10.44
12/18/2021 2:15:00 PM 11.15 52.07 1.001 7.85 4.78 10.45
12/18/2021 2:30:00 PM 11.18 52.124 1.01 7.85 4.64 10.41
12/18/2021 2:45:00 PM 11.21 52.178 1.017 7.85 4.42 10.38
12/18/2021 3:00:00 PM 11.24 52.232 1.026 7.85 4.23 10.34
12/18/2021 3:15:00 PM 11.28 52.304 1.034 7.85 4.3 10.35
12/18/2021 3:30:00 PM 11.31 52.358 1.041 7.85 4.45 10.35
12/18/2021 3:45:00 PM 11.33 52.394 1.047 7.85 4.62 10.31
12/18/2021 4:00:00 PM 11.35 52.43 1.052 7.85 4.6 10.25
12/18/2021 4:15:00 PM 11.37 52.466 1.056 7.85 4.22 10.2
12/18/2021 4:30:00 PM 11.38 52.484 1.06 7.84 4.34 10.15
12/18/2021 4:45:00 PM 11.4 52.52 1.063 7.84 4.74 10.1
12/18/2021 5:00:00 PM 11.41 52.538 1.065 7.84 4.68 10.05
12/18/2021 5:15:00 PM 11.43 52.574 1.065 7.84 4.91 10
12/18/2021 5:30:00 PM 11.44 52.592 1.065 7.84 5.14 9.96
12/18/2021 5:45:00 PM 11.45 52.61 1.065 7.84 5.21 9.92
12/18/2021 6:00:00 PM 11.46 52.628 1.065 7.84 5.14 9.87
12/18/2021 6:15:00 PM 11.46 52.628 1.065 7.84 5.28 9.81
12/18/2021 6:30:00 PM 11.47 52.646 1.065 7.83 4.84 9.75
12/18/2021 6:45:00 PM 11.48 52.664 1.064 7.83 5.13 9.68
12/18/2021 7:00:00 PM 11.48 52.664 1.062 7.83 6.27 9.63
12/18/2021 7:15:00 PM 11.48 52.664 1.061 7.82 5.51 9.57
12/18/2021 7:30:00 PM 11.48 52.664 1.06 7.82 10.37 9.52
12/18/2021 7:45:00 PM 11.49 52.682 1.06 7.82 5.69 9.46
12/18/2021 8:00:00 PM 11.49 52.682 1.06 7.81 5.69 9.42
12/18/2021 8:15:00 PM 11.48 52.664 1.06 7.8 5.47 9.37
12/18/2021 8:30:00 PM 11.47 52.646 1.06 7.8 5.12 9.32
12/18/2021 8:45:00 PM 11.45 52.61 1.062 7.8 5 9.27
12/18/2021 9:00:00 PM 11.43 52.574 1.063 7.79 5.18 9.23
12/18/2021 9:15:00 PM 11.4 52.52 1.064 7.79 4.87 9.19
12/18/2021 9:30:00 PM 11.37 52.466 1.065 7.79 5.36 9.16
12/18/2021 9:45:00 PM 11.35 52.43 1.065 7.79 5.05 9.13
12/18/2021 10:00:00 PM 11.34 52.412 1.065 7.78 4.69 9.11
12/18/2021 10:15:00 PM 11.32 52.376 1.064 7.78 4.39 9.09
12/18/2021 10:30:00 PM 11.31 52.358 1.062 7.78 4.85 9.08
12/18/2021 10:45:00 PM 11.31 52.358 1.06 7.78 4.82 9.07
12/18/2021 11:00:00 PM 11.31 52.358 1.057 7.78 4.7 9.06
12/18/2021 11:15:00 PM 11.31 52.358 1.053 7.77 4.68 9.05
12/18/2021 11:30:00 PM 11.29 52.322 1.048 7.77 4.76 9.05
12/18/2021 11:45:00 PM 11.27 52.286 1.043 7.78 4.59 9.05
12/19/2021 12:00:00 AM 11.26 52.268 1.04 7.78 4.74 9.05
12/19/2021 12:15:00 AM 11.25 52.25 1.038 7.77 4.72 9.05
12/19/2021 12:30:00 AM 11.24 52.232 1.036 7.77 4.82 9.04
12/19/2021 12:45:00 AM 11.23 52.214 1.034 7.77 4.81 9.04
12/19/2021 1:00:00 AM 11.23 52.214 1.032 7.77 4.33 9.04
12/19/2021 1:15:00 AM 11.22 52.196 1.03 7.77 4.35 9.04
12/19/2021 1:30:00 AM 11.21 52.178 1.029 7.77 4.75 9.04
12/19/2021 1:45:00 AM 11.19 52.142 1.028 7.77 4.56 9.04
12/19/2021 2:00:00 AM 11.18 52.124 1.027 7.77 4.89 9.05
12/19/2021 2:15:00 AM 11.16 52.088 1.025 7.77 4.62 9.04
12/19/2021 2:30:00 AM 11.16 52.088 1.024 7.77 4.79 9.05
12/19/2021 2:45:00 AM 11.15 52.07 1.022 7.77 6.02 9.06
12/19/2021 3:00:00 AM 11.14 52.052 1.02 7.77 4.61 9.05
12/19/2021 3:15:00 AM 11.14 52.052 1.019 7.77 4.54 9.06
12/19/2021 3:30:00 AM 11.14 52.052 1.018 7.77 4.94 9.06
12/19/2021 3:45:00 AM 11.13 52.034 1.017 7.77 5.39 9.06
12/19/2021 4:00:00 AM 11.11 51.998 1.016 7.77 5.01 9.06
12/19/2021 4:15:00 AM 11.09 51.962 1.015 7.77 4.91 9.07
12/19/2021 4:30:00 AM 11.07 51.926 1.012 7.77 5.14 9.08
12/19/2021 4:45:00 AM 11.04 51.872 1.009 7.77 5.41 9.09
12/19/2021 5:00:00 AM 11.01 51.818 1.005 7.77 5.14 9.1
12/19/2021 5:15:00 AM 10.96 51.728 1.002 7.77 5.14 9.12
12/19/2021 5:30:00 AM 10.92 51.656 1 7.78 5 9.13
12/19/2021 5:45:00 AM 10.87 51.566 0.997 7.78 5.34 9.15
12/19/2021 6:00:00 AM 10.82 51.476 0.994 7.78 5.13 9.17
12/19/2021 6:15:00 AM 10.78 51.404 0.99 7.78 4.54 9.18
12/19/2021 6:30:00 AM 10.74 51.332 0.985 7.78 4.7 9.2
12/19/2021 6:45:00 AM 10.7 51.26 0.978 7.79 5.08 9.23
12/19/2021 7:00:00 AM 10.64 51.152 0.972 7.79 5.54 9.25
12/19/2021 7:15:00 AM 10.6 51.08 0.965 7.79 4.99 9.27
12/19/2021 7:30:00 AM 10.55 50.99 0.958 7.79 4.84 9.3
12/19/2021 7:45:00 AM 10.49 50.882 0.951 7.8 4.66 9.35
12/19/2021 8:00:00 AM 10.43 50.774 0.945 7.8 4.8 9.4
12/19/2021 8:15:00 AM 10.38 50.684 0.939 7.81 5.21 9.48
12/19/2021 8:30:00 AM 10.32 50.576 0.935 7.82 5.02 9.62
12/19/2021 8:45:00 AM 10.26 50.468 0.931 7.83 4.74 9.77
12/19/2021 9:00:00 AM 10.22 50.396 0.928 7.84 5.18 9.9
12/19/2021 9:15:00 AM 10.19 50.342 0.925 7.85 5.44 10.07
12/19/2021 9:30:00 AM 10.16 50.288 0.924 7.86 5.5 10.28
12/19/2021 9:45:00 AM 10.16 50.288 0.923 7.88 5.02 10.47
12/19/2021 10:00:00 AM 10.14 50.252 0.922 7.88 5.02 10.49
12/19/2021 10:15:00 AM 10.12 50.216 0.92 7.88 5.27 10.47
12/19/2021 10:30:00 AM 10.11 50.198 0.918 7.88 5.35 10.47
12/19/2021 10:45:00 AM 10.11 50.198 0.915 7.88 4.79 10.6
12/19/2021 11:00:00 AM 10.12 50.216 0.912 7.89 4.71 10.76
12/19/2021 11:15:00 AM 10.13 50.234 0.909 7.9 4.95 10.89
12/19/2021 11:30:00 AM 10.14 50.252 0.905 7.9 4.73 10.99
12/19/2021 11:45:00 AM 10.15 50.27 0.901 7.91 5.68 11.04
12/19/2021 12:00:00 PM 10.16 50.288 0.899 7.92 4.92 11.12
12/19/2021 12:15:00 PM 10.17 50.306 0.898 7.93 4.76 11.22
12/19/2021 12:30:00 PM 10.15 50.27 0.9 7.93 4.75 11.24
12/19/2021 12:45:00 PM 10.16 50.288 0.907 7.94 4.81 11.32
12/19/2021 1:00:00 PM 10.2 50.36 0.921 7.95 4.87 11.45
12/19/2021 1:15:00 PM 10.24 50.432 0.94 7.96 4.45 11.55
12/19/2021 1:30:00 PM 10.26 50.468 0.961 7.97 4.53 11.62
12/19/2021 1:45:00 PM 10.28 50.504 0.98 7.97 5.01 11.68
12/19/2021 2:00:00 PM 10.3 50.54 0.995 7.98 4.58 11.7
12/19/2021 2:15:00 PM 10.33 50.594 1.009 7.99 4.51 11.72
12/19/2021 2:30:00 PM 10.36 50.648 1.021 7.99 4.61 11.75
12/19/2021 2:45:00 PM 10.37 50.666 1.034 7.99 4.39 11.73
12/19/2021 3:00:00 PM 10.36 50.648 1.046 7.99 4.22 11.67
12/19/2021 3:15:00 PM 10.34 50.612 1.058 7.99 4.56 11.59
12/19/2021 3:30:00 PM 10.3 50.54 1.066 7.98 4.45 11.48
12/19/2021 3:45:00 PM 10.25 50.45 1.072 7.97 4.26 11.37
12/19/2021 4:00:00 PM 10.2 50.36 1.076 7.97 4.59 11.27
12/19/2021 4:15:00 PM 10.15 50.27 1.079 7.96 4.7 11.18
12/19/2021 4:30:00 PM 10.12 50.216 1.082 7.96 4.58 11.1
12/19/2021 4:45:00 PM 10.08 50.144 1.085 7.95 4.52 11.03
12/19/2021 5:00:00 PM 10.04 50.072 1.088 7.95 4.4 10.95
12/19/2021 5:15:00 PM 10.01 50.018 1.09 7.94 5.13 10.87
12/19/2021 5:30:00 PM 9.98 49.964 1.091 7.94 5.7 10.79
12/19/2021 5:45:00 PM 9.94 49.892 1.091 7.93 5.4 10.73
12/19/2021 6:00:00 PM 9.91 49.838 1.091 7.93 5.4 10.67
12/19/2021 6:15:00 PM 9.88 49.784 1.092 7.92 5.09 10.62
12/19/2021 6:30:00 PM 9.84 49.712 1.093 7.92 5.15 10.58
12/19/2021 6:45:00 PM 9.8 49.64 1.093 7.91 5.09 10.53
12/19/2021 7:00:00 PM 9.76 49.568 1.091 7.91 4.95 10.47
12/19/2021 7:15:00 PM 9.71 49.478 1.087 7.9 4.73 10.41
12/19/2021 7:30:00 PM 9.66 49.388 1.083 7.9 4.84 10.37
12/19/2021 7:45:00 PM 9.6 49.28 1.08 7.9 4.48 10.32
12/19/2021 8:00:00 PM 9.54 49.172 1.076 7.89 4.53 10.28
12/19/2021 8:15:00 PM 9.49 49.082 1.073 7.88 4.6 10.25
12/19/2021 8:30:00 PM 9.43 48.974 1.069 7.88 5.08 10.21
12/19/2021 8:45:00 PM 9.38 48.884 1.065 7.87 5.35 10.16
12/19/2021 9:00:00 PM 9.32 48.776 1.061 7.87 5.31 10.12
12/19/2021 9:15:00 PM 9.26 48.668 1.057 7.86 5.4 10.07
12/19/2021 9:30:00 PM 9.2 48.56 1.054 7.86 5.8 10.03
12/19/2021 9:45:00 PM 9.14 48.452 1.051 7.85 5.04 10.01
12/19/2021 10:00:00 PM 9.09 48.362 1.049 7.85 4.89 9.97
12/19/2021 10:15:00 PM 9.03 48.254 1.047 7.84 4.82 9.95
12/19/2021 10:30:00 PM 8.97 48.146 1.045 7.84 4.86 9.94
12/19/2021 10:45:00 PM 8.92 48.056 1.043 7.83 4.44 9.92
12/19/2021 11:00:00 PM 8.86 47.948 1.04 7.83 5.32 9.92
12/19/2021 11:15:00 PM 8.81 47.858 1.039 7.83 5.19 9.92
12/19/2021 11:30:00 PM 8.75 47.75 1.039 7.83 5.09 9.91
12/19/2021 11:45:00 PM 8.7 47.66 1.04 7.83 6.39 9.92
12/20/2021 12:00:00 AM 8.65 47.57 1.042 7.83 4.59 9.92
12/20/2021 12:15:00 AM 8.61 47.498 1.044 7.82 5.07 9.92
12/20/2021 12:30:00 AM 8.56 47.408 1.046 7.82 5.7 9.93
12/20/2021 12:45:00 AM 8.51 47.318 1.047 7.82 4.63 9.93
12/20/2021 1:00:00 AM 8.46 47.228 1.049 7.82 4.51 9.94
12/20/2021 1:15:00 AM 8.41 47.138 1.051 7.82 4.74 9.94
12/20/2021 1:30:00 AM 8.37 47.066 1.054 7.82 4.55 9.95
12/20/2021 1:45:00 AM 8.32 46.976 1.057 7.82 5.09 9.96
12/20/2021 2:00:00 AM 8.27 46.886 1.059 7.82 4.79 9.96
12/20/2021 2:15:00 AM 8.22 46.796 1.061 7.82 4.67 9.97
12/20/2021 2:30:00 AM 8.18 46.724 1.062 7.82 4.73 9.98
12/20/2021 2:45:00 AM 8.13 46.634 1.063 7.82 4.79 9.98
12/20/2021 3:00:00 AM 8.07 46.526 1.064 7.82 4.58 10
12/20/2021 3:15:00 AM 8.03 46.454 1.063 7.82 5.47 10.02
12/20/2021 3:30:00 AM 7.97 46.346 1.063 7.82 4.58 10.03
12/20/2021 3:45:00 AM 7.92 46.256 1.061 7.82 4.52 10.04
12/20/2021 4:00:00 AM 7.87 46.166 1.059 7.82 4.58 10.06
12/20/2021 4:15:00 AM 7.82 46.076 1.057 7.82 5.02 10.08
12/20/2021 4:30:00 AM 7.77 45.986 1.053 7.82 5.02 10.09
12/20/2021 4:45:00 AM 7.72 45.896 1.048 7.82 5.33 10.11
12/20/2021 5:00:00 AM 7.67 45.806 1.043 7.83 5.72 10.14
12/20/2021 5:15:00 AM 7.61 45.698 1.038 7.82 5.28 10.16
12/20/2021 5:30:00 AM 7.56 45.608 1.032 7.83 5.3 10.18
12/20/2021 5:45:00 AM 7.51 45.518 1.026 7.83 5.23 10.2
12/20/2021 6:00:00 AM 7.46 45.428 1.019 7.83 4.62 10.22
12/20/2021 6:15:00 AM 7.41 45.338 1.011 7.83 4.71 10.25
12/20/2021 6:30:00 AM 7.35 45.23 1.004 7.84 5.3 10.27
12/20/2021 6:45:00 AM 7.3 45.14 0.996 7.84 5.2 10.31
12/20/2021 7:00:00 AM 7.25 45.05 0.988 7.84 4.87 10.33
12/20/2021 7:15:00 AM 7.19 44.942 0.981 7.84 4.89 10.36
12/20/2021 7:30:00 AM 7.14 44.852 0.973 7.85 4.87 10.4
12/20/2021 7:45:00 AM 7.1 44.78 0.965 7.85 5.35 10.46
12/20/2021 8:00:00 AM 7.06 44.708 0.957 7.86 5.37 10.54
12/20/2021 8:15:00 AM 7.03 44.654 0.949 7.86 5.51 10.64
12/20/2021 8:30:00 AM 7 44.6 0.941 7.87 5.57 10.74
12/20/2021 8:45:00 AM 6.99 44.582 0.935 7.88 5.38 10.84
12/20/2021 9:00:00 AM 7 44.6 0.929 7.88 5.05 10.94
12/20/2021 9:15:00 AM 7.02 44.636 0.926 7.9 5.24 11.06
12/20/2021 9:30:00 AM 7.05 44.69 0.924 7.9 5.1 11.18
12/20/2021 9:45:00 AM 7.1 44.78 0.923 7.92 5.68 11.28
12/20/2021 10:00:00 AM 7.17 44.906 0.923 7.93 5.51 11.37
12/20/2021 10:15:00 AM 7.25 45.05 0.923 7.93 5.37 11.45
12/20/2021 10:30:00 AM 7.35 45.23 0.922 7.94 5.91 11.53
12/20/2021 10:45:00 AM 7.44 45.392 0.92 7.95 6.43 11.62
12/20/2021 11:00:00 AM 7.55 45.59 0.918 7.96 6.75 11.7
12/20/2021 11:15:00 AM 7.66 45.788 0.916 7.97 6.56 11.78
12/20/2021 11:30:00 AM 7.77 45.986 0.913 7.98 6.01 11.85
12/20/2021 11:45:00 AM 7.88 46.184 0.912 7.99 6.18 11.92
12/20/2021 12:00:00 PM 7.98 46.364 0.914 8 6.42 11.98
12/20/2021 12:15:00 PM 8.09 46.562 0.919 8 6.25 12.03
12/20/2021 12:30:00 PM 8.2 46.76 0.929 8 6.05 12.06
12/20/2021 12:45:00 PM 8.31 46.958 0.944 8.01 5.49 12.07
12/20/2021 1:00:00 PM 8.42 47.156 0.963 8.01 5.89 12.08
12/20/2021 1:15:00 PM 8.53 47.354 0.983 8.01 5.18 12.09
12/20/2021 1:30:00 PM 8.63 47.534 1.001 8.02 5.19 12.09
12/20/2021 1:45:00 PM 8.73 47.714 1.017 8.02 5.85 12.09
12/20/2021 2:00:00 PM 8.81 47.858 1.029 8.02 6.06 12.09
12/20/2021 2:15:00 PM 8.87 47.966 1.038 8.02 5.38 12.09
12/20/2021 2:30:00 PM 8.91 48.038 1.044 8.02 5.53 12.07
12/20/2021 2:45:00 PM 8.94 48.092 1.047 8.03 5.56 12.02
12/20/2021 3:00:00 PM 8.96 48.128 1.047 8.03 5.49 11.98
12/20/2021 3:15:00 PM 8.96 48.128 1.046 8.02 5.64 11.9
12/20/2021 3:30:00 PM 8.95 48.11 1.046 8.02 5.6 11.81
12/20/2021 3:45:00 PM 8.95 48.11 1.047 8.01 5.82 11.71
12/20/2021 4:00:00 PM 8.95 48.11 1.048 8.01 5.6 11.63
12/20/2021 4:15:00 PM 8.96 48.128 1.05 8 5.63 11.54
12/20/2021 4:30:00 PM 8.97 48.146 1.052 8 5.32 11.46
12/20/2021 4:45:00 PM 8.98 48.164 1.054 7.99 5.92 11.35
12/20/2021 5:00:00 PM 8.99 48.182 1.055 7.98 6.78 11.25
12/20/2021 5:15:00 PM 8.99 48.182 1.054 7.98 6.42 11.17
12/20/2021 5:30:00 PM 9 48.2 1.052 7.98 6.88 11.1
12/20/2021 5:45:00 PM 9 48.2 1.05 7.97 6.23 11.05
12/20/2021 6:00:00 PM 9 48.2 1.049 7.97 6.13 11
12/20/2021 6:15:00 PM 8.99 48.182 1.049 7.97 6.73 10.93
12/20/2021 6:30:00 PM 8.99 48.182 1.049 7.96 5.86 10.87
12/20/2021 6:45:00 PM 8.98 48.164 1.049 7.96 5.68 10.82
12/20/2021 7:00:00 PM 8.96 48.128 1.048 7.95 5.57 10.75
12/20/2021 7:15:00 PM 8.94 48.092 1.048 7.95 5.79 10.7
12/20/2021 7:30:00 PM 8.92 48.056 1.046 7.94 6.13 10.65
12/20/2021 7:45:00 PM 8.89 48.002 1.045 7.94 5.76 10.6
12/20/2021 8:00:00 PM 8.86 47.948 1.043 7.93 6.41 10.55
12/20/2021 8:15:00 PM 8.82 47.876 1.041 7.92 6.15 10.51
12/20/2021 8:30:00 PM 8.78 47.804 1.04 7.92 5.92 10.46
12/20/2021 8:45:00 PM 8.74 47.732 1.041 7.91 5.41 10.39
12/20/2021 9:00:00 PM 8.7 47.66 1.041 7.9 5.52 10.34
12/20/2021 9:15:00 PM 8.65 47.57 1.04 7.89 6.23 10.28
12/20/2021 9:30:00 PM 8.6 47.48 1.037 7.89 5.39 10.24
12/20/2021 9:45:00 PM 8.56 47.408 1.035 7.88 5.51 10.2
12/20/2021 10:00:00 PM 8.51 47.318 1.033 7.88 5.5 10.17
12/20/2021 10:15:00 PM 8.46 47.228 1.033 7.87 5.27 10.15
12/20/2021 10:30:00 PM 8.42 47.156 1.035 7.87 5.55 10.13
12/20/2021 10:45:00 PM 8.38 47.084 1.037 7.86 5.6 10.11
12/20/2021 11:00:00 PM 8.34 47.012 1.04 7.86 5.69 10.1
12/20/2021 11:15:00 PM 8.31 46.958 1.043 7.85 5.63 10.09
12/20/2021 11:30:00 PM 8.27 46.886 1.046 7.85 5.34 10.08
12/20/2021 11:45:00 PM 8.23 46.814 1.05 7.85 5.49 10.07
12/21/2021 12:00:00 AM 8.2 46.76 1.054 7.85 5.36 10.07
12/21/2021 12:15:00 AM 8.16 46.688 1.058 7.84 5.53 10.06
12/21/2021 12:30:00 AM 8.13 46.634 1.063 7.84 5 10.06
12/21/2021 12:45:00 AM 8.1 46.58 1.068 7.84 4.92 10.05
12/21/2021 1:00:00 AM 8.07 46.526 1.073 7.84 4.78 10.04
12/21/2021 1:15:00 AM 8.05 46.49 1.078 7.84 5.37 10.05
12/21/2021 1:30:00 AM 8.02 46.436 1.083 7.83 5.03 10.04
12/21/2021 1:45:00 AM 7.98 46.364 1.087 7.83 5.54 10.04
12/21/2021 2:00:00 AM 7.95 46.31 1.09 7.83 4.68 10.05
12/21/2021 2:15:00 AM 7.92 46.256 1.091 7.83 4.93 10.06
12/21/2021 2:30:00 AM 7.88 46.184 1.093 7.83 5.26 10.06
12/21/2021 2:45:00 AM 7.85 46.13 1.094 7.83 5.27 10.07
12/21/2021 3:00:00 AM 7.82 46.076 1.096 7.83 5.6 10.08
12/21/2021 3:15:00 AM 7.79 46.022 1.096 7.83 5.95 10.08
12/21/2021 3:30:00 AM 7.77 45.986 1.095 7.83 4.91 10.09
12/21/2021 3:45:00 AM 7.74 45.932 1.094 7.82 5.27 10.1
12/21/2021 4:00:00 AM 7.71 45.878 1.092 7.83 5.74 10.11
12/21/2021 4:15:00 AM 7.68 45.824 1.09 7.83 5.7 10.11
12/21/2021 4:30:00 AM 7.64 45.752 1.087 7.83 5.66 10.13
12/21/2021 4:45:00 AM 7.6 45.68 1.084 7.83 5.55 10.14
12/21/2021 5:00:00 AM 7.55 45.59 1.08 7.83 6.91 10.16
12/21/2021 5:15:00 AM 7.51 45.518 1.074 7.83 6.94 10.17
12/21/2021 5:30:00 AM 7.47 45.446 1.068 7.83 6.16 10.18
12/21/2021 5:45:00 AM 7.43 45.374 1.061 7.83 7.02 10.21
12/21/2021 6:00:00 AM 7.38 45.284 1.052 7.84 6 10.23
12/21/2021 6:15:00 AM 7.33 45.194 1.042 7.84 5.8 10.26
12/21/2021 6:30:00 AM 7.28 45.104 1.032 7.84 5.6 10.28
12/21/2021 6:45:00 AM 7.24 45.032 1.022 7.84 6.01 10.31
12/21/2021 7:00:00 AM 7.19 44.942 1.011 7.84 5.14 10.33
12/21/2021 7:15:00 AM 7.14 44.852 0.999 7.84 4.78 10.37
12/21/2021 7:30:00 AM 7.1 44.78 0.989 7.85 4.93 10.4
12/21/2021 7:45:00 AM 7.05 44.69 0.979 7.85 5.12 10.46
12/21/2021 8:00:00 AM 7.01 44.618 0.97 7.86 4.74 10.55
12/21/2021 8:15:00 AM 7 44.6 0.961 7.86 5.6 10.68
12/21/2021 8:30:00 AM 6.99 44.582 0.953 7.87 5.97 10.79
12/21/2021 8:45:00 AM 6.99 44.582 0.946 7.88 5.35 10.93
12/21/2021 9:00:00 AM 7.01 44.618 0.942 7.9 5.41 11.07
12/21/2021 9:15:00 AM 7.04 44.672 0.939 7.91 5.41 11.2
12/21/2021 9:30:00 AM 7.09 44.762 0.939 7.92 5.71 11.3
12/21/2021 9:45:00 AM 7.16 44.888 0.941 7.93 6.41 11.38
12/21/2021 10:00:00 AM 7.24 45.032 0.943 7.94 6.07 11.47
12/21/2021 10:15:00 AM 7.32 45.176 0.944 7.95 5.44 11.54
12/21/2021 10:30:00 AM 7.42 45.356 0.944 7.95 6.21 11.61
12/21/2021 10:45:00 AM 7.5 45.5 0.943 7.96 6.18 11.67
12/21/2021 11:00:00 AM 7.58 45.644 0.941 7.97 6.04 11.72
12/21/2021 11:15:00 AM 7.66 45.788 0.938 7.98 6.27 11.78
12/21/2021 11:30:00 AM 7.76 45.968 0.934 7.99 5.28 11.88
12/21/2021 11:45:00 AM 7.86 46.148 0.931 8 5.71 11.97
12/21/2021 12:00:00 PM 7.95 46.31 0.928 8.01 6.13 12.03
12/21/2021 12:15:00 PM 8.06 46.508 0.929 8.01 6.27 12.06
12/21/2021 12:30:00 PM 8.16 46.688 0.935 8.02 5.85 12.09
12/21/2021 12:45:00 PM 8.29 46.922 0.947 8.03 5.16 12.15
12/21/2021 1:00:00 PM 8.43 47.174 0.962 8.03 4.77 12.2
12/21/2021 1:15:00 PM 8.57 47.426 0.98 8.04 4.52 12.24
12/21/2021 1:30:00 PM 8.72 47.696 0.998 8.05 4.48 12.28
12/21/2021 1:45:00 PM 8.85 47.93 1.012 8.05 4.24 12.28
12/21/2021 2:00:00 PM 8.98 48.164 1.024 8.06 4.34 12.28
12/21/2021 2:15:00 PM 9.09 48.362 1.031 8.06 4.33 12.28
12/21/2021 2:30:00 PM 9.2 48.56 1.036 8.07 4.18 12.27
12/21/2021 2:45:00 PM 9.3 48.74 1.039 8.07 4.49 12.25
12/21/2021 3:00:00 PM 9.37 48.866 1.042 8.07 4.37 12.2
12/21/2021 3:15:00 PM 9.44 48.992 1.046 8.07 4.62 12.14
12/21/2021 3:30:00 PM 9.51 49.118 1.054 8.07 4.53 12.07
12/21/2021 3:45:00 PM 9.58 49.244 1.062 8.06 4.45 11.97
12/21/2021 4:00:00 PM 9.65 49.37 1.07 8.06 4.69 11.86
12/21/2021 4:15:00 PM 9.7 49.46 1.074 8.05 4.42 11.73
12/21/2021 4:30:00 PM 9.74 49.532 1.074 8.04 4.53 11.6
12/21/2021 4:45:00 PM 9.76 49.568 1.072 8.03 5.16 11.46
12/21/2021 5:00:00 PM 9.77 49.586 1.068 8.03 5.37 11.35
12/21/2021 5:15:00 PM 9.77 49.586 1.063 8.02 5.75 11.26
12/21/2021 5:30:00 PM 9.76 49.568 1.058 8.01 5.04 11.17
12/21/2021 5:45:00 PM 9.76 49.568 1.053 8.01 5.87 11.09
12/21/2021 6:00:00 PM 9.77 49.586 1.049 8 5.32 11
12/21/2021 6:15:00 PM 9.77 49.586 1.048 7.99 5.55 10.91
12/21/2021 6:30:00 PM 9.78 49.604 1.048 7.99 5.49 10.83
12/21/2021 6:45:00 PM 9.8 49.64 1.051 7.98 5.53 10.75
12/21/2021 7:00:00 PM 9.82 49.676 1.056 7.97 5.5 10.67
12/21/2021 7:15:00 PM 9.84 49.712 1.062 7.96 5.36 10.57
12/21/2021 7:30:00 PM 9.86 49.748 1.069 7.95 5.53 10.47
12/21/2021 7:45:00 PM 9.88 49.784 1.075 7.94 6.08 10.37
12/21/2021 8:00:00 PM 9.9 49.82 1.076 7.93 6.82 10.28
12/21/2021 8:15:00 PM 9.9 49.82 1.074 7.93 5.32 10.21
12/21/2021 8:30:00 PM 9.9 49.82 1.07 7.92 5.33 10.14
12/21/2021 8:45:00 PM 9.9 49.82 1.067 7.91 5.15 10.06
12/21/2021 9:00:00 PM 9.89 49.802 1.065 7.9 5.18 9.99
12/21/2021 9:15:00 PM 9.89 49.802 1.061 7.89 5.02 9.93
12/21/2021 9:30:00 PM 9.88 49.784 1.054 7.88 5.47 9.86
12/21/2021 9:45:00 PM 9.86 49.748 1.045 7.87 5.34 9.8
12/21/2021 10:00:00 PM 9.84 49.712 1.036 7.87 8.03 9.76
12/21/2021 10:15:00 PM 9.82 49.676 1.029 7.86 4.84 9.72
12/21/2021 10:30:00 PM 9.81 49.658 1.025 7.86 5.2 9.69
12/21/2021 10:45:00 PM 9.8 49.64 1.025 7.85 5.28 9.66
12/21/2021 11:00:00 PM 9.8 49.64 1.027 7.85 4.9 9.64
12/21/2021 11:15:00 PM 9.81 49.658 1.03 7.84 5.22 9.61
12/21/2021 11:30:00 PM 9.81 49.658 1.034 7.83 4.71 9.58
12/21/2021 11:45:00 PM 9.82 49.676 1.038 7.84 5.12 9.55
12/22/2021 12:00:00 AM 9.83 49.694 1.042 7.83 5.52 9.54
12/22/2021 12:15:00 AM 9.84 49.712 1.046 7.83 5.36 9.52
12/22/2021 12:30:00 AM 9.85 49.73 1.05 7.82 5.58 9.5
12/22/2021 12:45:00 AM 9.85 49.73 1.054 7.82 4.87 9.48
12/22/2021 1:00:00 AM 9.86 49.748 1.056 7.82 5.26 9.47
12/22/2021 1:15:00 AM 9.86 49.748 1.059 7.82 5.27 9.45
12/22/2021 1:30:00 AM 9.86 49.748 1.061 7.82 5.79 9.44
12/22/2021 1:45:00 AM 9.86 49.748 1.063 7.82 5.38 9.43
12/22/2021 2:00:00 AM 9.85 49.73 1.066 7.81 5.3 9.43
12/22/2021 2:15:00 AM 9.85 49.73 1.067 7.81 5.1 9.42
12/22/2021 2:30:00 AM 9.85 49.73 1.068 7.81 5.12 9.42
12/22/2021 2:45:00 AM 9.84 49.712 1.068 7.81 5.52 9.41
12/22/2021 3:00:00 AM 9.84 49.712 1.067 7.81 5.02 9.41
12/22/2021 3:15:00 AM 9.83 49.694 1.067 7.81 5.5 9.4
12/22/2021 3:30:00 AM 9.83 49.694 1.067 7.81 6.21 9.41
12/22/2021 3:45:00 AM 9.82 49.676 1.067 7.81 6.38 9.4
12/22/2021 4:00:00 AM 9.8 49.64 1.067 7.81 6.01 9.39
12/22/2021 4:15:00 AM 9.77 49.586 1.065 7.81 6.33 9.4
12/22/2021 4:30:00 AM 9.73 49.514 1.061 7.81 5.85 9.4
12/22/2021 4:45:00 AM 9.7 49.46 1.055 7.81 5.72 9.41
12/22/2021 5:00:00 AM 9.68 49.424 1.047 7.81 5.61 9.42
12/22/2021 5:15:00 AM 9.66 49.388 1.04 7.81 6.42 9.43
12/22/2021 5:30:00 AM 9.63 49.334 1.032 7.82 5.97 9.44
12/22/2021 5:45:00 AM 9.6 49.28 1.024 7.82 5.77 9.45
12/22/2021 6:00:00 AM 9.58 49.244 1.017 7.82 5.48 9.47
12/22/2021 6:15:00 AM 9.54 49.172 1.009 7.82 6.07 9.48
12/22/2021 6:30:00 AM 9.5 49.1 1 7.82 5.97 9.5
12/22/2021 6:45:00 AM 9.45 49.01 0.99 7.83 5.45 9.52
12/22/2021 7:00:00 AM 9.4 48.92 0.981 7.83 5.62 9.54
12/22/2021 7:15:00 AM 9.34 48.812 0.97 7.83 5.65 9.57
12/22/2021 7:30:00 AM 9.29 48.722 0.961 7.83 5.95 9.59
12/22/2021 7:45:00 AM 9.24 48.632 0.952 7.83 5.6 9.64
12/22/2021 8:00:00 AM 9.19 48.542 0.942 7.84 5.9 9.7
12/22/2021 8:15:00 AM 9.14 48.452 0.934 7.84 5.83 9.79
12/22/2021 8:30:00 AM 9.1 48.38 0.927 7.85 5.64 9.88
12/22/2021 8:45:00 AM 9.08 48.344 0.922 7.86 5.74 10.01
12/22/2021 9:00:00 AM 9.07 48.326 0.918 7.87 5.41 10.19
12/22/2021 9:15:00 AM 9.09 48.362 0.916 7.88 5.52 10.36
12/22/2021 9:30:00 AM 9.11 48.398 0.915 7.89 5.93 10.45
12/22/2021 9:45:00 AM 9.14 48.452 0.915 7.9 5.65 10.55
12/22/2021 10:00:00 AM 9.19 48.542 0.916 7.91 5.41 10.66
12/22/2021 10:15:00 AM 9.25 48.65 0.917 7.92 5.94 10.77
12/22/2021 10:30:00 AM 9.33 48.794 0.919 7.93 5.86 10.87
12/22/2021 10:45:00 AM 9.39 48.902 0.92 7.93 6.16 10.92
12/22/2021 11:00:00 AM 9.46 49.028 0.921 7.94 6.24 10.98
12/22/2021 11:15:00 AM 9.54 49.172 0.919 7.95 5.49 11.09
12/22/2021 11:30:00 AM 9.61 49.298 0.917 7.96 5.48 11.22
12/22/2021 11:45:00 AM 9.71 49.478 0.915 7.97 6.41 11.32
12/22/2021 12:00:00 PM 9.78 49.604 0.915 7.99 5.57 11.39
12/22/2021 12:15:00 PM 9.83 49.694 0.916 7.99 6.67 11.43
12/22/2021 12:30:00 PM 9.91 49.838 0.921 8 6.59 11.53
12/22/2021 12:45:00 PM 10.03 50.054 0.929 8.01 5.66 11.64
12/22/2021 1:00:00 PM 10.11 50.198 0.942 8.01 5.31 11.66
12/22/2021 1:15:00 PM 10.17 50.306 0.958 8.02 6.26 11.66
12/22/2021 1:30:00 PM 10.24 50.432 0.976 8.02 5.31 11.67
12/22/2021 1:45:00 PM 10.28 50.504 0.995 8.02 5.93 11.68
12/22/2021 2:00:00 PM 10.32 50.576 1.012 8.02 5.32 11.68
12/22/2021 2:15:00 PM 10.35 50.63 1.024 8.03 5.48 11.69
12/22/2021 2:30:00 PM 10.37 50.666 1.032 8.03 5.37 11.69
12/22/2021 2:45:00 PM 10.37 50.666 1.037 8.04 5.72 11.68
12/22/2021 3:00:00 PM 10.37 50.666 1.04 8.04 5.39 11.66
12/22/2021 3:15:00 PM 10.34 50.612 1.043 8.04 5.52 11.58
12/22/2021 3:30:00 PM 10.29 50.522 1.046 8.03 4.92 11.49
12/22/2021 3:45:00 PM 10.22 50.396 1.05 8.03 5.51 11.38
12/22/2021 4:00:00 PM 10.13 50.234 1.055 8.02 5.61 11.28
12/22/2021 4:15:00 PM 10.05 50.09 1.061 8.01 7.28 11.18
12/22/2021 4:30:00 PM 9.99 49.982 1.07 8.01 6.02 11.09
12/22/2021 4:45:00 PM 9.94 49.892 1.078 8 5.68 10.99
12/22/2021 5:00:00 PM 9.89 49.802 1.085 7.99 5.67 10.88
12/22/2021 5:15:00 PM 9.85 49.73 1.093 7.98 6.05 10.79
12/22/2021 5:30:00 PM 9.81 49.658 1.1 7.97 5.88 10.72
12/22/2021 5:45:00 PM 9.77 49.586 1.106 7.97 5.8 10.66
12/22/2021 6:00:00 PM 9.72 49.496 1.11 7.96 6.38 10.6
12/22/2021 6:15:00 PM 9.68 49.424 1.111 7.96 5.45 10.55
12/22/2021 6:30:00 PM 9.63 49.334 1.111 7.95 6.89 10.49
12/22/2021 6:45:00 PM 9.59 49.262 1.11 7.95 6.27 10.44
12/22/2021 7:00:00 PM 9.54 49.172 1.108 7.94 6 10.39
12/22/2021 7:15:00 PM 9.47 49.046 1.104 7.94 5.74 10.34
12/22/2021 7:30:00 PM 9.4 48.92 1.1 7.93 5.9 10.31
12/22/2021 7:45:00 PM 9.32 48.776 1.094 7.93 5.36 10.28
12/22/2021 8:00:00 PM 9.23 48.614 1.088 7.92 5.84 10.25
12/22/2021 8:15:00 PM 9.15 48.47 1.082 7.92 6.1 10.22
12/22/2021 8:30:00 PM 9.07 48.326 1.076 7.91 5.57 10.19
12/22/2021 8:45:00 PM 8.98 48.164 1.07 7.91 5.31 10.16
12/22/2021 9:00:00 PM 8.9 48.02 1.064 7.9 5.87 10.12
12/22/2021 9:15:00 PM 8.83 47.894 1.059 7.9 5.42 10.1
12/22/2021 9:30:00 PM 8.76 47.768 1.056 7.89 4.97 10.07
12/22/2021 9:45:00 PM 8.7 47.66 1.054 7.89 5.29 10.04
12/22/2021 10:00:00 PM 8.64 47.552 1.053 7.88 5.61 10.03
12/22/2021 10:15:00 PM 8.57 47.426 1.052 7.88 5.48 10.02
12/22/2021 10:30:00 PM 8.51 47.318 1.052 7.88 5.18 10
12/22/2021 10:45:00 PM 8.44 47.192 1.053 7.87 4.8 9.99
12/22/2021 11:00:00 PM 8.37 47.066 1.055 7.87 5.25 9.99
12/22/2021 11:15:00 PM 8.31 46.958 1.058 7.87 5.1 9.99
12/22/2021 11:30:00 PM 8.25 46.85 1.062 7.87 4.59 9.98
12/22/2021 11:45:00 PM 8.21 46.778 1.066 7.86 4.6 9.98
12/23/2021 12:00:00 AM 8.18 46.724 1.071 7.86 5.64 9.98
12/23/2021 12:15:00 AM 8.15 46.67 1.076 7.86 4.61 9.98
12/23/2021 12:30:00 AM 8.11 46.598 1.081 7.86 5.3 9.97
12/23/2021 12:45:00 AM 8.08 46.544 1.086 7.85 4.98 9.97
12/23/2021 1:00:00 AM 8.04 46.472 1.09 7.85 4.79 9.98
12/23/2021 1:15:00 AM 8.01 46.418 1.093 7.85 4.76 9.99
12/23/2021 1:30:00 AM 7.97 46.346 1.095 7.85 4.28 10
12/23/2021 1:45:00 AM 7.93 46.274 1.098 7.85 4.69 10.01
12/23/2021 2:00:00 AM 7.88 46.184 1.1 7.85 5.35 10.03
12/23/2021 2:15:00 AM 7.84 46.112 1.103 7.85 5.71 10.03
12/23/2021 2:30:00 AM 7.79 46.022 1.105 7.85 6.1 10.05
12/23/2021 2:45:00 AM 7.75 45.95 1.107 7.85 5.73 10.06
12/23/2021 3:00:00 AM 7.71 45.878 1.109 7.85 5.46 10.07
12/23/2021 3:15:00 AM 7.67 45.806 1.11 7.84 7.11 10.09
12/23/2021 3:30:00 AM 7.64 45.752 1.111 7.85 6.13 10.1
12/23/2021 3:45:00 AM 7.61 45.698 1.112 7.85 5.81 10.1
12/23/2021 4:00:00 AM 7.59 45.662 1.112 7.84 6.76 10.11
12/23/2021 4:15:00 AM 7.55 45.59 1.111 7.84 7.06 10.12
12/23/2021 4:30:00 AM 7.52 45.536 1.109 7.85 8.87 10.13
12/23/2021 4:45:00 AM 7.48 45.464 1.106 7.85 9.31 10.14
12/23/2021 5:00:00 AM 7.45 45.41 1.102 7.85 8.08 10.16
12/23/2021 5:15:00 AM 7.41 45.338 1.096 7.85 8.56 10.18
12/23/2021 5:30:00 AM 7.37 45.266 1.09 7.85 7.98 10.2
12/23/2021 5:45:00 AM 7.33 45.194 1.082 7.85 7.64 10.22
12/23/2021 6:00:00 AM 7.28 45.104 1.073 7.85 7.29 10.24
12/23/2021 6:15:00 AM 7.23 45.014 1.062 7.85 6.46 10.28
12/23/2021 6:30:00 AM 7.19 44.942 1.051 7.85 6.49 10.29
12/23/2021 6:45:00 AM 7.14 44.852 1.039 7.86 5.3 10.33
12/23/2021 7:00:00 AM 7.09 44.762 1.027 7.86 5.35 10.36
12/23/2021 7:15:00 AM 7.04 44.672 1.015 7.86 5.18 10.4
12/23/2021 7:30:00 AM 6.99 44.582 1.005 7.87 5.37 10.43
12/23/2021 7:45:00 AM 6.95 44.51 0.994 7.87 4.77 10.48
12/23/2021 8:00:00 AM 6.91 44.438 0.985 7.87 5.87 10.57
12/23/2021 8:15:00 AM 6.88 44.384 0.976 7.88 6.1 10.66
12/23/2021 8:30:00 AM 6.86 44.348 0.967 7.89 5.93 10.75
12/23/2021 8:45:00 AM 6.85 44.33 0.96 7.9 5.78 10.86
12/23/2021 9:00:00 AM 6.85 44.33 0.953 7.91 5.85 10.96
12/23/2021 9:15:00 AM 6.87 44.366 0.948 7.92 6.67 11.07
12/23/2021 9:30:00 AM 6.89 44.402 0.945 7.92 6.21 11.18
12/23/2021 9:45:00 AM 6.94 44.492 0.943 7.93 6.24 11.29
12/23/2021 10:00:00 AM 7.01 44.618 0.942 7.94 6.17 11.38
12/23/2021 10:15:00 AM 7.08 44.744 0.941 7.95 6.1 11.45
12/23/2021 10:30:00 AM 7.18 44.924 0.94 7.96 5.8 11.53
12/23/2021 10:45:00 AM 7.27 45.086 0.939 7.97 6.09 11.61
12/23/2021 11:00:00 AM 7.37 45.266 0.937 7.98 5.88 11.69
12/23/2021 11:15:00 AM 7.48 45.464 0.936 7.98 6.08 11.78
12/23/2021 11:30:00 AM 7.57 45.626 0.934 7.99 5.4 11.86
12/23/2021 11:45:00 AM 7.68 45.824 0.932 8 6.25 11.92
12/23/2021 12:00:00 PM 7.82 46.076 0.93 8.01 5.66 12.05
12/23/2021 12:15:00 PM 7.93 46.274 0.929 8.02 6.15 12.16
12/23/2021 12:30:00 PM 8.01 46.418 0.931 8.03 5.62 12.19
12/23/2021 12:45:00 PM 8.1 46.58 0.936 8.04 5.35 12.22
12/23/2021 1:00:00 PM 8.22 46.796 0.947 8.04 5.2 12.27
12/23/2021 1:15:00 PM 8.33 46.994 0.963 8.05 5.48 12.27
12/23/2021 1:30:00 PM 8.43 47.174 0.984 8.05 5.7 12.24
12/23/2021 1:45:00 PM 8.52 47.336 1.004 8.04 5.88 12.21
12/23/2021 2:00:00 PM 8.63 47.534 1.024 8.04 5.07 12.19
12/23/2021 2:15:00 PM 8.72 47.696 1.039 8.05 5.57 12.16
12/23/2021 2:30:00 PM 8.76 47.768 1.051 8.04 5.6 12.08
12/23/2021 2:45:00 PM 8.8 47.84 1.059 8.04 4.99 12.05
12/23/2021 3:00:00 PM 8.87 47.966 1.065 8.04 5.16 12.01
12/23/2021 3:15:00 PM 8.92 48.056 1.07 8.04 5.47 11.99
12/23/2021 3:30:00 PM 8.97 48.146 1.074 8.05 5.45 11.99
12/23/2021 3:45:00 PM 8.99 48.182 1.079 8.05 5.48 11.94
12/23/2021 4:00:00 PM 9.02 48.236 1.087 8.05 5.62 11.85
12/23/2021 4:15:00 PM 9.07 48.326 1.096 8.04 6.23 11.77
12/23/2021 4:30:00 PM 9.11 48.398 1.109 8.04 5.85 11.67
12/23/2021 4:45:00 PM 9.14 48.452 1.123 8.03 5.01 11.55
12/23/2021 5:00:00 PM 9.16 48.488 1.138 8.02 5.17 11.41
12/23/2021 5:15:00 PM 9.18 48.524 1.152 8.01 7 11.29
12/23/2021 5:30:00 PM 9.19 48.542 1.164 8 5.58 11.19
12/23/2021 5:45:00 PM 9.19 48.542 1.172 8 6.32 11.1
12/23/2021 6:00:00 PM 9.18 48.524 1.175 7.99 7.1 11.02
12/23/2021 6:15:00 PM 9.16 48.488 1.174 7.99 6.78 10.96
12/23/2021 6:30:00 PM 9.13 48.434 1.171 7.98 5.11 10.9
12/23/2021 6:45:00 PM 9.11 48.398 1.168 7.98 5.56 10.83
12/23/2021 7:00:00 PM 9.08 48.344 1.164 7.97 5.38 10.76
12/23/2021 7:15:00 PM 9.05 48.29 1.159 7.96 5.65 10.7
12/23/2021 7:30:00 PM 9.03 48.254 1.152 7.96 5.88 10.64
12/23/2021 7:45:00 PM 9 48.2 1.142 7.95 6.02 10.59
12/23/2021 8:00:00 PM 8.97 48.146 1.133 7.95 5.79 10.54
12/23/2021 8:15:00 PM 8.94 48.092 1.122 7.94 5.44 10.5
12/23/2021 8:30:00 PM 8.91 48.038 1.112 7.94 5.07 10.46
12/23/2021 8:45:00 PM 8.87 47.966 1.103 7.93 6.77 10.42
12/23/2021 9:00:00 PM 8.84 47.912 1.094 7.93 5.66 10.37
12/23/2021 9:15:00 PM 8.8 47.84 1.086 7.92 5.5 10.32
12/23/2021 9:30:00 PM 8.77 47.786 1.08 7.91 5.15 10.28
12/23/2021 9:45:00 PM 8.74 47.732 1.075 7.91 5.2 10.22
12/23/2021 10:00:00 PM 8.71 47.678 1.073 7.91 5 10.18
12/23/2021 10:15:00 PM 8.68 47.624 1.072 7.9 5.57 10.15
12/23/2021 10:30:00 PM 8.67 47.606 1.072 7.89 5.65 10.11
12/23/2021 10:45:00 PM 8.65 47.57 1.071 7.89 5.8 10.08
12/23/2021 11:00:00 PM 8.63 47.534 1.071 7.88 5.26 10.06
12/23/2021 11:15:00 PM 8.62 47.516 1.07 7.88 4.68 10.05
12/23/2021 11:30:00 PM 8.62 47.516 1.071 7.87 5.55 10.02
12/23/2021 11:45:00 PM 8.62 47.516 1.072 7.87 4.97 10
12/24/2021 12:00:00 AM 8.63 47.534 1.073 7.87 5.42 9.99
12/24/2021 12:15:00 AM 8.62 47.516 1.074 7.87 5.5 9.98
12/24/2021 12:30:00 AM 8.63 47.534 1.074 7.86 5.22 9.96
12/24/2021 12:45:00 AM 8.64 47.552 1.074 7.86 5.54 9.95
12/24/2021 1:00:00 AM 8.64 47.552 1.075 7.86 4.84 9.94
12/24/2021 1:15:00 AM 8.65 47.57 1.076 7.86 4.84 9.93
12/24/2021 1:30:00 AM 8.66 47.588 1.076 7.85 4.95 9.93
12/24/2021 1:45:00 AM 8.67 47.606 1.075 7.85 5.2 9.92
12/24/2021 2:00:00 AM 8.67 47.606 1.074 7.85 5.88 9.91
12/24/2021 2:15:00 AM 8.67 47.606 1.071 7.85 6.54 9.91
12/24/2021 2:30:00 AM 8.67 47.606 1.068 7.85 6.62 9.92
12/24/2021 2:45:00 AM 8.66 47.588 1.065 7.85 5.07 9.92
12/24/2021 3:00:00 AM 8.65 47.57 1.062 7.84 5.08 9.92
12/24/2021 3:15:00 AM 8.64 47.552 1.06 7.85 5.16 9.91
12/24/2021 3:30:00 AM 8.64 47.552 1.057 7.85 5.87 9.91
12/24/2021 3:45:00 AM 8.63 47.534 1.054 7.85 6.12 9.92
12/24/2021 4:00:00 AM 8.62 47.516 1.052 7.85 5.81 9.92
12/24/2021 4:15:00 AM 8.61 47.498 1.049 7.85 5.59 9.92
12/24/2021 4:30:00 AM 8.6 47.48 1.046 7.85 7.53 9.93
12/24/2021 4:45:00 AM 8.6 47.48 1.042 7.85 5.34 9.93
12/24/2021 5:00:00 AM 8.59 47.462 1.038 7.85 6.5 9.94
12/24/2021 5:15:00 AM 8.59 47.462 1.034 7.85 5.89 9.95
12/24/2021 5:30:00 AM 8.59 47.462 1.03 7.85 5.44 9.95
12/24/2021 5:45:00 AM 8.59 47.462 1.026 7.85 5.64 9.96
12/24/2021 6:00:00 AM 8.59 47.462 1.022 7.85 5.23 9.95
12/24/2021 6:15:00 AM 8.59 47.462 1.019 7.85 5.08 9.97
12/24/2021 6:30:00 AM 8.57 47.426 1.015 7.85 5.43 9.97
12/24/2021 6:45:00 AM 8.53 47.354 1.011 7.85 5.82 9.97
12/24/2021 7:00:00 AM 8.5 47.3 1.007 7.85 5.14 9.99
12/24/2021 7:15:00 AM 8.45 47.21 1 7.85 5.05 10
12/24/2021 7:30:00 AM 8.4 47.12 0.994 7.86 5.91 10.02
12/24/2021 7:45:00 AM 8.35 47.03 0.986 7.86 5.5 10.07
12/24/2021 8:00:00 AM 8.31 46.958 0.979 7.86 5.2 10.14
12/24/2021 8:15:00 AM 8.27 46.886 0.972 7.87 5.78 10.23
12/24/2021 8:30:00 AM 8.24 46.832 0.963 7.88 5.71 10.33
12/24/2021 8:45:00 AM 8.22 46.796 0.956 7.89 5.46 10.45
12/24/2021 9:00:00 AM 8.22 46.796 0.949 7.9 5.23 10.59
12/24/2021 9:15:00 AM 8.22 46.796 0.942 7.91 4.66 10.74
12/24/2021 9:30:00 AM 8.24 46.832 0.936 7.92 4.56 10.84
12/24/2021 9:45:00 AM 8.27 46.886 0.931 7.94 4.78 10.96
12/24/2021 10:00:00 AM 8.33 46.994 0.927 7.95 6.78 11.09
12/24/2021 10:15:00 AM 8.39 47.102 0.924 7.95 6.09 11.18
12/24/2021 10:30:00 AM 8.47 47.246 0.923 7.97 5.68 11.26
12/24/2021 10:45:00 AM 8.56 47.408 0.922 7.97 5.72 11.33
12/24/2021 11:00:00 AM 8.67 47.606 0.92 7.98 5.1 11.4
12/24/2021 11:15:00 AM 8.77 47.786 0.918 7.99 5.43 11.49
12/24/2021 11:30:00 AM 8.87 47.966 0.915 7.99 6.75 11.55
12/24/2021 11:45:00 AM 8.96 48.128 0.911 8 5.14 11.63
12/24/2021 12:00:00 PM 9.06 48.308 0.906 8.01 6.13 11.69
12/24/2021 12:15:00 PM 9.14 48.452 0.903 8.02 5.9 11.74
12/24/2021 12:30:00 PM 9.23 48.614 0.901 8.03 5.84 11.79
12/24/2021 12:45:00 PM 9.32 48.776 0.902 8.03 5.3 11.86
12/24/2021 1:00:00 PM 9.4 48.92 0.908 8.04 5.81 11.92
12/24/2021 1:15:00 PM 9.48 49.064 0.92 8.04 5.09 11.94
12/24/2021 1:30:00 PM 9.55 49.19 0.939 8.05 5.19 11.94
12/24/2021 1:45:00 PM 9.64 49.352 0.962 8.05 5.13 11.95
12/24/2021 2:00:00 PM 9.74 49.532 0.985 8.05 5.22 11.96
12/24/2021 2:15:00 PM 9.84 49.712 1.005 8.05 4.66 11.95
12/24/2021 2:30:00 PM 9.92 49.856 1.02 8.05 4.9 11.92
12/24/2021 2:45:00 PM 9.98 49.964 1.032 8.05 4.53 11.85
12/24/2021 3:00:00 PM 10.05 50.09 1.043 8.05 4.23 11.79
12/24/2021 3:15:00 PM 10.12 50.216 1.053 8.05 4.6 11.75
12/24/2021 3:30:00 PM 10.18 50.324 1.064 8.04 4.28 11.66
12/24/2021 3:45:00 PM 10.25 50.45 1.075 8.04 4.26 11.59
12/24/2021 4:00:00 PM 10.31 50.558 1.085 8.03 4.61 11.5
12/24/2021 4:15:00 PM 10.36 50.648 1.093 8.03 4.82 11.37
12/24/2021 4:30:00 PM 10.4 50.72 1.098 8.02 4.19 11.25
12/24/2021 4:45:00 PM 10.44 50.792 1.101 8.02 4.87 11.13
12/24/2021 5:00:00 PM 10.45 50.81 1.102 8.01 3.85 11.03
12/24/2021 5:15:00 PM 10.47 50.846 1.102 8 4.15 10.94
12/24/2021 5:30:00 PM 10.49 50.882 1.102 8 4.05 10.85
12/24/2021 5:45:00 PM 10.5 50.9 1.103 7.99 4.38 10.77
12/24/2021 6:00:00 PM 10.51 50.918 1.106 7.99 6.4 10.68
12/24/2021 6:15:00 PM 10.53 50.954 1.112 7.98 6.38 10.61
12/24/2021 6:30:00 PM 10.54 50.972 1.12 7.97 4.47 10.53
12/24/2021 6:45:00 PM 10.56 51.008 1.128 7.96 5.08 10.45
12/24/2021 7:00:00 PM 10.57 51.026 1.132 7.96 5.06 10.37
12/24/2021 7:15:00 PM 10.57 51.026 1.132 7.95 4.93 10.29
12/24/2021 7:30:00 PM 10.56 51.008 1.128 7.94 5.19 10.21
12/24/2021 7:45:00 PM 10.54 50.972 1.122 7.93 5.54 10.14
12/24/2021 8:00:00 PM 10.52 50.936 1.117 7.93 4.62 10.07
12/24/2021 8:15:00 PM 10.48 50.864 1.112 7.92 4.76 10.01
12/24/2021 8:30:00 PM 10.44 50.792 1.108 7.91 5.39 9.96
12/24/2021 8:45:00 PM 10.4 50.72 1.104 7.91 5.31 9.9
12/24/2021 9:00:00 PM 10.35 50.63 1.102 7.9 5.59 9.86
12/24/2021 9:15:00 PM 10.31 50.558 1.101 7.89 5.73 9.79
12/24/2021 9:30:00 PM 10.28 50.504 1.101 7.89 5.78 9.74
12/24/2021 9:45:00 PM 10.25 50.45 1.101 7.88 5.54 9.68
12/24/2021 10:00:00 PM 10.23 50.414 1.1 7.87 5.67 9.64
12/24/2021 10:15:00 PM 10.22 50.396 1.1 7.87 4.89 9.6
12/24/2021 10:30:00 PM 10.2 50.36 1.099 7.86 5.07 9.56
12/24/2021 10:45:00 PM 10.19 50.342 1.098 7.86 4.98 9.54
12/24/2021 11:00:00 PM 10.19 50.342 1.095 7.85 5.27 9.51
12/24/2021 11:15:00 PM 10.19 50.342 1.092 7.85 5.15 9.49
12/24/2021 11:30:00 PM 10.19 50.342 1.088 7.85 6.11 9.48
12/24/2021 11:45:00 PM 10.19 50.342 1.083 7.85 5.58 9.46
12/25/2021 12:00:00 AM 10.19 50.342 1.079 7.84 4.3 9.45
12/25/2021 12:15:00 AM 10.18 50.324 1.075 7.84 6.48 9.45
12/25/2021 12:30:00 AM 10.17 50.306 1.071 7.84 4.8 9.44
12/25/2021 12:45:00 AM 10.16 50.288 1.068 7.84 4.95 9.43
12/25/2021 1:00:00 AM 10.15 50.27 1.064 7.84 4.62 9.43
12/25/2021 1:15:00 AM 10.14 50.252 1.06 7.83 5.91 9.43
12/25/2021 1:30:00 AM 10.13 50.234 1.055 7.83 5.36 9.43
12/25/2021 1:45:00 AM 10.11 50.198 1.051 7.83 6.55 9.44
12/25/2021 2:00:00 AM 10.1 50.18 1.046 7.83 4.66 9.43
12/25/2021 2:15:00 AM 10.08 50.144 1.041 7.83 4.52 9.43
12/25/2021 2:30:00 AM 10.08 50.144 1.037 7.83 4.41 9.44
12/25/2021 2:45:00 AM 10.07 50.126 1.032 7.83 4.34 9.44
12/25/2021 3:00:00 AM 10.07 50.126 1.028 7.83 4.03 9.43
12/25/2021 3:15:00 AM 10.06 50.108 1.024 7.83 5.28 9.43
12/25/2021 3:30:00 AM 10.06 50.108 1.022 7.83 5.1 9.44
12/25/2021 3:45:00 AM 10.06 50.108 1.021 7.83 4.78 9.43
12/25/2021 4:00:00 AM 10.06 50.108 1.021 7.83 5.35 9.43
12/25/2021 4:15:00 AM 10.06 50.108 1.021 7.82 5.46 9.43
12/25/2021 4:30:00 AM 10.06 50.108 1.021 7.83 5.07 9.42
12/25/2021 4:45:00 AM 10.06 50.108 1.02 7.82 5.52 9.41
12/25/2021 5:00:00 AM 10.07 50.126 1.019 7.82 6.18 9.4
12/25/2021 5:15:00 AM 10.07 50.126 1.017 7.82 6.73 9.4
12/25/2021 5:30:00 AM 10.08 50.144 1.015 7.82 7.35 9.4
12/25/2021 5:45:00 AM 10.09 50.162 1.012 7.82 7.23 9.4
12/25/2021 6:00:00 AM 10.1 50.18 1.009 7.82 7.39 9.4
12/25/2021 6:15:00 AM 10.1 50.18 1.005 7.82 7.71 9.4
12/25/2021 6:30:00 AM 10.11 50.198 1.001 7.82 6.89 9.39
12/25/2021 6:45:00 AM 10.1 50.18 0.997 7.82 5.84 9.39
12/25/2021 7:00:00 AM 10.11 50.198 0.993 7.82 6.08 9.39
12/25/2021 7:15:00 AM 10.1 50.18 0.988 7.82 5.26 9.39
12/25/2021 7:30:00 AM 10.1 50.18 0.982 7.83 5.62 9.41
12/25/2021 7:45:00 AM 10.1 50.18 0.975 7.83 5.01 9.42
12/25/2021 8:00:00 AM 10.1 50.18 0.968 7.83 6.43 9.44
12/25/2021 8:15:00 AM 10.1 50.18 0.96 7.83 5.27 9.45
12/25/2021 8:30:00 AM 10.1 50.18 0.952 7.84 5.42 9.49
12/25/2021 8:45:00 AM 10.1 50.18 0.945 7.84 5.3 9.52
12/25/2021 9:00:00 AM 10.1 50.18 0.938 7.84 5.6 9.57
12/25/2021 9:15:00 AM 10.1 50.18 0.933 7.85 5.42 9.65
12/25/2021 9:30:00 AM 10.11 50.198 0.929 7.85 5.43 9.71
12/25/2021 9:45:00 AM 10.14 50.252 0.926 7.86 4.92 9.83
12/25/2021 10:00:00 AM 10.17 50.306 0.924 7.87 4.62 9.98
12/25/2021 10:15:00 AM 10.2 50.36 0.922 7.88 4.46 10.03
12/25/2021 10:30:00 AM 10.24 50.432 0.919 7.88 4.82 10.06
12/25/2021 10:45:00 AM 10.28 50.504 0.916 7.89 4.55 10.06
12/25/2021 11:00:00 AM 10.31 50.558 0.913 7.89 4.48 10.08
12/25/2021 11:15:00 AM 10.34 50.612 0.909 7.89 4.63 10.13
12/25/2021 11:30:00 AM 10.37 50.666 0.903 7.9 4.52 10.12
12/25/2021 11:45:00 AM 10.4 50.72 0.897 7.9 4.47 10.15
12/25/2021 12:00:00 PM 10.44 50.792 0.892 7.91 4.33 10.27
12/25/2021 12:15:00 PM 10.47 50.846 0.887 7.91 4.21 10.34
12/25/2021 12:30:00 PM 10.49 50.882 0.884 7.91 4.17 10.28
12/25/2021 12:45:00 PM 10.55 50.99 0.882 7.92 4.37 10.4
12/25/2021 1:00:00 PM 10.61 51.098 0.883 7.93 5.13 10.6
12/25/2021 1:15:00 PM 10.73 51.314 0.885 7.95 4.73 10.83
12/25/2021 1:30:00 PM 10.81 51.458 0.892 7.96 4.7 10.9
12/25/2021 1:45:00 PM 10.88 51.584 0.904 7.96 4.51 10.8
12/25/2021 2:00:00 PM 10.96 51.728 0.921 7.96 4.71 10.75
12/25/2021 2:15:00 PM 11.07 51.926 0.939 7.96 4.83 10.77
12/25/2021 2:30:00 PM 11.17 52.106 0.955 7.96 4.09 10.84
12/25/2021 2:45:00 PM 11.24 52.232 0.969 7.97 4.04 10.84
12/25/2021 3:00:00 PM 11.3 52.34 0.98 7.96 4.1 10.78
12/25/2021 3:15:00 PM 11.38 52.484 0.992 7.96 4.14 10.7
12/25/2021 3:30:00 PM 11.45 52.61 1.002 7.95 4.82 10.59
12/25/2021 3:45:00 PM 11.5 52.7 1.011 7.95 4.31 10.48
12/25/2021 4:00:00 PM 11.55 52.79 1.019 7.94 4.93 10.39
12/25/2021 4:15:00 PM 11.59 52.862 1.026 7.93 4.26 10.3
12/25/2021 4:30:00 PM 11.63 52.934 1.032 7.93 4.5 10.2
12/25/2021 4:45:00 PM 11.67 53.006 1.037 7.92 4.58 10.13
12/25/2021 5:00:00 PM 11.7 53.06 1.039 7.92 4.17 10.06
12/25/2021 5:15:00 PM 11.72 53.096 1.039 7.92 4.23 10
12/25/2021 5:30:00 PM 11.74 53.132 1.039 7.91 5.36 9.97
12/25/2021 5:45:00 PM 11.77 53.186 1.039 7.91 5.59 9.92
12/25/2021 6:00:00 PM 11.78 53.204 1.04 7.91 10.95 9.87
12/25/2021 6:15:00 PM 11.8 53.24 1.041 7.9 6.25 9.84
12/25/2021 6:30:00 PM 11.82 53.276 1.044 7.9 6.12 9.79
12/25/2021 6:45:00 PM 11.84 53.312 1.046 7.9 5.22 9.74
12/25/2021 7:00:00 PM 11.85 53.33 1.047 7.89 5.6 9.69
12/25/2021 7:15:00 PM 11.86 53.348 1.046 7.89 5.14 9.64
12/25/2021 7:30:00 PM 11.86 53.348 1.044 7.89 5.01 9.59
12/25/2021 7:45:00 PM 11.86 53.348 1.042 7.88 5.32 9.54
12/25/2021 8:00:00 PM 11.85 53.33 1.039 7.87 4.87 9.49
12/25/2021 8:15:00 PM 11.84 53.312 1.037 7.87 4.96 9.44
12/25/2021 8:30:00 PM 11.83 53.294 1.035 7.86 5.45 9.39
12/25/2021 8:45:00 PM 11.81 53.258 1.034 7.86 5.66 9.34
12/25/2021 9:00:00 PM 11.8 53.24 1.034 7.85 5.72 9.28
12/25/2021 9:15:00 PM 11.77 53.186 1.034 7.84 5.98 9.23
12/25/2021 9:30:00 PM 11.73 53.114 1.033 7.83 5.79 9.18
12/25/2021 9:45:00 PM 11.69 53.042 1.03 7.83 6.27 9.15
12/25/2021 10:00:00 PM 11.66 52.988 1.029 7.82 5.73 9.12
12/25/2021 10:15:00 PM 11.64 52.952 1.029 7.82 5.54 9.09
12/25/2021 10:30:00 PM 11.62 52.916 1.031 7.81 6.1 9.07
12/25/2021 10:45:00 PM 11.61 52.898 1.033 7.81 5.84 9.05
12/25/2021 11:00:00 PM 11.6 52.88 1.034 7.8 5.85 9.04
12/25/2021 11:15:00 PM 11.59 52.862 1.035 7.8 6.05 9.04
12/25/2021 11:30:00 PM 11.58 52.844 1.035 7.8 5.82 9.03
12/25/2021 11:45:00 PM 11.58 52.844 1.033 7.8 5.97 9.02
12/26/2021 12:00:00 AM 11.57 52.826 1.032 7.79 6.41 9.02
12/26/2021 12:15:00 AM 11.54 52.772 1.031 7.79 5.62 9.02
12/26/2021 12:30:00 AM 11.5 52.7 1.03 7.79 6.03 9.03
12/26/2021 12:45:00 AM 11.46 52.628 1.026 7.79 5.74 9.04
12/26/2021 1:00:00 AM 11.41 52.538 1.022 7.79 5.89 9.06
12/26/2021 1:15:00 AM 11.35 52.43 1.018 7.79 6.98 9.07
12/26/2021 1:30:00 AM 11.3 52.34 1.014 7.79 5.96 9.08
12/26/2021 1:45:00 AM 11.24 52.232 1.012 7.79 5.79 9.09
12/26/2021 2:00:00 AM 11.18 52.124 1.01 7.79 6.36 9.1
12/26/2021 2:15:00 AM 11.12 52.016 1.01 7.79 5.74 9.1
12/26/2021 2:30:00 AM 11.07 51.926 1.009 7.78 6.19 9.1
12/26/2021 2:45:00 AM 11.01 51.818 1.006 7.78 6.25 9.1
12/26/2021 3:00:00 AM 10.95 51.71 1.003 7.78 5.94 9.1
12/26/2021 3:15:00 AM 10.89 51.602 0.998 7.77 5.65 9.09
12/26/2021 3:30:00 AM 10.83 51.494 0.993 7.77 5.81 9.08
12/26/2021 3:45:00 AM 10.77 51.386 0.987 7.76 5.12 9.08
12/26/2021 4:00:00 AM 10.72 51.296 0.983 7.76 6.28 9.09
12/26/2021 4:15:00 AM 10.67 51.206 0.978 7.76 7.51 9.09
12/26/2021 4:30:00 AM 10.62 51.116 0.974 7.75 5.85 9.1
12/26/2021 4:45:00 AM 10.56 51.008 0.971 7.75 6.31 9.11
12/26/2021 5:00:00 AM 10.51 50.918 0.968 7.75 5.4 9.13
12/26/2021 5:15:00 AM 10.46 50.828 0.966 7.75 5.32 9.15
12/26/2021 5:30:00 AM 10.4 50.72 0.963 7.75 5.22 9.16
12/26/2021 5:45:00 AM 10.35 50.63 0.96 7.75 6.13 9.18
12/26/2021 6:00:00 AM 10.29 50.522 0.958 7.75 5.31 9.2
12/26/2021 6:15:00 AM 10.24 50.432 0.955 7.75 5.02 9.22
12/26/2021 6:30:00 AM 10.19 50.342 0.952 7.75 5.25 9.25
12/26/2021 6:45:00 AM 10.13 50.234 0.948 7.75 5.31 9.27
12/26/2021 7:00:00 AM 10.08 50.144 0.945 7.76 4.78 9.3
12/26/2021 7:15:00 AM 10.02 50.036 0.943 7.76 4.68 9.34
12/26/2021 7:30:00 AM 9.96 49.928 0.94 7.77 4.65 9.38
12/26/2021 7:45:00 AM 9.91 49.838 0.937 7.77 5 9.44
12/26/2021 8:00:00 AM 9.86 49.748 0.934 7.78 5.04 9.52
12/26/2021 8:15:00 AM 9.82 49.676 0.932 7.79 4.99 9.61
12/26/2021 8:30:00 AM 9.79 49.622 0.929 7.8 5.14 9.71
12/26/2021 8:45:00 AM 9.77 49.586 0.927 7.81 5.04 9.83
12/26/2021 9:00:00 AM 9.76 49.568 0.926 7.82 5.28 9.97
12/26/2021 9:15:00 AM 9.76 49.568 0.926 7.83 5.51 10.11
12/26/2021 9:30:00 AM 9.78 49.604 0.926 7.85 6.7 10.24
12/26/2021 9:45:00 AM 9.8 49.64 0.927 7.86 6.42 10.37
12/26/2021 10:00:00 AM 9.84 49.712 0.928 7.88 5.85 10.51
12/26/2021 10:15:00 AM 9.89 49.802 0.929 7.89 5.3 10.65
12/26/2021 10:30:00 AM 9.97 49.946 0.929 7.91 5.16 10.74
12/26/2021 10:45:00 AM 10.04 50.072 0.929 7.92 5.04 10.85
12/26/2021 11:00:00 AM 10.13 50.234 0.929 7.93 5.07 10.95
12/26/2021 11:15:00 AM 10.22 50.396 0.927 7.94 4.8 11.04
12/26/2021 11:30:00 AM 10.31 50.558 0.923 7.95 4.95 11.11
12/26/2021 11:45:00 AM 10.4 50.72 0.919 7.97 5.49 11.19
12/26/2021 12:00:00 PM 10.49 50.882 0.914 7.98 4.66 11.27
12/26/2021 12:15:00 PM 10.57 51.026 0.909 7.99 4.98 11.34
12/26/2021 12:30:00 PM 10.65 51.17 0.907 8 5.37 11.4
12/26/2021 12:45:00 PM 10.71 51.278 0.909 8.01 5.59 11.45
12/26/2021 1:00:00 PM 10.78 51.404 0.914 8.01 5.3 11.48
12/26/2021 1:15:00 PM 10.85 51.53 0.923 8.02 5.12 11.52
12/26/2021 1:30:00 PM 10.92 51.656 0.935 8.02 5.34 11.54
12/26/2021 1:45:00 PM 10.97 51.746 0.948 8.03 4.77 11.55
12/26/2021 2:00:00 PM 11 51.8 0.963 8.03 4.85 11.55
12/26/2021 2:15:00 PM 11.03 51.854 0.979 8.03 5.05 11.54
12/26/2021 2:30:00 PM 11.06 51.908 0.996 8.03 4.89 11.51
12/26/2021 2:45:00 PM 11.09 51.962 1.014 8.03 5.24 11.46
12/26/2021 3:00:00 PM 11.1 51.98 1.031 8.03 5.17 11.39
12/26/2021 3:15:00 PM 11.11 51.998 1.049 8.02 5.28 11.3
12/26/2021 3:30:00 PM 11.1 51.98 1.065 8.02 5.08 11.19
12/26/2021 3:45:00 PM 11.1 51.98 1.079 8.01 4.68 11.06
12/26/2021 4:00:00 PM 11.09 51.962 1.091 8 4.44 10.94
12/26/2021 4:15:00 PM 11.09 51.962 1.101 7.99 4.41 10.85
12/26/2021 4:30:00 PM 11.11 51.998 1.109 7.99 4.76 10.78
12/26/2021 4:45:00 PM 11.12 52.016 1.115 7.99 4.19 10.71
12/26/2021 5:00:00 PM 11.13 52.034 1.119 7.98 4.15 10.62
12/26/2021 5:15:00 PM 11.12 52.016 1.122 7.97 4.21 10.51
12/26/2021 5:30:00 PM 11.11 51.998 1.123 7.97 4.32 10.44
12/26/2021 5:45:00 PM 11.08 51.944 1.122 7.96 4.5 10.37
12/26/2021 6:00:00 PM 11.05 51.89 1.121 7.96 4.56 10.32
12/26/2021 6:15:00 PM 11.01 51.818 1.119 7.95 5.14 10.27
12/26/2021 6:30:00 PM 10.97 51.746 1.117 7.95 4.76 10.23
12/26/2021 6:45:00 PM 10.92 51.656 1.113 7.95 4.67 10.19
12/26/2021 7:00:00 PM 10.88 51.584 1.11 7.94 4.96 10.15
12/26/2021 7:15:00 PM 10.83 51.494 1.107 7.94 5.26 10.11
12/26/2021 7:30:00 PM 10.78 51.404 1.106 7.94 4.96 10.07
12/26/2021 7:45:00 PM 10.73 51.314 1.108 7.93 6.56 10.02
12/26/2021 8:00:00 PM 10.69 51.242 1.11 7.93 5.1 9.99
12/26/2021 8:15:00 PM 10.64 51.152 1.11 7.92 5.99 9.94
12/26/2021 8:30:00 PM 10.58 51.044 1.109 7.92 5.68 9.91
12/26/2021 8:45:00 PM 10.53 50.954 1.107 7.91 5.54 9.88
12/26/2021 9:00:00 PM 10.47 50.846 1.103 7.91 5.49 9.85
12/26/2021 9:15:00 PM 10.41 50.738 1.099 7.9 5.89 9.83
12/26/2021 9:30:00 PM 10.35 50.63 1.096 7.9 5.23 9.81
12/26/2021 9:45:00 PM 10.29 50.522 1.092 7.9 6.2 9.78
12/26/2021 10:00:00 PM 10.23 50.414 1.09 7.89 5.65 9.76
12/26/2021 10:15:00 PM 10.16 50.288 1.088 7.89 5.75 9.74
12/26/2021 10:30:00 PM 10.09 50.162 1.085 7.88 5.99 9.72
12/26/2021 10:45:00 PM 10.03 50.054 1.082 7.88 5.76 9.71
12/26/2021 11:00:00 PM 9.96 49.928 1.078 7.88 6.57 9.7
12/26/2021 11:15:00 PM 9.9 49.82 1.075 7.87 6.61 9.69
12/26/2021 11:30:00 PM 9.84 49.712 1.073 7.87 5.73 9.7
12/26/2021 11:45:00 PM 9.78 49.604 1.071 7.87 5.42 9.7
12/27/2021 12:00:00 AM 9.72 49.496 1.07 7.87 5.46 9.71
12/27/2021 12:15:00 AM 9.66 49.388 1.069 7.86 5.24 9.72
12/27/2021 12:30:00 AM 9.62 49.316 1.068 7.86 5.03 9.73
12/27/2021 12:45:00 AM 9.56 49.208 1.068 7.86 5.08 9.73
12/27/2021 1:00:00 AM 9.51 49.118 1.067 7.86 5.79 9.74
12/27/2021 1:15:00 AM 9.46 49.028 1.067 7.86 6.26 9.75
12/27/2021 1:30:00 AM 9.41 48.938 1.067 7.86 5.29 9.76
12/27/2021 1:45:00 AM 9.36 48.848 1.066 7.86 4.56 9.77
12/27/2021 2:00:00 AM 9.3 48.74 1.066 7.85 5.01 9.79
12/27/2021 2:15:00 AM 9.25 48.65 1.065 7.85 5.19 9.81
12/27/2021 2:30:00 AM 9.19 48.542 1.065 7.85 5.75 9.81
12/27/2021 2:45:00 AM 9.14 48.452 1.064 7.85 7.68 9.82
12/27/2021 3:00:00 AM 9.09 48.362 1.063 7.85 6.05 9.84
12/27/2021 3:15:00 AM 9.05 48.29 1.062 7.85 5.94 9.86
12/27/2021 3:30:00 AM 9.02 48.236 1.059 7.86 5.29 9.87
12/27/2021 3:45:00 AM 8.98 48.164 1.056 7.85 5.98 9.89
12/27/2021 4:00:00 AM 8.95 48.11 1.052 7.85 5.61 9.9
12/27/2021 4:15:00 AM 8.92 48.056 1.048 7.85 5.19 9.91
12/27/2021 4:30:00 AM 8.89 48.002 1.043 7.85 5.27 9.93
12/27/2021 4:45:00 AM 8.86 47.948 1.037 7.85 4.81 9.94
12/27/2021 5:00:00 AM 8.84 47.912 1.032 7.86 5.36 9.96
12/27/2021 5:15:00 AM 8.81 47.858 1.027 7.86 5.85 9.97
12/27/2021 5:30:00 AM 8.78 47.804 1.022 7.86 5.8 9.99
12/27/2021 5:45:00 AM 8.76 47.768 1.017 7.86 5.98 10
12/27/2021 6:00:00 AM 8.74 47.732 1.013 7.86 5.69 10.01
12/27/2021 6:15:00 AM 8.72 47.696 1.008 7.86 5.19 10.03
12/27/2021 6:30:00 AM 8.7 47.66 1.004 7.86 5.47 10.03
12/27/2021 6:45:00 AM 8.68 47.624 1 7.86 5.54 10.04
12/27/2021 7:00:00 AM 8.67 47.606 0.996 7.86 5.04 10.05
12/27/2021 7:15:00 AM 8.65 47.57 0.934 7.86 5.1 10.06
12/27/2021 7:30:00 AM 8.64 47.552 0.989 7.86 4.93 10.08
12/27/2021 7:45:00 AM 8.63 47.534 0.985 7.86 4.94 10.09
12/27/2021 8:00:00 AM 8.62 47.516 0.981 7.87 4.81 10.11
12/27/2021 8:15:00 AM 8.61 47.498 0.977 7.87 5.03 10.16
12/27/2021 8:30:00 AM 8.61 47.498 0.972 7.87 6.01 10.2
12/27/2021 8:45:00 AM 8.6 47.48 0.968 7.88 5.34 10.23
12/27/2021 9:00:00 AM 8.6 47.48 0.963 7.88 5.14 10.27
12/27/2021 9:15:00 AM 8.61 47.498 0.958 7.89 5.07 10.37
12/27/2021 9:30:00 AM 8.64 47.552 0.953 7.9 5.06 10.55
12/27/2021 9:45:00 AM 8.68 47.624 0.949 7.92 5.39 10.76
12/27/2021 10:00:00 AM 8.72 47.696 0.946 7.93 5.07 10.87
12/27/2021 10:15:00 AM 8.75 47.75 0.945 7.93 5.31 10.8
12/27/2021 10:30:00 AM 8.79 47.822 0.943 7.93 5.41 10.74
12/27/2021 10:45:00 AM 8.81 47.858 0.94 7.92 5.11 10.67
12/27/2021 11:00:00 AM 8.84 47.912 0.937 7.92 5.03 10.67
12/27/2021 11:15:00 AM 8.84 47.912 0.933 7.93 5.45 10.73
12/27/2021 11:30:00 AM 8.78 47.804 0.929 7.93 7.23 10.76
12/27/2021 11:45:00 AM 8.78 47.804 0.925 7.94 7.2 10.82
12/27/2021 12:00:00 PM 8.76 47.768 0.921 7.94 7.29 10.83
12/27/2021 12:15:00 PM 8.7 47.66 0.918 7.95 7.59 10.88
12/27/2021 12:30:00 PM 8.7 47.66 0.916 7.95 7.99 10.96
12/27/2021 12:45:00 PM 8.72 47.696 0.915 7.96 8.19 11.04
12/27/2021 1:00:00 PM 8.74 47.732 0.916 7.96 7.25 11.1
12/27/2021 1:15:00 PM 8.78 47.804 0.92 7.97 6.68 11.13
12/27/2021 1:30:00 PM 8.83 47.894 0.927 7.97 7.22 11.14
12/27/2021 1:45:00 PM 8.89 48.002 0.937 7.97 6.05 11.16
12/27/2021 2:00:00 PM 8.96 48.128 0.949 7.98 6.56 11.16
12/27/2021 2:15:00 PM 9.02 48.236 0.962 7.98 6.65 11.12
12/27/2021 2:30:00 PM 9.09 48.362 0.974 7.97 6.22 11.09
12/27/2021 2:45:00 PM 9.14 48.452 0.985 7.97 6.03 11.07
12/27/2021 3:00:00 PM 9.2 48.56 0.995 7.97 5.7 11.08
12/27/2021 3:15:00 PM 9.24 48.632 1.004 7.97 5.06 11.05
12/27/2021 3:30:00 PM 9.28 48.704 1.011 7.97 5.53 10.97
12/27/2021 3:45:00 PM 9.32 48.776 1.02 7.97 5.12 10.93
12/27/2021 4:00:00 PM 9.35 48.83 1.029 7.96 4.99 10.86
12/27/2021 4:15:00 PM 9.37 48.866 1.038 7.95 5.15 10.78
12/27/2021 4:30:00 PM 9.4 48.92 1.048 7.95 5.05 10.72
12/27/2021 4:45:00 PM 9.42 48.956 1.057 7.94 4.79 10.65
12/27/2021 5:00:00 PM 9.45 49.01 1.066 7.94 4.98 10.58
12/27/2021 5:15:00 PM 9.48 49.064 1.075 7.93 5.54 10.53
12/27/2021 5:30:00 PM 9.51 49.118 1.082 7.93 7.75 10.47
12/27/2021 5:45:00 PM 9.54 49.172 1.088 7.92 8.26 10.44
12/27/2021 6:00:00 PM 9.56 49.208 1.091 7.92 5.45 10.4
12/27/2021 6:15:00 PM 9.58 49.244 1.092 7.92 5.21 10.35
12/27/2021 6:30:00 PM 9.6 49.28 1.092 7.92 5.69 10.32
12/27/2021 6:45:00 PM 9.61 49.298 1.093 7.91 5.28 10.28
12/27/2021 7:00:00 PM 9.62 49.316 1.096 7.91 5.29 10.24
12/27/2021 7:15:00 PM 9.63 49.334 1.1 7.91 5.33 10.2
12/27/2021 7:30:00 PM 9.64 49.352 1.103 7.9 5.01 10.16
12/27/2021 7:45:00 PM 9.65 49.37 1.104 7.9 5.25 10.12
12/27/2021 8:00:00 PM 9.66 49.388 1.103 7.9 5.54 10.09
12/27/2021 8:15:00 PM 9.65 49.37 1.101 7.89 6.39 10.06
12/27/2021 8:30:00 PM 9.65 49.37 1.098 7.89 4.9 10.02
12/27/2021 8:45:00 PM 9.64 49.352 1.096 7.89 5.23 9.99
12/27/2021 9:00:00 PM 9.64 49.352 1.094 7.88 5.31 9.95
12/27/2021 9:15:00 PM 9.63 49.334 1.091 7.88 4.72 9.92
12/27/2021 9:30:00 PM 9.62 49.316 1.088 7.87 5.17 9.89
12/27/2021 9:45:00 PM 9.61 49.298 1.084 7.87 5.08 9.87
12/27/2021 10:00:00 PM 9.6 49.28 1.08 7.87 5.7 9.84
12/27/2021 10:15:00 PM 9.59 49.262 1.078 7.86 4.91 9.82
12/27/2021 10:30:00 PM 9.58 49.244 1.074 7.86 4.88 9.8
12/27/2021 10:45:00 PM 9.57 49.226 1.072 7.85 5.19 9.79
12/27/2021 11:00:00 PM 9.57 49.226 1.071 7.85 5.48 9.76
12/27/2021 11:15:00 PM 9.56 49.208 1.071 7.84 5.84 9.74
12/27/2021 11:30:00 PM 9.56 49.208 1.071 7.84 5.45 9.72
12/27/2021 11:45:00 PM 9.56 49.208 1.072 7.83 6.57 9.7
12/28/2021 12:00:00 AM 9.56 49.208 1.073 7.82 6.83 9.69
12/28/2021 12:15:00 AM 9.56 49.208 1.073 7.82 5.75 9.67
12/28/2021 12:30:00 AM 9.55 49.19 1.074 7.81 5.84 9.66
12/28/2021 12:45:00 AM 9.54 49.172 1.075 7.81 6.02 9.66
12/28/2021 1:00:00 AM 9.55 49.19 1.078 7.81 6.27 9.65
12/28/2021 1:15:00 AM 9.55 49.19 1.079 7.81 6.11 9.64
12/28/2021 1:30:00 AM 9.55 49.19 1.081 7.8 6.08 9.64
12/28/2021 1:45:00 AM 9.54 49.172 1.082 7.8 5.86 9.64
12/28/2021 2:00:00 AM 9.53 49.154 1.083 7.8 5.4 9.64
12/28/2021 2:15:00 AM 9.53 49.154 1.085 7.8 6.13 9.64
12/28/2021 2:30:00 AM 9.53 49.154 1.086 7.81 6.08 9.64
12/28/2021 2:45:00 AM 9.53 49.154 1.086 7.81 5.49 9.65
12/28/2021 3:00:00 AM 9.52 49.136 1.085 7.81 4.84 9.65
12/28/2021 3:15:00 AM 9.52 49.136 1.084 7.81 5.01 9.65
12/28/2021 3:30:00 AM 9.52 49.136 1.084 7.81 5.58 9.65
12/28/2021 3:45:00 AM 9.53 49.154 1.085 7.81 5.85 9.66
12/28/2021 4:00:00 AM 9.53 49.154 1.085 7.81 5.05 9.65
12/28/2021 4:15:00 AM 9.52 49.136 1.086 7.81 5.43 9.66
12/28/2021 4:30:00 AM 9.5 49.1 1.085 7.81 5.74 9.65
12/28/2021 4:45:00 AM 9.47 49.046 1.082 7.81 4.92 9.66
12/28/2021 5:00:00 AM 9.44 48.992 1.078 7.82 5.59 9.67
12/28/2021 5:15:00 AM 9.4 48.92 1.074 7.82 5.9 9.67
12/28/2021 5:30:00 AM 9.36 48.848 1.069 7.82 6.24 9.68
12/28/2021 5:45:00 AM 9.32 48.776 1.064 7.82 5.86 9.7
12/28/2021 6:00:00 AM 9.29 48.722 1.058 7.82 5.89 9.72
12/28/2021 6:15:00 AM 9.25 48.65 1.05 7.82 5.61 9.73
12/28/2021 6:30:00 AM 9.22 48.596 1.042 7.83 5.86 9.74
12/28/2021 6:45:00 AM 9.19 48.542 1.034 7.83 5.72 9.76
12/28/2021 7:00:00 AM 9.17 48.506 1.026 7.83 5.73 9.74
12/28/2021 7:15:00 AM 9.14 48.452 1.016 7.83 5.63 9.76
12/28/2021 7:30:00 AM 9.11 48.398 1.006 7.83 5.33 9.81
12/28/2021 7:45:00 AM 9.09 48.362 0.995 7.84 6.03 9.86
12/28/2021 8:00:00 AM 9.07 48.326 0.985 7.84 5.69 9.91
12/28/2021 8:15:00 AM 9.05 48.29 0.976 7.85 5.63 9.99
12/28/2021 8:30:00 AM 9.04 48.272 0.967 7.86 5.57 10.09
12/28/2021 8:45:00 AM 9.04 48.272 0.959 7.87 6.41 10.21
12/28/2021 9:00:00 AM 9.02 48.236 0.952 7.88 6.11 10.32
12/28/2021 9:15:00 AM 9 48.2 0.947 7.88 6.39 10.35
12/28/2021 9:30:00 AM 8.99 48.182 0.945 7.88 7.12 10.38
12/28/2021 9:45:00 AM 8.98 48.164 0.944 7.89 6.28 10.44
12/28/2021 10:00:00 AM 9.01 48.218 0.945 7.9 6.62 10.62
12/28/2021 10:15:00 AM 9.04 48.272 0.945 7.91 6.29 10.78
12/28/2021 10:30:00 AM 9.08 48.344 0.945 7.91 6.75 10.87
12/28/2021 10:45:00 AM 9.13 48.434 0.945 7.92 6.11 10.89
12/28/2021 11:00:00 AM 9.17 48.506 0.943 7.92 6.01 10.88
12/28/2021 11:15:00 AM 9.21 48.578 0.943 7.92 5.86 10.86
12/28/2021 11:30:00 AM 9.24 48.632 0.943 7.92 5.7 10.85
12/28/2021 11:45:00 AM 9.26 48.668 0.943 7.92 5.44 10.83
12/28/2021 12:00:00 PM 9.3 48.74 0.945 7.92 5.7 10.85
12/28/2021 12:15:00 PM 9.33 48.794 0.947 7.92 5.6 10.9
12/28/2021 12:30:00 PM 9.37 48.866 0.951 7.93 5.64 10.95
12/28/2021 12:45:00 PM 9.41 48.938 0.957 7.93 5.35 11.02
12/28/2021 1:00:00 PM 9.48 49.064 0.967 7.94 6.13 11.1
12/28/2021 1:15:00 PM 9.54 49.172 0.98 7.95 6.47 11.13
12/28/2021 1:30:00 PM 9.6 49.28 0.996 7.95 5.7 11.08
12/28/2021 1:45:00 PM 9.66 49.388 1.013 7.94 5.8 11
12/28/2021 2:00:00 PM 9.73 49.514 1.031 7.94 5.55 10.96
12/28/2021 2:15:00 PM 9.79 49.622 1.047 7.94 5.67 10.93
12/28/2021 2:30:00 PM 9.85 49.73 1.062 7.94 5.88 10.94
12/28/2021 2:45:00 PM 9.92 49.856 1.075 7.94 5.48 10.92
12/28/2021 3:00:00 PM 9.98 49.964 1.089 7.94 6.14 10.87
12/28/2021 3:15:00 PM 10.05 50.09 1.102 7.94 6 10.81
12/28/2021 3:30:00 PM 10.1 50.18 1.115 7.94 5.7 10.75
12/28/2021 3:45:00 PM 10.16 50.288 1.128 7.94 5.45 10.7
12/28/2021 4:00:00 PM 10.2 50.36 1.141 7.94 4.99 10.64
12/28/2021 4:15:00 PM 10.25 50.45 1.153 7.93 7.21 10.55
12/28/2021 4:30:00 PM 10.28 50.504 1.166 7.92 5.65 10.47
12/28/2021 4:45:00 PM 10.31 50.558 1.177 7.92 7.37 10.4
12/28/2021 5:00:00 PM 10.34 50.612 1.189 7.92 5.22 10.33
12/28/2021 5:15:00 PM 10.37 50.666 1.201 7.91 5.54 10.26
12/28/2021 5:30:00 PM 10.39 50.702 1.217 7.91 5.28 10.19
12/28/2021 5:45:00 PM 10.42 50.756 1.233 7.9 5.62 10.12
12/28/2021 6:00:00 PM 10.45 50.81 1.251 7.9 6.33 10.06
12/28/2021 6:15:00 PM 10.47 50.846 1.266 7.89 5.74 10
12/28/2021 6:30:00 PM 10.5 50.9 1.279 7.89 5.58 9.94
12/28/2021 6:45:00 PM 10.53 50.954 1.289 7.88 5.26 9.89
12/28/2021 7:00:00 PM 10.55 50.99 1.297 7.88 5.99 9.84
12/28/2021 7:15:00 PM 10.56 51.008 1.302 7.88 5.28 9.79
12/28/2021 7:30:00 PM 10.58 51.044 1.304 7.87 4.99 9.75
12/28/2021 7:45:00 PM 10.59 51.062 1.305 7.87 5.35 9.71
12/28/2021 8:00:00 PM 10.59 51.062 1.303 7.86 5.4 9.67
12/28/2021 8:15:00 PM 10.59 51.062 1.298 7.86 5.4 9.64
12/28/2021 8:30:00 PM 10.59 51.062 1.288 7.86 4.99 9.61
12/28/2021 8:45:00 PM 10.58 51.044 1.276 7.86 4.97 9.59
12/28/2021 9:00:00 PM 10.56 51.008 1.263 7.86 4.87 9.57
12/28/2021 9:15:00 PM 10.56 51.008 1.253 7.85 5.42 9.55
12/28/2021 9:30:00 PM 10.55 50.99 1.246 7.85 5.15 9.52
12/28/2021 9:45:00 PM 10.54 50.972 1.242 7.85 4.98 9.5
12/28/2021 10:00:00 PM 10.52 50.936 1.241 7.85 4.94 9.47
12/28/2021 10:15:00 PM 10.52 50.936 1.241 7.84 4.71 9.47
12/28/2021 10:30:00 PM 10.51 50.918 1.243 7.84 5.04 9.46
12/28/2021 10:45:00 PM 10.52 50.936 1.245 7.84 4.84 9.45
12/28/2021 11:00:00 PM 10.52 50.936 1.246 7.84 4.92 9.43
12/28/2021 11:15:00 PM 10.52 50.936 1.246 7.84 5.41 9.42
12/28/2021 11:30:00 PM 10.52 50.936 1.244 7.84 5.45 9.42
12/28/2021 11:45:00 PM 10.51 50.918 1.242 7.84 4.88 9.41
12/29/2021 12:00:00 AM 10.51 50.918 1.24 7.84 4.89 9.41
12/29/2021 12:15:00 AM 10.51 50.918 1.239 7.83 4.7 9.41
12/29/2021 12:30:00 AM 10.51 50.918 1.24 7.83 4.77 9.4
12/29/2021 12:45:00 AM 10.5 50.9 1.24 7.83 5.58 9.4
12/29/2021 1:00:00 AM 10.5 50.9 1.242 7.83 5.24 9.39
12/29/2021 1:15:00 AM 10.5 50.9 1.244 7.83 5.1 9.39
12/29/2021 1:30:00 AM 10.5 50.9 1.246 7.83 5.32 9.39
12/29/2021 1:45:00 AM 10.5 50.9 1.248 7.83 5.17 9.39
12/29/2021 2:00:00 AM 10.5 50.9 1.249 7.83 5.05 9.38
12/29/2021 2:15:00 AM 10.5 50.9 1.249 7.83 5.67 9.38
12/29/2021 2:30:00 AM 10.49 50.882 1.247 7.83 5.57 9.39
12/29/2021 2:45:00 AM 10.48 50.864 1.245 7.83 4.81 9.39
12/29/2021 3:00:00 AM 10.47 50.846 1.243 7.83 4.91 9.39
12/29/2021 3:15:00 AM 10.48 50.864 1.241 7.83 4.86 9.39
12/29/2021 3:30:00 AM 10.48 50.864 1.238 7.84 4.63 9.39
12/29/2021 3:45:00 AM 10.47 50.846 1.235 7.83 4.68 9.39
12/29/2021 4:00:00 AM 10.46 50.828 1.231 7.83 4.54 9.39
12/29/2021 4:15:00 AM 10.46 50.828 1.227 7.84 4.76 9.4
12/29/2021 4:30:00 AM 10.45 50.81 1.223 7.84 4.96 9.4
12/29/2021 4:45:00 AM 10.44 50.792 1.219 7.84 4.89 9.41
12/29/2021 5:00:00 AM 10.44 50.792 1.215 7.84 5.78 9.41
12/29/2021 5:15:00 AM 10.42 50.756 1.21 7.84 5.92 9.42
12/29/2021 5:30:00 AM 10.41 50.738 1.205 7.84 5.73 9.42
12/29/2021 5:45:00 AM 10.4 50.72 1.199 7.84 5.9 9.43
12/29/2021 6:00:00 AM 10.39 50.702 1.191 7.84 5.15 9.44
12/29/2021 6:15:00 AM 10.36 50.648 1.182 7.84 4.91 9.45
12/29/2021 6:30:00 AM 10.34 50.612 1.172 7.84 5.38 9.47
12/29/2021 6:45:00 AM 10.31 50.558 1.161 7.85 5.02 9.48
12/29/2021 7:00:00 AM 10.29 50.522 1.15 7.85 5.08 9.5
12/29/2021 7:15:00 AM 10.26 50.468 1.139 7.84 5.39 9.51
12/29/2021 7:30:00 AM 10.24 50.432 1.129 7.85 5.06 9.53
12/29/2021 7:45:00 AM 10.22 50.396 1.117 7.85 4.89 9.56
12/29/2021 8:00:00 AM 10.2 50.36 1.106 7.86 5.02 9.59
12/29/2021 8:15:00 AM 10.19 50.342 1.095 7.86 5.65 9.69
12/29/2021 8:30:00 AM 10.19 50.342 1.085 7.87 5.87 9.84
12/29/2021 8:45:00 AM 10.19 50.342 1.077 7.88 6.37 9.95
12/29/2021 9:00:00 AM 10.2 50.36 1.07 7.89 6.17 10.02
12/29/2021 9:15:00 AM 10.21 50.378 1.066 7.9 6.16 10.05
12/29/2021 9:30:00 AM 10.23 50.414 1.064 7.9 5.94 10.08
12/29/2021 9:45:00 AM 10.26 50.468 1.064 7.91 6.14 10.19
12/29/2021 10:00:00 AM 10.3 50.54 1.066 7.92 6.01 10.33
12/29/2021 10:15:00 AM 10.34 50.612 1.069 7.92 5.52 10.37
12/29/2021 10:30:00 AM 10.39 50.702 1.071 7.93 5.69 10.43
12/29/2021 10:45:00 AM 10.43 50.774 1.07 7.94 5.53 10.51
12/29/2021 11:00:00 AM 10.49 50.882 1.067 7.94 6 10.6
12/29/2021 11:15:00 AM 10.55 50.99 1.062 7.96 5.59 10.76
12/29/2021 11:30:00 AM 10.62 51.116 1.057 7.97 5.5 10.9
12/29/2021 11:45:00 AM 10.68 51.224 1.051 7.98 5.8 10.95
12/29/2021 12:00:00 PM 10.74 51.332 1.045 7.99 5.91 11
12/29/2021 12:15:00 PM 10.82 51.476 1.041 8 5.73 11.14
12/29/2021 12:30:00 PM 10.9 51.62 1.04 8.01 5.72 11.23
12/29/2021 12:45:00 PM 10.98 51.764 1.045 8.02 5.53 11.31
12/29/2021 1:00:00 PM 11.08 51.944 1.056 8.03 5.5 11.38
12/29/2021 1:15:00 PM 11.17 52.106 1.074 8.04 5.27 11.43
12/29/2021 1:30:00 PM 11.24 52.232 1.096 8.04 5.51 11.39
12/29/2021 1:45:00 PM 11.3 52.34 1.121 8.04 5.76 11.37
12/29/2021 2:00:00 PM 11.38 52.484 1.147 8.04 6.07 11.38
12/29/2021 2:15:00 PM 11.48 52.664 1.175 8.04 5.98 11.43
12/29/2021 2:30:00 PM 11.54 52.772 1.203 8.05 5.67 11.47
12/29/2021 2:45:00 PM 11.58 52.844 1.231 8.04 5.38 11.4
12/29/2021 3:00:00 PM 11.63 52.934 1.255 8.04 5.44 11.33
12/29/2021 3:15:00 PM 11.69 53.042 1.273 8.04 5.48 11.3
12/29/2021 3:30:00 PM 11.76 53.168 1.283 8.04 6.24 11.25
12/29/2021 3:45:00 PM 11.8 53.24 1.289 8.03 6.09 11.13
12/29/2021 4:00:00 PM 11.83 53.294 1.293 8.03 6.05 11.04
12/29/2021 4:15:00 PM 11.86 53.348 1.295 8.02 5.61 10.93
12/29/2021 4:30:00 PM 11.86 53.348 1.298 8.01 5.58 10.81
12/29/2021 4:45:00 PM 11.85 53.33 1.301 8.01 5.73 10.69
12/29/2021 5:00:00 PM 11.84 53.312 1.308 8 6 10.58
12/29/2021 5:15:00 PM 11.83 53.294 1.32 7.99 7.27 10.49
12/29/2021 5:30:00 PM 11.84 53.312 1.337 7.98 6.58 10.42
12/29/2021 5:45:00 PM 11.85 53.33 1.356 7.98 8.91 10.34
12/29/2021 6:00:00 PM 11.86 53.348 1.375 7.97 6.49 10.26
12/29/2021 6:15:00 PM 11.87 53.366 1.389 7.96 5.89 10.19
12/29/2021 6:30:00 PM 11.88 53.384 1.401 7.96 5.7 10.12
12/29/2021 6:45:00 PM 11.89 53.402 1.409 7.95 5.8 10.06
12/29/2021 7:00:00 PM 11.89 53.402 1.414 7.94 5.96 9.99
12/29/2021 7:15:00 PM 11.89 53.402 1.417 7.94 6.39 9.93
12/29/2021 7:30:00 PM 11.88 53.384 1.419 7.93 5.76 9.87
12/29/2021 7:45:00 PM 11.87 53.366 1.418 7.93 6.15 9.81
12/29/2021 8:00:00 PM 11.85 53.33 1.414 7.92 5.75 9.75
12/29/2021 8:15:00 PM 11.83 53.294 1.406 7.91 5.64 9.69
12/29/2021 8:30:00 PM 11.8 53.24 1.392 7.91 5.79 9.64
12/29/2021 8:45:00 PM 11.76 53.168 1.376 7.9 5.39 9.59
12/29/2021 9:00:00 PM 11.72 53.096 1.359 7.9 5.88 9.54
12/29/2021 9:15:00 PM 11.68 53.024 1.344 7.89 6.32 9.5
12/29/2021 9:30:00 PM 11.63 52.934 1.331 7.88 6.16 9.46
12/29/2021 9:45:00 PM 11.59 52.862 1.321 7.88 5.94 9.42
12/29/2021 10:00:00 PM 11.56 52.808 1.315 7.87 5.83 9.39
12/29/2021 10:15:00 PM 11.53 52.754 1.313 7.87 6.4 9.35
12/29/2021 10:30:00 PM 11.5 52.7 1.313 7.86 6.44 9.31
12/29/2021 10:45:00 PM 11.48 52.664 1.316 7.85 5.47 9.28
12/29/2021 11:00:00 PM 11.46 52.628 1.319 7.85 5.88 9.25
12/29/2021 11:15:00 PM 11.45 52.61 1.322 7.84 6.45 9.23
12/29/2021 11:30:00 PM 11.44 52.592 1.325 7.84 5.67 9.21
12/29/2021 11:45:00 PM 11.44 52.592 1.327 7.84 5.78 9.2
12/30/2021 12:00:00 AM 11.43 52.574 1.327 7.83 5.77 9.19
12/30/2021 12:15:00 AM 11.43 52.574 1.326 7.83 5.81 9.18
12/30/2021 12:30:00 AM 11.42 52.556 1.323 7.83 5.61 9.18
12/30/2021 12:45:00 AM 11.41 52.538 1.321 7.83 5.75 9.18
12/30/2021 1:00:00 AM 11.4 52.52 1.319 7.83 5.83 9.19
12/30/2021 1:15:00 AM 11.39 52.502 1.32 7.83 5.63 9.19
12/30/2021 1:30:00 AM 11.38 52.484 1.321 7.83 5.48 9.2
12/30/2021 1:45:00 AM 11.37 52.466 1.323 7.82 5.35 9.19
12/30/2021 2:00:00 AM 11.36 52.448 1.323 7.82 6.23 9.19
12/30/2021 2:15:00 AM 11.35 52.43 1.322 7.82 5.44 9.19
12/30/2021 2:30:00 AM 11.34 52.412 1.319 7.82 6.03 9.19
12/30/2021 2:45:00 AM 11.33 52.394 1.316 7.82 5.78 9.19
12/30/2021 3:00:00 AM 11.31 52.358 1.312 7.82 5.77 9.19
12/30/2021 3:15:00 AM 11.3 52.34 1.308 7.82 5.87 9.19
12/30/2021 3:30:00 AM 11.29 52.322 1.304 7.81 5.51 9.19
12/30/2021 3:45:00 AM 11.28 52.304 1.298 7.81 5.97 9.19
12/30/2021 4:00:00 AM 11.27 52.286 1.293 7.81 5.73 9.19
12/30/2021 4:15:00 AM 11.26 52.268 1.287 7.81 5.76 9.19
12/30/2021 4:30:00 AM 11.26 52.268 1.281 7.81 5.86 9.18
12/30/2021 4:45:00 AM 11.25 52.25 1.275 7.81 5.88 9.19
12/30/2021 5:00:00 AM 11.25 52.25 1.268 7.81 6.07 9.18
12/30/2021 5:15:00 AM 11.25 52.25 1.259 7.81 6.57 9.18
12/30/2021 5:30:00 AM 11.25 52.25 1.249 7.81 6.47 9.19
12/30/2021 5:45:00 AM 11.25 52.25 1.237 7.81 6.78 9.19
12/30/2021 6:00:00 AM 11.24 52.232 1.226 7.81 6.74 9.2
12/30/2021 6:15:00 AM 11.24 52.232 1.216 7.81 6.98 9.21
12/30/2021 6:30:00 AM 11.23 52.214 1.204 7.81 6.79 9.21
12/30/2021 6:45:00 AM 11.22 52.196 1.19 7.81 6.58 9.23
12/30/2021 7:00:00 AM 11.21 52.178 1.177 7.82 7.15 9.24
12/30/2021 7:15:00 AM 11.2 52.16 1.161 7.82 7.08 9.26
12/30/2021 7:30:00 AM 11.18 52.124 1.147 7.82 6.97 9.27
12/30/2021 7:45:00 AM 11.16 52.088 1.133 7.82 6.31 9.3
12/30/2021 8:00:00 AM 11.15 52.07 1.119 7.82 7.14 9.33
12/30/2021 8:15:00 AM 11.14 52.052 1.106 7.83 6.76 9.39
12/30/2021 8:30:00 AM 11.13 52.034 1.095 7.84 7.91 9.48
12/30/2021 8:45:00 AM 11.13 52.034 1.085 7.84 8.11 9.57
12/30/2021 9:00:00 AM 11.13 52.034 1.078 7.85 8.33 9.65
12/30/2021 9:15:00 AM 11.15 52.07 1.071 7.86 8.5 9.73
12/30/2021 9:30:00 AM 11.17 52.106 1.068 7.87 7.86 9.84
12/30/2021 9:45:00 AM 11.2 52.16 1.066 7.88 7.66 9.99
12/30/2021 10:00:00 AM 11.23 52.214 1.066 7.89 7.61 10.07
12/30/2021 10:15:00 AM 11.26 52.268 1.068 7.89 7.24 10.06
12/30/2021 10:30:00 AM 11.29 52.322 1.068 7.88 6.78 10.02
12/30/2021 10:45:00 AM 11.33 52.394 1.067 7.89 6.96 10.15
12/30/2021 11:00:00 AM 11.38 52.484 1.065 7.9 6.91 10.31
12/30/2021 11:15:00 AM 11.42 52.556 1.06 7.9 7.59 10.39
12/30/2021 11:30:00 AM 11.46 52.628 1.054 7.9 7.12 10.4
12/30/2021 11:45:00 AM 11.51 52.718 1.046 7.9 7.78 10.47
12/30/2021 12:00:00 PM 11.56 52.808 1.037 7.9 7.76 10.53
12/30/2021 12:15:00 PM 11.63 52.934 1.03 7.9 7.95 10.64
12/30/2021 12:30:00 PM 11.69 53.042 1.028 7.9 7.91 10.69
12/30/2021 12:45:00 PM 11.73 53.114 1.032 7.9 7.5 10.66
12/30/2021 1:00:00 PM 11.78 53.204 1.042 7.9 8.12 10.64
12/30/2021 1:15:00 PM 11.84 53.312 1.06 7.9 7.86 10.62
12/30/2021 1:30:00 PM 11.92 53.456 1.086 7.91 8.2 10.69
12/30/2021 1:45:00 PM 11.99 53.582 1.117 7.91 7.83 10.73
12/30/2021 2:00:00 PM 12.07 53.726 1.151 7.91 7.26 10.69
12/30/2021 2:15:00 PM 12.14 53.852 1.184 7.91 6.96 10.61
12/30/2021 2:30:00 PM 12.22 53.996 1.215 7.91 7.11 10.56
12/30/2021 2:45:00 PM 12.29 54.122 1.244 7.91 7.42 10.51
12/30/2021 3:00:00 PM 12.36 54.248 1.274 7.91 7.47 10.46
12/30/2021 3:15:00 PM 12.43 54.374 1.304 7.91 7.11 10.37
12/30/2021 3:30:00 PM 12.49 54.482 1.333 7.91 7.69 10.29
12/30/2021 3:45:00 PM 12.56 54.608 1.359 7.91 7.53 10.24
12/30/2021 4:00:00 PM 12.62 54.716 1.384 7.91 7.64 10.2
12/30/2021 4:15:00 PM 12.67 54.806 1.404 7.9 7.89 10.13
12/30/2021 4:30:00 PM 12.72 54.896 1.422 7.9 8.34 10.05
12/30/2021 4:45:00 PM 12.77 54.986 1.435 7.9 8.15 9.95
12/30/2021 5:00:00 PM 12.8 55.04 1.444 7.89 9.3 9.86
12/30/2021 5:15:00 PM 12.81 55.058 1.453 7.89 9.14 9.77
12/30/2021 5:30:00 PM 12.83 55.094 1.459 7.88 9.3 9.69
12/30/2021 5:45:00 PM 12.84 55.112 1.465 7.88 9.23 9.61
12/30/2021 6:00:00 PM 12.84 55.112 1.47 7.87 7.29 9.54
12/30/2021 6:15:00 PM 12.84 55.112 1.474 7.87 7.51 9.48
12/30/2021 6:30:00 PM 12.84 55.112 1.473 7.86 6.53 9.42
12/30/2021 6:45:00 PM 12.83 55.094 1.466 7.86 6.63 9.35
12/30/2021 7:00:00 PM 12.82 55.076 1.453 7.86 6.34 9.3
12/30/2021 7:15:00 PM 12.8 55.04 1.436 7.85 6.48 9.26
12/30/2021 7:30:00 PM 12.77 54.986 1.418 7.85 6.41 9.22
12/30/2021 7:45:00 PM 12.75 54.95 1.403 7.85 6.04 9.18
12/30/2021 8:00:00 PM 12.72 54.896 1.397 7.84 6.56 9.14
12/30/2021 8:15:00 PM 12.7 54.86 1.397 7.84 6.1 9.11
12/30/2021 8:30:00 PM 12.69 54.842 1.401 7.84 6.21 9.07
12/30/2021 8:45:00 PM 12.67 54.806 1.403 7.83 6.42 9.04
12/30/2021 9:00:00 PM 12.66 54.788 1.399 7.83 6.37 9.01
12/30/2021 9:15:00 PM 12.64 54.752 1.388 7.83 6.47 8.99
12/30/2021 9:30:00 PM 12.62 54.716 1.371 7.82 6.68 8.97
12/30/2021 9:45:00 PM 12.59 54.662 1.352 7.82 6.53 8.97
12/30/2021 10:00:00 PM 12.56 54.608 1.334 7.82 6.52 8.96
12/30/2021 10:15:00 PM 12.53 54.554 1.32 7.82 5.92 8.95
12/30/2021 10:30:00 PM 12.51 54.518 1.31 7.82 6.01 8.95
12/30/2021 10:45:00 PM 12.49 54.482 1.304 7.82 5.99 8.93
12/30/2021 11:00:00 PM 12.47 54.446 1.299 7.82 5.72 8.93
12/30/2021 11:15:00 PM 12.45 54.41 1.295 7.82 5.86 8.92
12/30/2021 11:30:00 PM 12.43 54.374 1.293 7.82 5.92 8.92
12/30/2021 11:45:00 PM 12.41 54.338 1.292 7.82 5.93 8.91
12/31/2021 12:00:00 AM 12.4 54.32 1.292 7.82 5.93 8.91
12/31/2021 12:15:00 AM 12.38 54.284 1.294 7.82 6.06 8.91
12/31/2021 12:30:00 AM 12.36 54.248 1.295 7.81 6.12 8.9
12/31/2021 12:45:00 AM 12.35 54.23 1.297 7.81 5.53 8.9
12/31/2021 1:00:00 AM 12.33 54.194 1.3 7.81 5.95 8.9
12/31/2021 1:15:00 AM 12.31 54.158 1.302 7.81 5.69 8.9
12/31/2021 1:30:00 AM 12.3 54.14 1.304 7.81 5.84 8.9
12/31/2021 1:45:00 AM 12.29 54.122 1.306 7.81 5.89 8.9
12/31/2021 2:00:00 AM 12.28 54.104 1.306 7.81 6.04 8.9
12/31/2021 2:15:00 AM 12.27 54.086 1.304 7.81 5.93 8.91
12/31/2021 2:30:00 AM 12.25 54.05 1.302 7.81 5.66 8.91
12/31/2021 2:45:00 AM 12.24 54.032 1.298 7.81 5.78 8.92
12/31/2021 3:00:00 AM 12.23 54.014 1.294 7.81 6.17 8.91
12/31/2021 3:15:00 AM 12.22 53.996 1.29 7.81 6.16 8.92
12/31/2021 3:30:00 AM 12.2 53.96 1.285 7.81 6.38 8.92
12/31/2021 3:45:00 AM 12.19 53.942 1.279 7.81 6.6 8.93
12/31/2021 4:00:00 AM 12.17 53.906 1.273 7.81 6.96 8.94
12/31/2021 4:15:00 AM 12.15 53.87 1.268 7.81 7.32 8.94
12/31/2021 4:30:00 AM 12.14 53.852 1.262 7.81 7.19 8.95
12/31/2021 4:45:00 AM 12.12 53.816 1.257 7.82 7.93 8.95
12/31/2021 5:00:00 AM 12.1 53.78 1.251 7.82 8 8.96
12/31/2021 5:15:00 AM 12.09 53.762 1.246 7.82 7.72 8.96
12/31/2021 5:30:00 AM 12.07 53.726 1.24 7.81 7.74 8.97
12/31/2021 5:45:00 AM 12.06 53.708 1.233 7.82 7.94 8.98
12/31/2021 6:00:00 AM 12.04 53.672 1.225 7.82 8.16 8.99
12/31/2021 6:15:00 AM 12.02 53.636 1.216 7.82 8.31 9
12/31/2021 6:30:00 AM 12 53.6 1.205 7.82 8.72 9.01
12/31/2021 6:45:00 AM 11.97 53.546 1.195 7.82 8.6 9.03
12/31/2021 7:00:00 AM 11.95 53.51 1.184 7.83 7.83 9.04
12/31/2021 7:15:00 AM 11.93 53.474 1.173 7.83 7.56 9.05
12/31/2021 7:30:00 AM 11.91 53.438 1.161 7.83 7.76 9.07
12/31/2021 7:45:00 AM 11.89 53.402 1.15 7.83 7.32 9.1
12/31/2021 8:00:00 AM 11.87 53.366 1.136 7.83 7.86 9.14
12/31/2021 8:15:00 AM 11.85 53.33 1.121 7.84 7.68 9.19
12/31/2021 8:30:00 AM 11.82 53.276 1.102 7.84 7.2 9.27
12/31/2021 8:45:00 AM 11.79 53.222 1.084 7.85 8 9.36
12/31/2021 9:00:00 AM 11.77 53.186 1.069 7.86 8.43 9.41
12/31/2021 9:15:00 AM 11.76 53.168 1.06 7.86 7.29 9.43
12/31/2021 9:30:00 AM 11.75 53.15 1.055 7.86 7.02 9.45
12/31/2021 9:45:00 AM 11.76 53.168 1.052 7.86 7.45 9.46
12/31/2021 10:00:00 AM 11.77 53.186 1.052 7.87 7.35 9.5
12/31/2021 10:15:00 AM 11.78 53.204 1.053 7.87 6.91 9.54
12/31/2021 10:30:00 AM 11.8 53.24 1.054 7.87 7.67 9.59
12/31/2021 10:45:00 AM 11.82 53.276 1.055 7.88 7.66 9.67
12/31/2021 11:00:00 AM 11.85 53.33 1.055 7.88 7.7 9.72
12/31/2021 11:15:00 AM 11.87 53.366 1.054 7.89 8.94 9.75
12/31/2021 11:30:00 AM 11.89 53.402 1.05 7.89 9.21 9.76
12/31/2021 11:45:00 AM 11.92 53.456 1.044 7.89 8.06 9.84
12/31/2021 12:00:00 PM 11.94 53.492 1.036 7.9 7.35 9.93
12/31/2021 12:15:00 PM 11.96 53.528 1.028 7.91 6.95 9.98
12/31/2021 12:30:00 PM 11.98 53.564 1.021 7.92 7.31 10.05
12/31/2021 12:45:00 PM 12 53.6 1.016 7.92 7.93 10.12
12/31/2021 1:00:00 PM 12.04 53.672 1.015 7.93 7.42 10.22
12/31/2021 1:15:00 PM 12.06 53.708 1.021 7.93 7.92 10.22
12/31/2021 1:30:00 PM 12.1 53.78 1.036 7.93 7.49 10.2
12/31/2021 1:45:00 PM 12.13 53.834 1.062 7.93 7.29 10.14
12/31/2021 2:00:00 PM 12.18 53.924 1.095 7.92 7 10.09
12/31/2021 2:15:00 PM 12.24 54.032 1.129 7.92 7.2 10.08
12/31/2021 2:30:00 PM 12.29 54.122 1.159 7.91 7.16 10.06
12/31/2021 2:45:00 PM 12.35 54.23 1.181 7.91 6.87 10.07
12/31/2021 3:00:00 PM 12.41 54.338 1.195 7.92 6.59 10.11
12/31/2021 3:15:00 PM 12.46 54.428 1.203 7.92 6.95 10.12
12/31/2021 3:30:00 PM 12.51 54.518 1.21 7.92 7.21 10.18
12/31/2021 3:45:00 PM 12.55 54.59 1.216 7.93 7.34 10.18
12/31/2021 4:00:00 PM 12.58 54.644 1.223 7.92 6.87 10.14
12/31/2021 4:15:00 PM 12.61 54.698 1.23 7.93 6.95 10.12
12/31/2021 4:30:00 PM 12.63 54.734 1.236 7.92 6.72 10.03
12/31/2021 4:45:00 PM 12.64 54.752 1.24 7.91 6.49 9.91
12/31/2021 5:00:00 PM 12.65 54.77 1.241 7.9 7 9.81
12/31/2021 5:15:00 PM 12.65 54.77 1.24 7.9 6.48 9.75
12/31/2021 5:30:00 PM 12.65 54.77 1.238 7.9 6.97 9.71
12/31/2021 5:45:00 PM 12.65 54.77 1.235 7.89 6.62 9.67
12/31/2021 6:00:00 PM 12.65 54.77 1.233 7.89 7.03 9.64
12/31/2021 6:15:00 PM 12.64 54.752 1.23 7.89 6.64 9.61
12/31/2021 6:30:00 PM 12.64 54.752 1.226 7.89 6.21 9.58
12/31/2021 6:45:00 PM 12.64 54.752 1.222 7.88 6.37 9.54
12/31/2021 7:00:00 PM 12.63 54.734 1.218 7.88 6.13 9.51
12/31/2021 7:15:00 PM 12.62 54.716 1.214 7.88 5.92 9.47
12/31/2021 7:30:00 PM 12.61 54.698 1.212 7.87 5.83 9.43
12/31/2021 7:45:00 PM 12.59 54.662 1.209 7.87 5.72 9.39
12/31/2021 8:00:00 PM 12.59 54.662 1.206 7.87 6.18 9.35
12/31/2021 8:15:00 PM 12.58 54.644 1.203 7.86 6.01 9.32
12/31/2021 8:30:00 PM 12.57 54.626 1.199 7.86 6.08 9.29
12/31/2021 8:45:00 PM 12.56 54.608 1.196 7.86 6.75 9.25
12/31/2021 9:00:00 PM 12.55 54.59 1.194 7.85 6 9.22
12/31/2021 9:15:00 PM 12.54 54.572 1.192 7.85 5.7 9.19
12/31/2021 9:30:00 PM 12.53 54.554 1.19 7.85 5.63 9.15
12/31/2021 9:45:00 PM 12.52 54.536 1.188 7.84 5.71 9.12
12/31/2021 10:00:00 PM 12.5 54.5 1.187 7.84 6.02 9.09
12/31/2021 10:15:00 PM 12.49 54.482 1.185 7.84 5.59 9.06
12/31/2021 10:30:00 PM -99999.99 -179968 -99999.99 -99999.99 -99999.99 -99999.99
12/31/2021 10:45:00 PM -99999.99 -179968 -99999.99 -99999.99 -99999.99 -99999.99
12/31/2021 11:00:00 PM -99999.99 -179968 -99999.99 -99999.99 -99999.99 -99999.99
12/31/2021 11:15:00 PM -99999.99 -179968 -99999.99 -99999.99 -99999.99 -99999.99
12/31/2021 11:30:00 PM -99999.99 -179968 -99999.99 -99999.99 -99999.99 -99999.99
12/31/2021 11:45:00 PM -99999.99 -179968 -99999.99 -99999.99 -99999.99 -99999.99
1/1/2022 12:00:00 AM -99999.99 -179968 -99999.99 -99999.99 -99999.99 -99999.99
1/1/2022 12:15:00 AM -99999.99 -179968 -99999.99 -99999.99 -99999.99 -99999.99
1/1/2022 12:30:00 AM -99999.99 -179968 -99999.99 -99999.99 -99999.99 -99999.99
1/1/2022 12:45:00 AM -99999.99 -179968 -99999.99 -99999.99 -99999.99 -99999.99
1/1/2022 1:00:00 AM -99999.99 -179968 -99999.99 -99999.99 -99999.99 -99999.99
1/1/2022 1:15:00 AM -99999.99 -179968 -99999.99 -99999.99 -99999.99 -99999.99
1/1/2022 1:30:00 AM -99999.99 -179968 -99999.99 -99999.99 -99999.99 -99999.99
1/1/2022 1:45:00 AM -99999.99 -179968 -99999.99 -99999.99 -99999.99 -99999.99
1/1/2022 2:00:00 AM -99999.99 -179968 -99999.99 -99999.99 -99999.99 -99999.99
1/1/2022 2:15:00 AM -99999.99 -179968 -99999.99 -99999.99 -99999.99 -99999.99
1/1/2022 2:30:00 AM -99999.99 -179968 -99999.99 -99999.99 -99999.99 -99999.99
1/1/2022 2:45:00 AM -99999.99 -179968 -99999.99 -99999.99 -99999.99 -99999.99
1/1/2022 3:00:00 AM -99999.99 -179968 -99999.99 -99999.99 -99999.99 -99999.99
1/1/2022 3:15:00 AM -99999.99 -179968 -99999.99 -99999.99 -99999.99 -99999.99
1/1/2022 3:30:00 AM -99999.99 -179968 -99999.99 -99999.99 -99999.99 -99999.99
1/1/2022 3:45:00 AM -99999.99 -179968 -99999.99 -99999.99 -99999.99 -99999.99
1/1/2022 4:00:00 AM -99999.99 -179968 -99999.99 -99999.99 -99999.99 -99999.99
1/1/2022 4:15:00 AM -99999.99 -179968 -99999.99 -99999.99 -99999.99 -99999.99
1/1/2022 4:30:00 AM -99999.99 -179968 -99999.99 -99999.99 -99999.99 -99999.99
1/1/2022 4:45:00 AM -99999.99 -179968 -99999.99 -99999.99 -99999.99 -99999.99
1/1/2022 5:00:00 AM -99999.99 -179968 -99999.99 -99999.99 -99999.99 -99999.99
1/1/2022 5:15:00 AM -99999.99 -179968 -99999.99 -99999.99 -99999.99 -99999.99
1/1/2022 5:30:00 AM -99999.99 -179968 -99999.99 -99999.99 -99999.99 -99999.99
1/1/2022 5:45:00 AM -99999.99 -179968 -99999.99 -99999.99 -99999.99 -99999.99
1/1/2022 6:00:00 AM -99999.99 -179968 -99999.99 -99999.99 -99999.99 -99999.99
1/1/2022 6:15:00 AM -99999.99 -179968 -99999.99 -99999.99 -99999.99 -99999.99
1/1/2022 6:30:00 AM -99999.99 -179968 -99999.99 -99999.99 -99999.99 -99999.99
1/1/2022 6:45:00 AM -99999.99 -179968 -99999.99 -99999.99 -99999.99 -99999.99
1/1/2022 7:00:00 AM -99999.99 -179968 -99999.99 -99999.99 -99999.99 -99999.99
1/1/2022 7:15:00 AM -99999.99 -179968 -99999.99 -99999.99 -99999.99 -99999.99
1/1/2022 7:30:00 AM -99999.99 -179968 -99999.99 -99999.99 -99999.99 -99999.99
1/1/2022 7:45:00 AM -99999.99 -179968 -99999.99 -99999.99 -99999.99 -99999.99
1/1/2022 8:00:00 AM -99999.99 -179968 -99999.99 -99999.99 -99999.99 -99999.99
1/1/2022 8:15:00 AM -99999.99 -179968 -99999.99 -99999.99 -99999.99 -99999.99
1/1/2022 8:30:00 AM -99999.99 -179968 -99999.99 -99999.99 -99999.99 -99999.99
1/1/2022 8:45:00 AM -99999.99 -179968 -99999.99 -99999.99 -99999.99 -99999.99
1/1/2022 9:00:00 AM -99999.99 -179968 -99999.99 -99999.99 -99999.99 -99999.99
1/1/2022 9:15:00 AM -99999.99 -179968 -99999.99 -99999.99 -99999.99 -99999.99
1/1/2022 9:30:00 AM -99999.99 -179968 -99999.99 -99999.99 -99999.99 -99999.99
1/1/2022 9:45:00 AM -99999.99 -179968 -99999.99 -99999.99 -99999.99 -99999.99
1/1/2022 10:00:00 AM -99999.99 -179968 -99999.99 -99999.99 -99999.99 -99999.99
1/1/2022 10:15:00 AM -99999.99 -179968 -99999.99 -99999.99 -99999.99 -99999.99
1/1/2022 10:30:00 AM -99999.99 -179968 -99999.99 -99999.99 -99999.99 -99999.99
1/1/2022 10:45:00 AM -99999.99 -179968 -99999.99 -99999.99 -99999.99 -99999.99
1/1/2022 11:00:00 AM -99999.99 -179968 -99999.99 -99999.99 -99999.99 -99999.99
1/1/2022 11:15:00 AM -99999.99 -179968 -99999.99 -99999.99 -99999.99 -99999.99
1/1/2022 11:30:00 AM -99999.99 -179968 -99999.99 -99999.99 -99999.99 -99999.99
1/1/2022 11:45:00 AM -99999.99 -179968 -99999.99 -99999.99 -99999.99 -99999.99
1/1/2022 12:00:00 PM -99999.99 -179968 -99999.99 -99999.99 -99999.99 -99999.99
1/1/2022 12:15:00 PM -99999.99 -179968 -99999.99 -99999.99 -99999.99 -99999.99
1/1/2022 12:30:00 PM -99999.99 -179968 -99999.99 -99999.99 -99999.99 -99999.99
1/1/2022 12:45:00 PM -99999.99 -179968 -99999.99 -99999.99 -99999.99 -99999.99
1/1/2022 1:00:00 PM -99999.99 -179968 -99999.99 -99999.99 -99999.99 -99999.99
1/1/2022 1:15:00 PM -99999.99 -179968 -99999.99 -99999.99 -99999.99 -99999.99
1/1/2022 1:30:00 PM -99999.99 -179968 -99999.99 -99999.99 -99999.99 -99999.99
1/1/2022 1:45:00 PM -99999.99 -179968 -99999.99 -99999.99 -99999.99 -99999.99
1/1/2022 2:00:00 PM -99999.99 -179968 -99999.99 -99999.99 -99999.99 -99999.99
1/1/2022 2:15:00 PM -99999.99 -179968 -99999.99 -99999.99 -99999.99 -99999.99
1/1/2022 2:30:00 PM -99999.99 -179968 -99999.99 -99999.99 -99999.99 -99999.99
1/1/2022 2:45:00 PM -99999.99 -179968 -99999.99 -99999.99 -99999.99 -99999.99
1/1/2022 3:00:00 PM -99999.99 -179968 -99999.99 -99999.99 -99999.99 -99999.99
1/1/2022 3:15:00 PM -99999.99 -179968 -99999.99 -99999.99 -99999.99 -99999.99
1/1/2022 3:30:00 PM -99999.99 -179968 -99999.99 -99999.99 -99999.99 -99999.99
1/1/2022 3:45:00 PM -99999.99 -179968 -99999.99 -99999.99 -99999.99 -99999.99
1/1/2022 4:00:00 PM -99999.99 -179968 -99999.99 -99999.99 -99999.99 -99999.99
1/1/2022 4:15:00 PM -99999.99 -179968 -99999.99 -99999.99 -99999.99 -99999.99
1/1/2022 4:30:00 PM -99999.99 -179968 -99999.99 -99999.99 -99999.99 -99999.99
1/1/2022 4:45:00 PM -99999.99 -179968 -99999.99 -99999.99 -99999.99 -99999.99
1/1/2022 5:00:00 PM -99999.99 -179968 -99999.99 -99999.99 -99999.99 -99999.99
1/1/2022 5:15:00 PM -99999.99 -179968 -99999.99 -99999.99 -99999.99 -99999.99
1/1/2022 5:30:00 PM -99999.99 -179968 -99999.99 -99999.99 -99999.99 -99999.99
1/1/2022 5:45:00 PM -99999.99 -179968 -99999.99 -99999.99 -99999.99 -99999.99
1/1/2022 6:00:00 PM -99999.99 -179968 -99999.99 -99999.99 -99999.99 -99999.99
1/1/2022 6:15:00 PM -99999.99 -179968 -99999.99 -99999.99 -99999.99 -99999.99
1/1/2022 6:30:00 PM -99999.99 -179968 -99999.99 -99999.99 -99999.99 -99999.99
1/1/2022 6:45:00 PM -99999.99 -179968 -99999.99 -99999.99 -99999.99 -99999.99
1/1/2022 7:00:00 PM -99999.99 -179968 -99999.99 -99999.99 -99999.99 -99999.99
1/1/2022 7:15:00 PM -99999.99 -179968 -99999.99 -99999.99 -99999.99 -99999.99
1/1/2022 7:30:00 PM -99999.99 -179968 -99999.99 -99999.99 -99999.99 -99999.99
1/1/2022 7:45:00 PM -99999.99 -179968 -99999.99 -99999.99 -99999.99 -99999.99
1/1/2022 8:00:00 PM -99999.99 -179968 -99999.99 -99999.99 -99999.99 -99999.99
1/1/2022 8:15:00 PM -99999.99 -179968 -99999.99 -99999.99 -99999.99 -99999.99
1/1/2022 8:30:00 PM -99999.99 -179968 -99999.99 -99999.99 -99999.99 -99999.99
1/1/2022 8:45:00 PM -99999.99 -179968 -99999.99 -99999.99 -99999.99 -99999.99
1/1/2022 9:00:00 PM -99999.99 -179968 -99999.99 -99999.99 -99999.99 -99999.99
1/1/2022 9:15:00 PM -99999.99 -179968 -99999.99 -99999.99 -99999.99 -99999.99
1/1/2022 9:30:00 PM -99999.99 -179968 -99999.99 -99999.99 -99999.99 -99999.99
1/1/2022 9:45:00 PM -99999.99 -179968 -99999.99 -99999.99 -99999.99 -99999.99
1/1/2022 10:00:00 PM -99999.99 -179968 -99999.99 -99999.99 -99999.99 -99999.99
1/1/2022 10:15:00 PM -99999.99 -179968 -99999.99 -99999.99 -99999.99 -99999.99
1/1/2022 10:30:00 PM -99999.99 -179968 -99999.99 -99999.99 -99999.99 -99999.99
1/1/2022 10:45:00 PM -99999.99 -179968 -99999.99 -99999.99 -99999.99 -99999.99
1/1/2022 11:00:00 PM -99999.99 -179968 -99999.99 -99999.99 -99999.99 -99999.99
1/1/2022 11:15:00 PM -99999.99 -179968 -99999.99 -99999.99 -99999.99 -99999.99
1/1/2022 11:30:00 PM -99999.99 -179968 -99999.99 -99999.99 -99999.99 -99999.99
1/1/2022 11:45:00 PM -99999.99 -179968 -99999.99 -99999.99 -99999.99 -99999.99
1/2/2022 12:00:00 AM -99999.99 -179968 -99999.99 -99999.99 -99999.99 -99999.99
1/2/2022 12:15:00 AM -99999.99 -179968 -99999.99 -99999.99 -99999.99 -99999.99
1/2/2022 12:30:00 AM -99999.99 -179968 -99999.99 -99999.99 -99999.99 -99999.99
1/2/2022 12:45:00 AM -99999.99 -179968 -99999.99 -99999.99 -99999.99 -99999.99
1/2/2022 1:00:00 AM -99999.99 -179968 -99999.99 -99999.99 -99999.99 -99999.99
1/2/2022 1:15:00 AM -99999.99 -179968 -99999.99 -99999.99 -99999.99 -99999.99
1/2/2022 1:30:00 AM -99999.99 -179968 -99999.99 -99999.99 -99999.99 -99999.99
1/2/2022 1:45:00 AM -99999.99 -179968 -99999.99 -99999.99 -99999.99 -99999.99
1/2/2022 2:00:00 AM -99999.99 -179968 -99999.99 -99999.99 -99999.99 -99999.99
1/2/2022 2:15:00 AM -99999.99 -179968 -99999.99 -99999.99 -99999.99 -99999.99
1/2/2022 2:30:00 AM -99999.99 -179968 -99999.99 -99999.99 -99999.99 -99999.99
1/2/2022 2:45:00 AM -99999.99 -179968 -99999.99 -99999.99 -99999.99 -99999.99
1/2/2022 3:00:00 AM -99999.99 -179968 -99999.99 -99999.99 -99999.99 -99999.99
1/2/2022 3:15:00 AM -99999.99 -179968 -99999.99 -99999.99 -99999.99 -99999.99
1/2/2022 3:30:00 AM -99999.99 -179968 -99999.99 -99999.99 -99999.99 -99999.99
1/2/2022 3:45:00 AM -99999.99 -179968 -99999.99 -99999.99 -99999.99 -99999.99
1/2/2022 4:00:00 AM -99999.99 -179968 -99999.99 -99999.99 -99999.99 -99999.99
1/2/2022 4:15:00 AM -99999.99 -179968 -99999.99 -99999.99 -99999.99 -99999.99
1/2/2022 4:30:00 AM -99999.99 -179968 -99999.99 -99999.99 -99999.99 -99999.99
1/2/2022 4:45:00 AM -99999.99 -179968 -99999.99 -99999.99 -99999.99 -99999.99
1/2/2022 5:00:00 AM -99999.99 -179968 -99999.99 -99999.99 -99999.99 -99999.99
1/2/2022 5:15:00 AM -99999.99 -179968 -99999.99 -99999.99 -99999.99 -99999.99
1/2/2022 5:30:00 AM -99999.99 -179968 -99999.99 -99999.99 -99999.99 -99999.99
1/2/2022 5:45:00 AM -99999.99 -179968 -99999.99 -99999.99 -99999.99 -99999.99
1/2/2022 6:00:00 AM -99999.99 -179968 -99999.99 -99999.99 -99999.99 -99999.99
1/2/2022 6:15:00 AM -99999.99 -179968 -99999.99 -99999.99 -99999.99 -99999.99
1/2/2022 6:30:00 AM -99999.99 -179968 -99999.99 -99999.99 -99999.99 -99999.99
1/2/2022 6:45:00 AM -99999.99 -179968 -99999.99 -99999.99 -99999.99 -99999.99
1/2/2022 7:00:00 AM -99999.99 -179968 -99999.99 -99999.99 -99999.99 -99999.99
1/2/2022 7:15:00 AM -99999.99 -179968 -99999.99 -99999.99 -99999.99 -99999.99
1/2/2022 7:30:00 AM -99999.99 -179968 -99999.99 -99999.99 -99999.99 -99999.99
1/2/2022 7:45:00 AM -99999.99 -179968 -99999.99 -99999.99 -99999.99 -99999.99
1/2/2022 8:00:00 AM -99999.99 -179968 -99999.99 -99999.99 -99999.99 -99999.99
1/2/2022 8:15:00 AM -99999.99 -179968 -99999.99 -99999.99 -99999.99 -99999.99
1/2/2022 8:30:00 AM -99999.99 -179968 -99999.99 -99999.99 -99999.99 -99999.99
1/2/2022 8:45:00 AM -99999.99 -179968 -99999.99 -99999.99 -99999.99 -99999.99
1/2/2022 9:00:00 AM -99999.99 -179968 -99999.99 -99999.99 -99999.99 -99999.99
1/2/2022 9:15:00 AM -99999.99 -179968 -99999.99 -99999.99 -99999.99 -99999.99
1/2/2022 9:30:00 AM -99999.99 -179968 -99999.99 -99999.99 -99999.99 -99999.99
1/2/2022 9:45:00 AM -99999.99 -179968 -99999.99 -99999.99 -99999.99 -99999.99
1/2/2022 10:00:00 AM -99999.99 -179968 -99999.99 -99999.99 -99999.99 -99999.99
1/2/2022 10:15:00 AM 12.12 53.816 0.804 7.75 9.45 9.63
1/2/2022 10:30:00 AM -99999.99 -179968 -99999.99 -99999.99 -99999.99 -99999.99
1/2/2022 10:45:00 AM -99999.99 -179968 -99999.99 -99999.99 -99999.99 -99999.99
1/2/2022 11:00:00 AM -99999.99 -179968 -99999.99 -99999.99 -99999.99 -99999.99
1/2/2022 11:15:00 AM -99999.99 -179968 -99999.99 -99999.99 -99999.99 -99999.99
1/2/2022 11:30:00 AM -99999.99 -179968 -99999.99 -99999.99 -99999.99 -99999.99
1/2/2022 11:45:00 AM -99999.99 -179968 -99999.99 -99999.99 -99999.99 -99999.99
1/2/2022 12:00:00 PM -99999.99 -179968 -99999.99 -99999.99 -99999.99 -99999.99
1/2/2022 12:15:00 PM -99999.99 -179968 -99999.99 -99999.99 -99999.99 -99999.99
1/2/2022 12:30:00 PM -99999.99 -179968 -99999.99 -99999.99 -99999.99 -99999.99
1/2/2022 12:45:00 PM -99999.99 -179968 -99999.99 -99999.99 -99999.99 -99999.99
1/2/2022 1:00:00 PM -99999.99 -179968 -99999.99 -99999.99 -99999.99 -99999.99
1/2/2022 1:15:00 PM 12.73 54.914 0.837 7.83 7.68 10.34
1/2/2022 1:30:00 PM 12.82 55.076 0.847 7.84 6.57 10.45
1/2/2022 1:45:00 PM 12.9 55.22 0.857 7.85 6.01 10.52
1/2/2022 2:00:00 PM 12.97 55.346 0.868 7.86 6.36 10.55
1/2/2022 2:15:00 PM 13.04 55.472 0.878 7.86 6.32 10.56
1/2/2022 2:30:00 PM 13.11 55.598 0.889 7.86 6.05 10.53
1/2/2022 2:45:00 PM -99999.99 -179968 -99999.99 -99999.99 -99999.99 -99999.99
1/2/2022 3:00:00 PM -99999.99 -179968 -99999.99 -99999.99 -99999.99 -99999.99
1/2/2022 3:15:00 PM -99999.99 -179968 -99999.99 -99999.99 -99999.99 -99999.99
1/2/2022 3:30:00 PM -99999.99 -179968 -99999.99 -99999.99 -99999.99 -99999.99
1/2/2022 3:45:00 PM -99999.99 -179968 -99999.99 -99999.99 -99999.99 -99999.99
1/2/2022 4:00:00 PM -99999.99 -179968 -99999.99 -99999.99 -99999.99 -99999.99
1/2/2022 4:15:00 PM -99999.99 -179968 -99999.99 -99999.99 -99999.99 -99999.99
1/2/2022 4:30:00 PM -99999.99 -179968 -99999.99 -99999.99 -99999.99 -99999.99
1/2/2022 4:45:00 PM -99999.99 -179968 -99999.99 -99999.99 -99999.99 -99999.99
1/2/2022 5:00:00 PM -99999.99 -179968 -99999.99 -99999.99 -99999.99 -99999.99
1/2/2022 5:15:00 PM -99999.99 -179968 -99999.99 -99999.99 -99999.99 -99999.99
1/2/2022 5:30:00 PM -99999.99 -179968 -99999.99 -99999.99 -99999.99 -99999.99
1/2/2022 5:45:00 PM -99999.99 -179968 -99999.99 -99999.99 -99999.99 -99999.99
1/2/2022 6:00:00 PM -99999.99 -179968 -99999.99 -99999.99 -99999.99 -99999.99
1/2/2022 6:15:00 PM -99999.99 -179968 -99999.99 -99999.99 -99999.99 -99999.99
1/2/2022 6:30:00 PM -99999.99 -179968 -99999.99 -99999.99 -99999.99 -99999.99
1/2/2022 6:45:00 PM -99999.99 -179968 -99999.99 -99999.99 -99999.99 -99999.99
1/2/2022 7:00:00 PM -99999.99 -179968 -99999.99 -99999.99 -99999.99 -99999.99
1/2/2022 7:15:00 PM -99999.99 -179968 -99999.99 -99999.99 -99999.99 -99999.99
1/2/2022 7:30:00 PM -99999.99 -179968 -99999.99 -99999.99 -99999.99 -99999.99
1/2/2022 7:45:00 PM -99999.99 -179968 -99999.99 -99999.99 -99999.99 -99999.99
1/2/2022 8:00:00 PM -99999.99 -179968 -99999.99 -99999.99 -99999.99 -99999.99
1/2/2022 8:15:00 PM -99999.99 -179968 -99999.99 -99999.99 -99999.99 -99999.99
1/2/2022 8:30:00 PM -99999.99 -179968 -99999.99 -99999.99 -99999.99 -99999.99
1/2/2022 8:45:00 PM -99999.99 -179968 -99999.99 -99999.99 -99999.99 -99999.99
1/2/2022 9:00:00 PM -99999.99 -179968 -99999.99 -99999.99 -99999.99 -99999.99
1/2/2022 9:15:00 PM -99999.99 -179968 -99999.99 -99999.99 -99999.99 -99999.99
1/2/2022 9:30:00 PM -99999.99 -179968 -99999.99 -99999.99 -99999.99 -99999.99
1/2/2022 9:45:00 PM -99999.99 -179968 -99999.99 -99999.99 -99999.99 -99999.99
1/2/2022 10:00:00 PM -99999.99 -179968 -99999.99 -99999.99 -99999.99 -99999.99
1/2/2022 10:15:00 PM -99999.99 -179968 -99999.99 -99999.99 -99999.99 -99999.99
1/2/2022 10:30:00 PM -99999.99 -179968 -99999.99 -99999.99 -99999.99 -99999.99
1/2/2022 10:45:00 PM -99999.99 -179968 -99999.99 -99999.99 -99999.99 -99999.99
1/2/2022 11:00:00 PM -99999.99 -179968 -99999.99 -99999.99 -99999.99 -99999.99
1/2/2022 11:15:00 PM -99999.99 -179968 -99999.99 -99999.99 -99999.99 -99999.99
1/2/2022 11:30:00 PM -99999.99 -179968 -99999.99 -99999.99 -99999.99 -99999.99
1/2/2022 11:45:00 PM -99999.99 -179968 -99999.99 -99999.99 -99999.99 -99999.99
1/3/2022 12:00:00 AM -99999.99 -179968 -99999.99 -99999.99 -99999.99 -99999.99
1/3/2022 12:15:00 AM -99999.99 -179968 -99999.99 -99999.99 -99999.99 -99999.99
1/3/2022 12:30:00 AM -99999.99 -179968 -99999.99 -99999.99 -99999.99 -99999.99
1/3/2022 12:45:00 AM -99999.99 -179968 -99999.99 -99999.99 -99999.99 -99999.99
1/3/2022 1:00:00 AM -99999.99 -179968 -99999.99 -99999.99 -99999.99 -99999.99
1/3/2022 1:15:00 AM -99999.99 -179968 -99999.99 -99999.99 -99999.99 -99999.99
1/3/2022 1:30:00 AM -99999.99 -179968 -99999.99 -99999.99 -99999.99 -99999.99
1/3/2022 1:45:00 AM -99999.99 -179968 -99999.99 -99999.99 -99999.99 -99999.99
1/3/2022 2:00:00 AM -99999.99 -179968 -99999.99 -99999.99 -99999.99 -99999.99
1/3/2022 2:15:00 AM -99999.99 -179968 -99999.99 -99999.99 -99999.99 -99999.99
1/3/2022 2:30:00 AM -99999.99 -179968 -99999.99 -99999.99 -99999.99 -99999.99
1/3/2022 2:45:00 AM -99999.99 -179968 -99999.99 -99999.99 -99999.99 -99999.99
1/3/2022 3:00:00 AM -99999.99 -179968 -99999.99 -99999.99 -99999.99 -99999.99
1/3/2022 3:15:00 AM -99999.99 -179968 -99999.99 -99999.99 -99999.99 -99999.99
1/3/2022 3:30:00 AM -99999.99 -179968 -99999.99 -99999.99 -99999.99 -99999.99
1/3/2022 3:45:00 AM -99999.99 -179968 -99999.99 -99999.99 -99999.99 -99999.99
1/3/2022 4:00:00 AM -99999.99 -179968 -99999.99 -99999.99 -99999.99 -99999.99
1/3/2022 4:15:00 AM -99999.99 -179968 -99999.99 -99999.99 -99999.99 -99999.99
1/3/2022 4:30:00 AM -99999.99 -179968 -99999.99 -99999.99 -99999.99 -99999.99
1/3/2022 4:45:00 AM -99999.99 -179968 -99999.99 -99999.99 -99999.99 -99999.99
1/3/2022 5:00:00 AM -99999.99 -179968 -99999.99 -99999.99 -99999.99 -99999.99
1/3/2022 5:15:00 AM -99999.99 -179968 -99999.99 -99999.99 -99999.99 -99999.99
1/3/2022 5:30:00 AM -99999.99 -179968 -99999.99 -99999.99 -99999.99 -99999.99
1/3/2022 5:45:00 AM -99999.99 -179968 -99999.99 -99999.99 -99999.99 -99999.99
1/3/2022 6:00:00 AM -99999.99 -179968 -99999.99 -99999.99 -99999.99 -99999.99
1/3/2022 6:15:00 AM -99999.99 -179968 -99999.99 -99999.99 -99999.99 -99999.99
1/3/2022 6:30:00 AM -99999.99 -179968 -99999.99 -99999.99 -99999.99 -99999.99
1/3/2022 6:45:00 AM -99999.99 -179968 -99999.99 -99999.99 -99999.99 -99999.99
1/3/2022 7:00:00 AM -99999.99 -179968 -99999.99 -99999.99 -99999.99 -99999.99
1/3/2022 7:15:00 AM -99999.99 -179968 -99999.99 -99999.99 -99999.99 -99999.99
1/3/2022 7:30:00 AM -99999.99 -179968 -99999.99 -99999.99 -99999.99 -99999.99
1/3/2022 7:45:00 AM -99999.99 -179968 -99999.99 -99999.99 -99999.99 -99999.99
1/3/2022 8:00:00 AM -99999.99 -179968 -99999.99 -99999.99 -99999.99 -99999.99
1/3/2022 8:15:00 AM -99999.99 -179968 -99999.99 -99999.99 -99999.99 -99999.99
1/3/2022 8:30:00 AM -99999.99 -179968 -99999.99 -99999.99 -99999.99 -99999.99
1/3/2022 8:45:00 AM -99999.99 -179968 -99999.99 -99999.99 -99999.99 -99999.99
1/3/2022 9:00:00 AM -99999.99 -179968 -99999.99 -99999.99 -99999.99 -99999.99
1/3/2022 9:15:00 AM -99999.99 -179968 -99999.99 -99999.99 -99999.99 -99999.99
1/3/2022 9:30:00 AM -99999.99 -179968 -99999.99 -99999.99 -99999.99 -99999.99
1/3/2022 9:45:00 AM -99999.99 -179968 -99999.99 -99999.99 -99999.99 -99999.99
1/3/2022 10:00:00 AM -99999.99 -179968 -99999.99 -99999.99 -99999.99 -99999.99
1/3/2022 10:15:00 AM -99999.99 -179968 -99999.99 -99999.99 -99999.99 -99999.99
1/3/2022 10:30:00 AM -99999.99 -179968 -99999.99 -99999.99 -99999.99 -99999.99
1/3/2022 10:45:00 AM -99999.99 -179968 -99999.99 -99999.99 -99999.99 -99999.99
1/3/2022 11:00:00 AM -99999.99 -179968 -99999.99 -99999.99 -99999.99 -99999.99
1/3/2022 11:15:00 AM -99999.99 -179968 -99999.99 -99999.99 -99999.99 -99999.99
1/3/2022 11:30:00 AM -99999.99 -179968 -99999.99 -99999.99 -99999.99 -99999.99
1/3/2022 11:45:00 AM -99999.99 -179968 -99999.99 -99999.99 -99999.99 -99999.99
1/3/2022 12:00:00 PM -99999.99 -179968 -99999.99 -99999.99 -99999.99 -99999.99
1/3/2022 12:15:00 PM -99999.99 -179968 -99999.99 -99999.99 -99999.99 -99999.99
1/3/2022 12:30:00 PM -99999.99 -179968 -99999.99 -99999.99 -99999.99 -99999.99
1/3/2022 12:45:00 PM -99999.99 -179968 -99999.99 -99999.99 -99999.99 -99999.99
1/3/2022 1:00:00 PM -99999.99 -179968 -99999.99 -99999.99 -99999.99 -99999.99
1/3/2022 1:15:00 PM -99999.99 -179968 -99999.99 -99999.99 -99999.99 -99999.99
1/3/2022 1:30:00 PM -99999.99 -179968 -99999.99 -99999.99 -99999.99 -99999.99
1/3/2022 1:45:00 PM -99999.99 -179968 -99999.99 -99999.99 -99999.99 -99999.99
1/3/2022 2:00:00 PM -99999.99 -179968 -99999.99 -99999.99 -99999.99 -99999.99
1/3/2022 2:15:00 PM -99999.99 -179968 -99999.99 -99999.99 -99999.99 -99999.99
1/3/2022 2:30:00 PM 8.69 47.642 0.981 7.94 7.19 11.26
1/3/2022 2:45:00 PM 8.7 47.66 0.981 7.95 6.35 11.38
1/3/2022 3:00:00 PM 8.71 47.678 0.98 7.96 5.82 11.45
1/3/2022 3:15:00 PM -99999.99 -179968 -99999.99 -99999.99 -99999.99 -99999.99
1/3/2022 3:30:00 PM -99999.99 -179968 -99999.99 -99999.99 -99999.99 -99999.99
1/3/2022 3:45:00 PM -99999.99 -179968 -99999.99 -99999.99 -99999.99 -99999.99
1/3/2022 4:00:00 PM -99999.99 -179968 -99999.99 -99999.99 -99999.99 -99999.99
1/3/2022 4:15:00 PM -99999.99 -179968 -99999.99 -99999.99 -99999.99 -99999.99
1/3/2022 4:30:00 PM -99999.99 -179968 -99999.99 -99999.99 -99999.99 -99999.99
1/3/2022 4:45:00 PM -99999.99 -179968 -99999.99 -99999.99 -99999.99 -99999.99
1/3/2022 5:00:00 PM -99999.99 -179968 -99999.99 -99999.99 -99999.99 -99999.99
1/3/2022 5:15:00 PM -99999.99 -179968 -99999.99 -99999.99 -99999.99 -99999.99
1/3/2022 5:30:00 PM -99999.99 -179968 -99999.99 -99999.99 -99999.99 -99999.99
1/3/2022 5:45:00 PM -99999.99 -179968 -99999.99 -99999.99 -99999.99 -99999.99
1/3/2022 6:00:00 PM -99999.99 -179968 -99999.99 -99999.99 -99999.99 -99999.99
1/3/2022 6:15:00 PM -99999.99 -179968 -99999.99 -99999.99 -99999.99 -99999.99
1/3/2022 6:30:00 PM -99999.99 -179968 -99999.99 -99999.99 -99999.99 -99999.99
1/3/2022 6:45:00 PM -99999.99 -179968 -99999.99 -99999.99 -99999.99 -99999.99
1/3/2022 7:00:00 PM -99999.99 -179968 -99999.99 -99999.99 -99999.99 -99999.99
1/3/2022 7:15:00 PM -99999.99 -179968 -99999.99 -99999.99 -99999.99 -99999.99
1/3/2022 7:30:00 PM -99999.99 -179968 -99999.99 -99999.99 -99999.99 -99999.99
1/3/2022 7:45:00 PM -99999.99 -179968 -99999.99 -99999.99 -99999.99 -99999.99
1/3/2022 8:00:00 PM -99999.99 -179968 -99999.99 -99999.99 -99999.99 -99999.99
1/3/2022 8:15:00 PM -99999.99 -179968 -99999.99 -99999.99 -99999.99 -99999.99
1/3/2022 8:30:00 PM -99999.99 -179968 -99999.99 -99999.99 -99999.99 -99999.99
1/3/2022 8:45:00 PM -99999.99 -179968 -99999.99 -99999.99 -99999.99 -99999.99
1/3/2022 9:00:00 PM -99999.99 -179968 -99999.99 -99999.99 -99999.99 -99999.99
1/3/2022 9:15:00 PM -99999.99 -179968 -99999.99 -99999.99 -99999.99 -99999.99
1/3/2022 9:30:00 PM -99999.99 -179968 -99999.99 -99999.99 -99999.99 -99999.99
1/3/2022 9:45:00 PM -99999.99 -179968 -99999.99 -99999.99 -99999.99 -99999.99
1/3/2022 10:00:00 PM -99999.99 -179968 -99999.99 -99999.99 -99999.99 -99999.99
1/3/2022 10:15:00 PM -99999.99 -179968 -99999.99 -99999.99 -99999.99 -99999.99
1/3/2022 10:30:00 PM -99999.99 -179968 -99999.99 -99999.99 -99999.99 -99999.99
1/3/2022 10:45:00 PM -99999.99 -179968 -99999.99 -99999.99 -99999.99 -99999.99
1/3/2022 11:00:00 PM -99999.99 -179968 -99999.99 -99999.99 -99999.99 -99999.99
1/3/2022 11:15:00 PM -99999.99 -179968 -99999.99 -99999.99 -99999.99 -99999.99
1/3/2022 11:30:00 PM -99999.99 -179968 -99999.99 -99999.99 -99999.99 -99999.99
1/3/2022 11:45:00 PM -99999.99 -179968 -99999.99 -99999.99 -99999.99 -99999.99
1/4/2022 12:00:00 AM -99999.99 -179968 -99999.99 -99999.99 -99999.99 -99999.99
1/4/2022 12:15:00 AM -99999.99 -179968 -99999.99 -99999.99 -99999.99 -99999.99
1/4/2022 12:30:00 AM -99999.99 -179968 -99999.99 -99999.99 -99999.99 -99999.99
1/4/2022 12:45:00 AM -99999.99 -179968 -99999.99 -99999.99 -99999.99 -99999.99
1/4/2022 1:00:00 AM -99999.99 -179968 -99999.99 -99999.99 -99999.99 -99999.99
1/4/2022 1:15:00 AM -99999.99 -179968 -99999.99 -99999.99 -99999.99 -99999.99
1/4/2022 1:30:00 AM -99999.99 -179968 -99999.99 -99999.99 -99999.99 -99999.99
1/4/2022 1:45:00 AM -99999.99 -179968 -99999.99 -99999.99 -99999.99 -99999.99
1/4/2022 2:00:00 AM -99999.99 -179968 -99999.99 -99999.99 -99999.99 -99999.99
1/4/2022 2:15:00 AM -99999.99 -179968 -99999.99 -99999.99 -99999.99 -99999.99
1/4/2022 2:30:00 AM -99999.99 -179968 -99999.99 -99999.99 -99999.99 -99999.99
1/4/2022 2:45:00 AM -99999.99 -179968 -99999.99 -99999.99 -99999.99 -99999.99
1/4/2022 3:00:00 AM -99999.99 -179968 -99999.99 -99999.99 -99999.99 -99999.99
1/4/2022 3:15:00 AM -99999.99 -179968 -99999.99 -99999.99 -99999.99 -99999.99
1/4/2022 3:30:00 AM -99999.99 -179968 -99999.99 -99999.99 -99999.99 -99999.99
1/4/2022 3:45:00 AM -99999.99 -179968 -99999.99 -99999.99 -99999.99 -99999.99
1/4/2022 4:00:00 AM -99999.99 -179968 -99999.99 -99999.99 -99999.99 -99999.99
1/4/2022 4:15:00 AM -99999.99 -179968 -99999.99 -99999.99 -99999.99 -99999.99
1/4/2022 4:30:00 AM -99999.99 -179968 -99999.99 -99999.99 -99999.99 -99999.99
1/4/2022 4:45:00 AM -99999.99 -179968 -99999.99 -99999.99 -99999.99 -99999.99
1/4/2022 5:00:00 AM -99999.99 -179968 -99999.99 -99999.99